<?xml version='1.0' encoding='UTF-8'?><gpx version="1.1" creator="JPX - https://github.com/jenetics/jpx" xmlns="http://www.topografix.com/GPX/1/1"><trk><trkseg><trkpt lat="37.620743752928455" lon="15.15053963835246"><ele>248.00000000000003</ele><time>2026-03-29T11:13:47.999Z</time></trkpt><trkpt lat="37.620770788675735" lon="15.150624887574613"><ele>248.0</ele><time>2026-03-29T11:13:49.999Z</time></trkpt><trkpt lat="37.62079621249114" lon="15.150744680215379"><ele>248.0</ele><time>2026-03-29T11:13:51.999Z</time></trkpt><trkpt lat="37.62082828808972" lon="15.15086677707191"><ele>248.0</ele><time>2026-03-29T11:13:53.999Z</time></trkpt><trkpt lat="37.620853989590685" lon="15.150963803522046"><ele>248.00000000000003</ele><time>2026-03-29T11:13:55.997Z</time></trkpt><trkpt lat="37.62088053304247" lon="15.15106304920827"><ele>248.0</ele><time>2026-03-29T11:13:57.997Z</time></trkpt><trkpt lat="37.620922979394074" lon="15.151222686857277"><ele>246.25</ele><time>2026-03-29T11:13:59.998Z</time></trkpt><trkpt lat="37.62095349317103" lon="15.1513296540762"><ele>244.5</ele><time>2026-03-29T11:14:00.998Z</time></trkpt><trkpt lat="37.620986775208" lon="15.151455338074568"><ele>242.75</ele><time>2026-03-29T11:14:01.998Z</time></trkpt><trkpt lat="37.62102299499432" lon="15.151605899795268"><ele>241.0</ele><time>2026-03-29T11:14:02.998Z</time></trkpt><trkpt lat="37.62106737808473" lon="15.151762813725327"><ele>240.33333333333331</ele><time>2026-03-29T11:14:03.998Z</time></trkpt><trkpt lat="37.621115334808344" lon="15.151940783626056"><ele>239.66666666666669</ele><time>2026-03-29T11:14:04.998Z</time></trkpt><trkpt lat="37.62116773383243" lon="15.152133544528182"><ele>239.0</ele><time>2026-03-29T11:14:05.998Z</time></trkpt><trkpt lat="37.62122607047372" lon="15.152336743119706"><ele>236.66666666666669</ele><time>2026-03-29T11:14:06.998Z</time></trkpt><trkpt lat="37.621293646730855" lon="15.152556339109923"><ele>234.33333333333331</ele><time>2026-03-29T11:14:07.998Z</time></trkpt><trkpt lat="37.621366142857525" lon="15.152773100880683"><ele>232.0</ele><time>2026-03-29T11:14:08.998Z</time></trkpt><trkpt lat="37.62144499704187" lon="15.152999441388241"><ele>230.0</ele><time>2026-03-29T11:14:09.998Z</time></trkpt><trkpt lat="37.62152811041643" lon="15.153242948550865"><ele>228.0</ele><time>2026-03-29T11:14:10.998Z</time></trkpt><trkpt lat="37.62161396074197" lon="15.153490471886924"><ele>226.0</ele><time>2026-03-29T11:14:11.998Z</time></trkpt><trkpt lat="37.62169683005778" lon="15.15373491875164"><ele>226.0</ele><time>2026-03-29T11:14:12.998Z</time></trkpt><trkpt lat="37.621781722151496" lon="15.153979106777223"><ele>226.0</ele><time>2026-03-29T11:14:13.998Z</time></trkpt><trkpt lat="37.621863502022165" lon="15.154217752653182"><ele>226.0</ele><time>2026-03-29T11:14:14.998Z</time></trkpt><trkpt lat="37.62194384779439" lon="15.154454830819459"><ele>226.66666666666666</ele><time>2026-03-29T11:14:15.998Z</time></trkpt><trkpt lat="37.622023375535036" lon="15.154690354357827"><ele>227.33333333333331</ele><time>2026-03-29T11:14:16.999Z</time></trkpt><trkpt lat="37.62210086525572" lon="15.15491839061413"><ele>228.0</ele><time>2026-03-29T11:14:17.999Z</time></trkpt><trkpt lat="37.62217648794511" lon="15.155140804664926"><ele>228.0</ele><time>2026-03-29T11:14:18.999Z</time></trkpt><trkpt lat="37.62225339837384" lon="15.155359188367461"><ele>228.0</ele><time>2026-03-29T11:14:19.999Z</time></trkpt><trkpt lat="37.6223269761703" lon="15.155572555005183"><ele>228.0</ele><time>2026-03-29T11:14:20.999Z</time></trkpt><trkpt lat="37.622400051598746" lon="15.155782801218557"><ele>228.0</ele><time>2026-03-29T11:14:21.999Z</time></trkpt><trkpt lat="37.62247058575815" lon="15.15598449412753"><ele>228.0</ele><time>2026-03-29T11:14:22.999Z</time></trkpt><trkpt lat="37.62253631270595" lon="15.156185319312451"><ele>228.0</ele><time>2026-03-29T11:14:23.999Z</time></trkpt><trkpt lat="37.62260301458736" lon="15.156378603752582"><ele>227.33333333333331</ele><time>2026-03-29T11:14:24.999Z</time></trkpt><trkpt lat="37.622668641895395" lon="15.156564570203495"><ele>226.66666666666666</ele><time>2026-03-29T11:14:25.999Z</time></trkpt><trkpt lat="37.622731234707246" lon="15.156746942713093"><ele>226.0</ele><time>2026-03-29T11:14:26.999Z</time></trkpt><trkpt lat="37.62279285761141" lon="15.156924628847136"><ele>225.5</ele><time>2026-03-29T11:14:27.999Z</time></trkpt><trkpt lat="37.622851775432146" lon="15.157091339640678"><ele>225.0</ele><time>2026-03-29T11:14:28.999Z</time></trkpt><trkpt lat="37.62290793850007" lon="15.157251363456092"><ele>224.5</ele><time>2026-03-29T11:14:29.999Z</time></trkpt><trkpt lat="37.6229677462745" lon="15.157404084713324"><ele>224.0</ele><time>2026-03-29T11:14:30.999Z</time></trkpt><trkpt lat="37.62303352272855" lon="15.157550838264612"><ele>224.0</ele><time>2026-03-29T11:14:31.999Z</time></trkpt><trkpt lat="37.62310350890738" lon="15.157688153097766"><ele>224.0</ele><time>2026-03-29T11:14:32.999Z</time></trkpt><trkpt lat="37.623177683434434" lon="15.15781877519546"><ele>224.0</ele><time>2026-03-29T11:14:33.999Z</time></trkpt><trkpt lat="37.62325429996227" lon="15.157946992102737"><ele>224.0</ele><time>2026-03-29T11:14:34.999Z</time></trkpt><trkpt lat="37.62333153699847" lon="15.158053419685787"><ele>224.00000000000003</ele><time>2026-03-29T11:14:35.999Z</time></trkpt><trkpt lat="37.62339453020841" lon="15.158132222600528"><ele>224.0</ele><time>2026-03-29T11:14:36.999Z</time></trkpt><trkpt lat="37.62344464914371" lon="15.158192975042596"><ele>224.0</ele><time>2026-03-29T11:14:37.999Z</time></trkpt><trkpt lat="37.62350859474712" lon="15.158268141648964"><ele>224.0</ele><time>2026-03-29T11:14:39.999Z</time></trkpt><trkpt lat="37.623567534349334" lon="15.158331176893864"><ele>224.00000000000003</ele><time>2026-03-29T11:14:42.999Z</time></trkpt><trkpt lat="37.62363942218192" lon="15.158396333890026"><ele>224.0</ele><time>2026-03-29T11:15:01Z</time></trkpt><trkpt lat="37.62371695529646" lon="15.158466495737377"><ele>224.6</ele><time>2026-03-29T11:15:03Z</time></trkpt><trkpt lat="37.623817708205706" lon="15.158554575616353"><ele>225.2</ele><time>2026-03-29T11:15:05Z</time></trkpt><trkpt lat="37.623877890174334" lon="15.158602233489159"><ele>225.79999999999998</ele><time>2026-03-29T11:15:06Z</time></trkpt><trkpt lat="37.62394600315703" lon="15.158654739496525"><ele>226.39999999999998</ele><time>2026-03-29T11:15:07Z</time></trkpt><trkpt lat="37.62402276979257" lon="15.158709285597649"><ele>227.0</ele><time>2026-03-29T11:15:08Z</time></trkpt><trkpt lat="37.62410679486804" lon="15.1587596833459"><ele>227.0</ele><time>2026-03-29T11:15:09Z</time></trkpt><trkpt lat="37.62418961006672" lon="15.158826875773117"><ele>227.0</ele><time>2026-03-29T11:15:10Z</time></trkpt><trkpt lat="37.62427522572205" lon="15.158875870099225"><ele>227.0</ele><time>2026-03-29T11:15:11Z</time></trkpt><trkpt lat="37.624374332331776" lon="15.158927353220989"><ele>227.0</ele><time>2026-03-29T11:15:12Z</time></trkpt><trkpt lat="37.624489740818014" lon="15.158961388794703"><ele>227.0</ele><time>2026-03-29T11:15:13Z</time></trkpt><trkpt lat="37.62459579117505" lon="15.159011589965512"><ele>224.75</ele><time>2026-03-29T11:15:14Z</time></trkpt><trkpt lat="37.62471171307639" lon="15.159060067077357"><ele>222.5</ele><time>2026-03-29T11:15:15Z</time></trkpt><trkpt lat="37.62483530832172" lon="15.159099147926064"><ele>220.25</ele><time>2026-03-29T11:15:16Z</time></trkpt><trkpt lat="37.62496590993157" lon="15.159128003432498"><ele>218.0</ele><time>2026-03-29T11:15:17Z</time></trkpt><trkpt lat="37.62510546296577" lon="15.159142764725846"><ele>218.0</ele><time>2026-03-29T11:15:18Z</time></trkpt><trkpt lat="37.62525266489805" lon="15.159153166460476"><ele>218.0</ele><time>2026-03-29T11:15:19Z</time></trkpt><trkpt lat="37.62539973021519" lon="15.159158128137356"><ele>218.0</ele><time>2026-03-29T11:15:20Z</time></trkpt><trkpt lat="37.62554938350001" lon="15.159165662324462"><ele>218.0</ele><time>2026-03-29T11:15:21Z</time></trkpt><trkpt lat="37.625697871814836" lon="15.159171093745128"><ele>217.75</ele><time>2026-03-29T11:15:22Z</time></trkpt><trkpt lat="37.6258459221402" lon="15.159177372428177"><ele>217.5</ele><time>2026-03-29T11:15:23Z</time></trkpt><trkpt lat="37.625993232802045" lon="15.159182955150941"><ele>217.25</ele><time>2026-03-29T11:15:24Z</time></trkpt><trkpt lat="37.62614441592752" lon="15.159189490443305"><ele>217.0</ele><time>2026-03-29T11:15:25Z</time></trkpt><trkpt lat="37.62629006139687" lon="15.159195729951385"><ele>216.25</ele><time>2026-03-29T11:15:26Z</time></trkpt><trkpt lat="37.6264373676866" lon="15.159199709649352"><ele>215.5</ele><time>2026-03-29T11:15:27Z</time></trkpt><trkpt lat="37.62658587417772" lon="15.159206446083024"><ele>214.75</ele><time>2026-03-29T11:15:28Z</time></trkpt><trkpt lat="37.626734992950894" lon="15.159211405194586"><ele>214.0</ele><time>2026-03-29T11:15:29Z</time></trkpt><trkpt lat="37.626883078208365" lon="15.159218800524295"><ele>214.0</ele><time>2026-03-29T11:15:30Z</time></trkpt><trkpt lat="37.62703128452866" lon="15.15922468426494"><ele>214.0</ele><time>2026-03-29T11:15:31Z</time></trkpt><trkpt lat="37.62717876947516" lon="15.159229186810032"><ele>214.0</ele><time>2026-03-29T11:15:32Z</time></trkpt><trkpt lat="37.62733336908424" lon="15.159236158577366"><ele>214.0</ele><time>2026-03-29T11:15:33Z</time></trkpt><trkpt lat="37.627490566072815" lon="15.159243326276204"><ele>214.0</ele><time>2026-03-29T11:15:34Z</time></trkpt><trkpt lat="37.6276484543535" lon="15.159249678442844"><ele>214.0</ele><time>2026-03-29T11:15:35Z</time></trkpt><trkpt lat="37.627803881990125" lon="15.159255433309077"><ele>213.66666666666666</ele><time>2026-03-29T11:15:36Z</time></trkpt><trkpt lat="37.62795591722742" lon="15.159260679514714"><ele>213.33333333333331</ele><time>2026-03-29T11:15:37Z</time></trkpt><trkpt lat="37.62810688390286" lon="15.159265978302107"><ele>213.0</ele><time>2026-03-29T11:15:38Z</time></trkpt><trkpt lat="37.62826172889633" lon="15.159276396392004"><ele>213.0</ele><time>2026-03-29T11:15:39Z</time></trkpt><trkpt lat="37.62841107867446" lon="15.159288664963514"><ele>213.0</ele><time>2026-03-29T11:15:40Z</time></trkpt><trkpt lat="37.6285535074183" lon="15.15930322772074"><ele>213.0</ele><time>2026-03-29T11:15:41Z</time></trkpt><trkpt lat="37.62868164710448" lon="15.159319625627294"><ele>213.0</ele><time>2026-03-29T11:15:42Z</time></trkpt><trkpt lat="37.628792010359575" lon="15.159339508118443"><ele>213.0</ele><time>2026-03-29T11:15:43Z</time></trkpt><trkpt lat="37.62888329479971" lon="15.159361033290768"><ele>213.0</ele><time>2026-03-29T11:15:44Z</time></trkpt><trkpt lat="37.62896290420859" lon="15.159382554293206"><ele>213.0</ele><time>2026-03-29T11:15:45Z</time></trkpt><trkpt lat="37.62906636624058" lon="15.159413779937395"><ele>213.0</ele><time>2026-03-29T11:15:47Z</time></trkpt><trkpt lat="37.62916039605965" lon="15.159446182444755"><ele>213.0</ele><time>2026-03-29T11:15:49Z</time></trkpt><trkpt lat="37.6292350705344" lon="15.159478231422886"><ele>213.0</ele><time>2026-03-29T11:15:51Z</time></trkpt><trkpt lat="37.6293013581835" lon="15.159524502446493"><ele>213.0</ele><time>2026-03-29T11:15:53Z</time></trkpt><trkpt lat="37.62939428774976" lon="15.159606575321602"><ele>213.0</ele><time>2026-03-29T11:15:55Z</time></trkpt><trkpt lat="37.629527345213624" lon="15.159619782495373"><ele>213.0</ele><time>2026-03-29T11:15:57Z</time></trkpt><trkpt lat="37.629612281213966" lon="15.159629423046994"><ele>213.0</ele><time>2026-03-29T11:15:58Z</time></trkpt><trkpt lat="37.62970662786496" lon="15.159658723197989"><ele>212.5</ele><time>2026-03-29T11:15:59Z</time></trkpt><trkpt lat="37.62981395922748" lon="15.159704854840912"><ele>212.0</ele><time>2026-03-29T11:16:00Z</time></trkpt><trkpt lat="37.62991893716937" lon="15.159762044902058"><ele>211.5</ele><time>2026-03-29T11:16:01Z</time></trkpt><trkpt lat="37.63002902018629" lon="15.159829403119444"><ele>211.0</ele><time>2026-03-29T11:16:01.999Z</time></trkpt><trkpt lat="37.630149383243484" lon="15.15990188016321"><ele>210.25</ele><time>2026-03-29T11:16:02.999Z</time></trkpt><trkpt lat="37.630272123990466" lon="15.159980115538742"><ele>209.5</ele><time>2026-03-29T11:16:03.999Z</time></trkpt><trkpt lat="37.63039783869242" lon="15.160067370199172"><ele>208.75</ele><time>2026-03-29T11:16:04.999Z</time></trkpt><trkpt lat="37.63051772482316" lon="15.160160504448905"><ele>208.0</ele><time>2026-03-29T11:16:05.999Z</time></trkpt><trkpt lat="37.630640423062914" lon="15.160261167442298"><ele>208.0</ele><time>2026-03-29T11:16:06.999Z</time></trkpt><trkpt lat="37.63076545880548" lon="15.16036967189276"><ele>208.0</ele><time>2026-03-29T11:16:07.999Z</time></trkpt><trkpt lat="37.6308839683251" lon="15.160481950530473"><ele>208.0</ele><time>2026-03-29T11:16:08.999Z</time></trkpt><trkpt lat="37.63099513435591" lon="15.160593114520427"><ele>208.0</ele><time>2026-03-29T11:16:09.999Z</time></trkpt><trkpt lat="37.631099580731586" lon="15.160708602735244"><ele>208.75</ele><time>2026-03-29T11:16:10.999Z</time></trkpt><trkpt lat="37.63120416641685" lon="15.160827081847795"><ele>209.5</ele><time>2026-03-29T11:16:11.999Z</time></trkpt><trkpt lat="37.631304092134386" lon="15.16094199438307"><ele>210.25</ele><time>2026-03-29T11:16:12.999Z</time></trkpt><trkpt lat="37.63140441028486" lon="15.16105986365642"><ele>211.0</ele><time>2026-03-29T11:16:13.999Z</time></trkpt><trkpt lat="37.631506623051195" lon="15.161184041687614"><ele>211.0</ele><time>2026-03-29T11:16:14.999Z</time></trkpt><trkpt lat="37.6316045649242" lon="15.161302343777932"><ele>211.0</ele><time>2026-03-29T11:16:15.999Z</time></trkpt><trkpt lat="37.63170690083821" lon="15.16142469196256"><ele>211.0</ele><time>2026-03-29T11:16:16.999Z</time></trkpt><trkpt lat="37.63181256778255" lon="15.161546397217775"><ele>211.0</ele><time>2026-03-29T11:16:17.999Z</time></trkpt><trkpt lat="37.63191985135161" lon="15.161673160184863"><ele>211.33333333333331</ele><time>2026-03-29T11:16:18.999Z</time></trkpt><trkpt lat="37.63203779777037" lon="15.161793426517711"><ele>211.66666666666669</ele><time>2026-03-29T11:16:19.999Z</time></trkpt><trkpt lat="37.63215960188473" lon="15.161908329764449"><ele>212.0</ele><time>2026-03-29T11:16:20.999Z</time></trkpt><trkpt lat="37.63228405217629" lon="15.162018306094955"><ele>212.0</ele><time>2026-03-29T11:16:21.999Z</time></trkpt><trkpt lat="37.63241214760748" lon="15.16212397400345"><ele>212.0</ele><time>2026-03-29T11:16:22.999Z</time></trkpt><trkpt lat="37.632541728455124" lon="15.162226521224532"><ele>212.0</ele><time>2026-03-29T11:16:23.999Z</time></trkpt><trkpt lat="37.632670176444456" lon="15.162323601208234"><ele>211.66666666666669</ele><time>2026-03-29T11:16:24.999Z</time></trkpt><trkpt lat="37.6328027070322" lon="15.162414948949017"><ele>211.33333333333331</ele><time>2026-03-29T11:16:25.999Z</time></trkpt><trkpt lat="37.63293874740444" lon="15.162499374577036"><ele>211.0</ele><time>2026-03-29T11:16:26.999Z</time></trkpt><trkpt lat="37.63307606410681" lon="15.162576794318491"><ele>211.0</ele><time>2026-03-29T11:16:27.999Z</time></trkpt><trkpt lat="37.63321669018997" lon="15.16264797749539"><ele>211.0</ele><time>2026-03-29T11:16:28.999Z</time></trkpt><trkpt lat="37.63335752142317" lon="15.162714411805966"><ele>211.0</ele><time>2026-03-29T11:16:29.999Z</time></trkpt><trkpt lat="37.63350371442184" lon="15.162772441249151"><ele>211.5</ele><time>2026-03-29T11:16:30.999Z</time></trkpt><trkpt lat="37.63364612993982" lon="15.162826628366753"><ele>212.0</ele><time>2026-03-29T11:16:32Z</time></trkpt><trkpt lat="37.633783751126785" lon="15.162875022746018"><ele>212.5</ele><time>2026-03-29T11:16:33Z</time></trkpt><trkpt lat="37.63392094970445" lon="15.162918172714592"><ele>213.0</ele><time>2026-03-29T11:16:34Z</time></trkpt><trkpt lat="37.6340625517362" lon="15.162958113243903"><ele>213.0</ele><time>2026-03-29T11:16:35Z</time></trkpt><trkpt lat="37.634199856724834" lon="15.162996268803367"><ele>213.0</ele><time>2026-03-29T11:16:36Z</time></trkpt><trkpt lat="37.634337185328334" lon="15.163034813527808"><ele>213.0</ele><time>2026-03-29T11:16:37Z</time></trkpt><trkpt lat="37.63447364709123" lon="15.163071535494348"><ele>213.0</ele><time>2026-03-29T11:16:38Z</time></trkpt><trkpt lat="37.63461225652704" lon="15.163106691175306"><ele>213.5</ele><time>2026-03-29T11:16:39Z</time></trkpt><trkpt lat="37.63474886785595" lon="15.163142319263422"><ele>214.0</ele><time>2026-03-29T11:16:40Z</time></trkpt><trkpt lat="37.63488076374207" lon="15.163177265894715"><ele>214.5</ele><time>2026-03-29T11:16:41Z</time></trkpt><trkpt lat="37.63500898423391" lon="15.163211142236808"><ele>215.0</ele><time>2026-03-29T11:16:42Z</time></trkpt><trkpt lat="37.63513543615794" lon="15.163246513042642"><ele>214.25</ele><time>2026-03-29T11:16:43Z</time></trkpt><trkpt lat="37.63526007459073" lon="15.163280645810525"><ele>213.5</ele><time>2026-03-29T11:16:44Z</time></trkpt><trkpt lat="37.635385926361444" lon="15.163314121364166"><ele>212.75</ele><time>2026-03-29T11:16:45Z</time></trkpt><trkpt lat="37.63551376757782" lon="15.163345385184357"><ele>212.0</ele><time>2026-03-29T11:16:46Z</time></trkpt><trkpt lat="37.63563867942999" lon="15.163372899977444"><ele>212.0</ele><time>2026-03-29T11:16:47Z</time></trkpt><trkpt lat="37.63576671306943" lon="15.163392280628937"><ele>212.0</ele><time>2026-03-29T11:16:48Z</time></trkpt><trkpt lat="37.63588900152007" lon="15.163402834664693"><ele>212.0</ele><time>2026-03-29T11:16:49Z</time></trkpt><trkpt lat="37.63601645984876" lon="15.16340614812005"><ele>212.0</ele><time>2026-03-29T11:16:50Z</time></trkpt><trkpt lat="37.63613957597849" lon="15.163400282502726"><ele>211.5</ele><time>2026-03-29T11:16:51Z</time></trkpt><trkpt lat="37.63626252897103" lon="15.163393702744834"><ele>211.0</ele><time>2026-03-29T11:16:52Z</time></trkpt><trkpt lat="37.63638452380536" lon="15.163388042652976"><ele>210.5</ele><time>2026-03-29T11:16:53Z</time></trkpt><trkpt lat="37.636508022717" lon="15.163370381064516"><ele>210.0</ele><time>2026-03-29T11:16:54Z</time></trkpt><trkpt lat="37.63663687289406" lon="15.163345151249114"><ele>210.0</ele><time>2026-03-29T11:16:55Z</time></trkpt><trkpt lat="37.63676204713971" lon="15.163308451655459"><ele>210.0</ele><time>2026-03-29T11:16:56Z</time></trkpt><trkpt lat="37.63688964454765" lon="15.163269961647092"><ele>210.0</ele><time>2026-03-29T11:16:57Z</time></trkpt><trkpt lat="37.63701793015704" lon="15.163223212205102"><ele>210.0</ele><time>2026-03-29T11:16:58Z</time></trkpt><trkpt lat="37.6371453979606" lon="15.16316969193058"><ele>209.25</ele><time>2026-03-29T11:16:59Z</time></trkpt><trkpt lat="37.63727140445864" lon="15.163110236439989"><ele>208.5</ele><time>2026-03-29T11:17:00Z</time></trkpt><trkpt lat="37.63739532798728" lon="15.163046039423415"><ele>207.75</ele><time>2026-03-29T11:17:01Z</time></trkpt><trkpt lat="37.63751934846806" lon="15.162981609482847"><ele>207.0</ele><time>2026-03-29T11:17:02Z</time></trkpt><trkpt lat="37.63764544233433" lon="15.162924557991179"><ele>207.0</ele><time>2026-03-29T11:17:03Z</time></trkpt><trkpt lat="37.637772946061716" lon="15.162870817532635"><ele>207.0</ele><time>2026-03-29T11:17:04Z</time></trkpt><trkpt lat="37.637903854300426" lon="15.162827559331525"><ele>207.0</ele><time>2026-03-29T11:17:05Z</time></trkpt><trkpt lat="37.63803095063868" lon="15.162777837103933"><ele>207.0</ele><time>2026-03-29T11:17:06Z</time></trkpt><trkpt lat="37.638145848848104" lon="15.162732026179617"><ele>207.39999999999998</ele><time>2026-03-29T11:17:07Z</time></trkpt><trkpt lat="37.63824729742703" lon="15.162696742687345"><ele>207.79999999999998</ele><time>2026-03-29T11:17:08Z</time></trkpt><trkpt lat="37.63834840695467" lon="15.162673024552584"><ele>208.2</ele><time>2026-03-29T11:17:09Z</time></trkpt><trkpt lat="37.63844126790071" lon="15.162670325096467"><ele>208.6</ele><time>2026-03-29T11:17:10Z</time></trkpt><trkpt lat="37.63853326476024" lon="15.1626827146303"><ele>209.0</ele><time>2026-03-29T11:17:11Z</time></trkpt><trkpt lat="37.63861996397703" lon="15.162683978821116"><ele>208.00000000000003</ele><time>2026-03-29T11:17:12Z</time></trkpt><trkpt lat="37.63868114242534" lon="15.162725715468127"><ele>207.0</ele><time>2026-03-29T11:17:13Z</time></trkpt><trkpt lat="37.6387452397374" lon="15.162735426641087"><ele>206.0</ele><time>2026-03-29T11:17:16Z</time></trkpt><trkpt lat="37.63885153427196" lon="15.162768168230267"><ele>205.0</ele><time>2026-03-29T11:17:19Z</time></trkpt><trkpt lat="37.63893692802668" lon="15.162666051571312"><ele>204.00000000000003</ele><time>2026-03-29T11:17:21Z</time></trkpt><trkpt lat="37.639000029870985" lon="15.162592400648942"><ele>203.0</ele><time>2026-03-29T11:17:22Z</time></trkpt><trkpt lat="37.63906055333127" lon="15.16252563050302"><ele>203.0</ele><time>2026-03-29T11:17:23Z</time></trkpt><trkpt lat="37.63913184125481" lon="15.16245543545815"><ele>203.0</ele><time>2026-03-29T11:17:24Z</time></trkpt><trkpt lat="37.639205915635024" lon="15.162374728434582"><ele>203.0</ele><time>2026-03-29T11:17:25.001Z</time></trkpt><trkpt lat="37.63929519764484" lon="15.162302783569958"><ele>203.0</ele><time>2026-03-29T11:17:26.001Z</time></trkpt><trkpt lat="37.63939645182117" lon="15.162234925031076"><ele>203.0</ele><time>2026-03-29T11:17:27.001Z</time></trkpt><trkpt lat="37.639511977333306" lon="15.162163584175548"><ele>204.25</ele><time>2026-03-29T11:17:28.001Z</time></trkpt><trkpt lat="37.63962442304599" lon="15.162102481416131"><ele>205.5</ele><time>2026-03-29T11:17:29.001Z</time></trkpt><trkpt lat="37.639749769176454" lon="15.162038961273067"><ele>206.75</ele><time>2026-03-29T11:17:30.001Z</time></trkpt><trkpt lat="37.63988298295202" lon="15.161979847131668"><ele>208.0</ele><time>2026-03-29T11:17:31.001Z</time></trkpt><trkpt lat="37.64002504129558" lon="15.16192527953686"><ele>208.0</ele><time>2026-03-29T11:17:32.001Z</time></trkpt><trkpt lat="37.64017072951993" lon="15.161877740337424"><ele>208.0</ele><time>2026-03-29T11:17:33.001Z</time></trkpt><trkpt lat="37.64031813869118" lon="15.161839669450124"><ele>208.0</ele><time>2026-03-29T11:17:34.001Z</time></trkpt><trkpt lat="37.64046475857084" lon="15.161804421042119"><ele>207.0</ele><time>2026-03-29T11:17:35.001Z</time></trkpt><trkpt lat="37.64061336211737" lon="15.161770379670392"><ele>206.0</ele><time>2026-03-29T11:17:36.001Z</time></trkpt><trkpt lat="37.64075695209382" lon="15.161738881743037"><ele>205.0</ele><time>2026-03-29T11:17:37.001Z</time></trkpt><trkpt lat="37.64090153582684" lon="15.161708116102446"><ele>204.0</ele><time>2026-03-29T11:17:38.001Z</time></trkpt><trkpt lat="37.64104715712832" lon="15.161677513692602"><ele>203.5</ele><time>2026-03-29T11:17:39.001Z</time></trkpt><trkpt lat="37.64119384902341" lon="15.161639148097253"><ele>203.0</ele><time>2026-03-29T11:17:40.001Z</time></trkpt><trkpt lat="37.64133744198286" lon="15.161593349604704"><ele>202.5</ele><time>2026-03-29T11:17:41.001Z</time></trkpt><trkpt lat="37.64148084331228" lon="15.161538439737573"><ele>202.0</ele><time>2026-03-29T11:17:42.001Z</time></trkpt><trkpt lat="37.641622784887254" lon="15.161472417021775"><ele>203.0</ele><time>2026-03-29T11:17:43.001Z</time></trkpt><trkpt lat="37.64176383488086" lon="15.161398965464125"><ele>204.0</ele><time>2026-03-29T11:17:44.001Z</time></trkpt><trkpt lat="37.64190360910667" lon="15.16131910902114"><ele>205.0</ele><time>2026-03-29T11:17:45.001Z</time></trkpt><trkpt lat="37.64203888127245" lon="15.16123034346504"><ele>205.0</ele><time>2026-03-29T11:17:46.001Z</time></trkpt><trkpt lat="37.64217494931046" lon="15.161133721659597"><ele>205.0</ele><time>2026-03-29T11:17:47.001Z</time></trkpt><trkpt lat="37.6423041017652" lon="15.161022588849153"><ele>205.0</ele><time>2026-03-29T11:17:48.001Z</time></trkpt><trkpt lat="37.642436043813696" lon="15.160910617867865"><ele>205.0</ele><time>2026-03-29T11:17:49.001Z</time></trkpt><trkpt lat="37.64256680127814" lon="15.160794903689748"><ele>205.0</ele><time>2026-03-29T11:17:50.001Z</time></trkpt><trkpt lat="37.64269311386674" lon="15.160681602784992"><ele>205.0</ele><time>2026-03-29T11:17:51.001Z</time></trkpt><trkpt lat="37.642817085166875" lon="15.160573187641438"><ele>206.75</ele><time>2026-03-29T11:17:52.001Z</time></trkpt><trkpt lat="37.64293901088798" lon="15.160464460204231"><ele>208.5</ele><time>2026-03-29T11:17:53.001Z</time></trkpt><trkpt lat="37.643058395198224" lon="15.160359952713279"><ele>210.25</ele><time>2026-03-29T11:17:54.001Z</time></trkpt><trkpt lat="37.64317350340401" lon="15.160258176053315"><ele>212.0</ele><time>2026-03-29T11:17:55.001Z</time></trkpt><trkpt lat="37.64328784416818" lon="15.160158179243865"><ele>212.0</ele><time>2026-03-29T11:17:56.001Z</time></trkpt><trkpt lat="37.64339744619093" lon="15.16005856112475"><ele>212.0</ele><time>2026-03-29T11:17:57.001Z</time></trkpt><trkpt lat="37.64350413671527" lon="15.159961907512654"><ele>212.0</ele><time>2026-03-29T11:17:58.001Z</time></trkpt><trkpt lat="37.643608282728245" lon="15.159866424892218"><ele>212.0</ele><time>2026-03-29T11:17:59.001Z</time></trkpt><trkpt lat="37.64371155989855" lon="15.159775967121643"><ele>210.25</ele><time>2026-03-29T11:18:00.001Z</time></trkpt><trkpt lat="37.64380711092362" lon="15.159688709384561"><ele>208.5</ele><time>2026-03-29T11:18:01.001Z</time></trkpt><trkpt lat="37.64389950318091" lon="15.159606444611615"><ele>206.75</ele><time>2026-03-29T11:18:02.001Z</time></trkpt><trkpt lat="37.64399239989189" lon="15.159527213759379"><ele>205.0</ele><time>2026-03-29T11:18:03.001Z</time></trkpt><trkpt lat="37.64408329174625" lon="15.15944849624427"><ele>205.0</ele><time>2026-03-29T11:18:04.001Z</time></trkpt><trkpt lat="37.64418091042073" lon="15.159377073487587"><ele>205.0</ele><time>2026-03-29T11:18:05.001Z</time></trkpt><trkpt lat="37.644271711944256" lon="15.159295979249025"><ele>205.0</ele><time>2026-03-29T11:18:06.001Z</time></trkpt><trkpt lat="37.64436337873119" lon="15.159213822579952"><ele>205.0</ele><time>2026-03-29T11:18:07.001Z</time></trkpt><trkpt lat="37.6444576826588" lon="15.159130399520844"><ele>206.0</ele><time>2026-03-29T11:18:07.999Z</time></trkpt><trkpt lat="37.64455760240143" lon="15.159044053272853"><ele>207.0</ele><time>2026-03-29T11:18:08.999Z</time></trkpt><trkpt lat="37.64465733248209" lon="15.158958853481312"><ele>208.0</ele><time>2026-03-29T11:18:09.999Z</time></trkpt><trkpt lat="37.644756576093734" lon="15.158874178071011"><ele>209.0</ele><time>2026-03-29T11:18:10.999Z</time></trkpt><trkpt lat="37.64485777162512" lon="15.158790335564687"><ele>209.0</ele><time>2026-03-29T11:18:11.999Z</time></trkpt><trkpt lat="37.644956017556" lon="15.158705607941032"><ele>209.0</ele><time>2026-03-29T11:18:12.999Z</time></trkpt><trkpt lat="37.64505685842086" lon="15.158615321905883"><ele>209.0</ele><time>2026-03-29T11:18:13.999Z</time></trkpt><trkpt lat="37.64515534456855" lon="15.158525374620723"><ele>209.0</ele><time>2026-03-29T11:18:14.999Z</time></trkpt><trkpt lat="37.645252121654735" lon="15.158437641413364"><ele>208.5</ele><time>2026-03-29T11:18:15.999Z</time></trkpt><trkpt lat="37.645347752043676" lon="15.158351360685755"><ele>208.0</ele><time>2026-03-29T11:18:16.999Z</time></trkpt><trkpt lat="37.64544525046415" lon="15.158264125015977"><ele>207.5</ele><time>2026-03-29T11:18:17.999Z</time></trkpt><trkpt lat="37.64554525411601" lon="15.158176764177819"><ele>207.0</ele><time>2026-03-29T11:18:18.999Z</time></trkpt><trkpt lat="37.6456447960343" lon="15.15808956062949"><ele>207.0</ele><time>2026-03-29T11:18:19.999Z</time></trkpt><trkpt lat="37.6457474937349" lon="15.15800393533004"><ele>207.0</ele><time>2026-03-29T11:18:20.999Z</time></trkpt><trkpt lat="37.64585343477246" lon="15.157913474945175"><ele>207.0</ele><time>2026-03-29T11:18:21.999Z</time></trkpt><trkpt lat="37.645955846471466" lon="15.157823063458261"><ele>207.0</ele><time>2026-03-29T11:18:22.999Z</time></trkpt><trkpt lat="37.64605924950357" lon="15.157735679556454"><ele>204.0</ele><time>2026-03-29T11:18:23.999Z</time></trkpt><trkpt lat="37.64616084702147" lon="15.157650462494116"><ele>201.0</ele><time>2026-03-29T11:18:24.999Z</time></trkpt><trkpt lat="37.64626220906015" lon="15.157566814076404"><ele>198.0</ele><time>2026-03-29T11:18:25.999Z</time></trkpt><trkpt lat="37.64636067362345" lon="15.157484401542028"><ele>195.0</ele><time>2026-03-29T11:18:26.999Z</time></trkpt><trkpt lat="37.64645714127116" lon="15.157401869824575"><ele>197.8</ele><time>2026-03-29T11:18:27.999Z</time></trkpt><trkpt lat="37.64655151861443" lon="15.15731867114022"><ele>200.6</ele><time>2026-03-29T11:18:28.999Z</time></trkpt><trkpt lat="37.64664359541743" lon="15.157235180273162"><ele>203.39999999999998</ele><time>2026-03-29T11:18:29.999Z</time></trkpt><trkpt lat="37.646728374246614" lon="15.157157752445691"><ele>206.2</ele><time>2026-03-29T11:18:31Z</time></trkpt><trkpt lat="37.64680778743421" lon="15.157086972726143"><ele>209.0</ele><time>2026-03-29T11:18:32Z</time></trkpt><trkpt lat="37.64687971324794" lon="15.15702364923461"><ele>209.0</ele><time>2026-03-29T11:18:33Z</time></trkpt><trkpt lat="37.64694351504396" lon="15.156963515499315"><ele>209.0</ele><time>2026-03-29T11:18:34Z</time></trkpt><trkpt lat="37.64699999077888" lon="15.156905456814334"><ele>209.0</ele><time>2026-03-29T11:18:35Z</time></trkpt><trkpt lat="37.647051514564154" lon="15.156854677413872"><ele>209.0</ele><time>2026-03-29T11:18:36Z</time></trkpt><trkpt lat="37.64710955089873" lon="15.156812556420396"><ele>209.0</ele><time>2026-03-29T11:18:37Z</time></trkpt><trkpt lat="37.64718185413207" lon="15.156794893852757"><ele>209.0</ele><time>2026-03-29T11:18:38Z</time></trkpt><trkpt lat="37.64725918903076" lon="15.156775576786032"><ele>209.0</ele><time>2026-03-29T11:18:39Z</time></trkpt><trkpt lat="37.647344489114246" lon="15.156749823305255"><ele>208.0</ele><time>2026-03-29T11:18:40Z</time></trkpt><trkpt lat="37.64743045084652" lon="15.156706304187592"><ele>207.0</ele><time>2026-03-29T11:18:41Z</time></trkpt><trkpt lat="37.647542012798866" lon="15.156722146680183"><ele>206.0</ele><time>2026-03-29T11:18:42Z</time></trkpt><trkpt lat="37.6476487443836" lon="15.156733995764116"><ele>205.0</ele><time>2026-03-29T11:18:43Z</time></trkpt><trkpt lat="37.64776321910723" lon="15.156760699199792"><ele>204.0</ele><time>2026-03-29T11:18:44Z</time></trkpt><trkpt lat="37.64787893972475" lon="15.156799900120776"><ele>204.0</ele><time>2026-03-29T11:18:45Z</time></trkpt><trkpt lat="37.647998533564" lon="15.156853455499988"><ele>204.0</ele><time>2026-03-29T11:18:46Z</time></trkpt><trkpt lat="37.648120817097904" lon="15.156918406868384"><ele>204.0</ele><time>2026-03-29T11:18:47Z</time></trkpt><trkpt lat="37.64824523531874" lon="15.156992138355001"><ele>204.0</ele><time>2026-03-29T11:18:48Z</time></trkpt><trkpt lat="37.64837185771828" lon="15.157067224546433"><ele>204.0</ele><time>2026-03-29T11:18:49Z</time></trkpt><trkpt lat="37.648496840564285" lon="15.157138510366433"><ele>204.0</ele><time>2026-03-29T11:18:50Z</time></trkpt><trkpt lat="37.648617688690315" lon="15.157207540539627"><ele>204.0</ele><time>2026-03-29T11:18:51Z</time></trkpt><trkpt lat="37.64873414170359" lon="15.157275766301105"><ele>204.0</ele><time>2026-03-29T11:18:52Z</time></trkpt><trkpt lat="37.64885064632824" lon="15.157341125005757"><ele>202.75</ele><time>2026-03-29T11:18:53Z</time></trkpt><trkpt lat="37.648964687171194" lon="15.15740856648163"><ele>201.5</ele><time>2026-03-29T11:18:54Z</time></trkpt><trkpt lat="37.64907888005295" lon="15.157476356393625"><ele>200.25</ele><time>2026-03-29T11:18:55Z</time></trkpt><trkpt lat="37.64918940014256" lon="15.157541000544315"><ele>199.0</ele><time>2026-03-29T11:18:56Z</time></trkpt><trkpt lat="37.64930121257794" lon="15.15760374940107"><ele>199.0</ele><time>2026-03-29T11:18:57Z</time></trkpt><trkpt lat="37.64941702584695" lon="15.157664846115658"><ele>199.0</ele><time>2026-03-29T11:18:58Z</time></trkpt><trkpt lat="37.64953112173679" lon="15.15772737832763"><ele>199.0</ele><time>2026-03-29T11:18:59Z</time></trkpt><trkpt lat="37.649646429385356" lon="15.1577937149714"><ele>199.0</ele><time>2026-03-29T11:19:00Z</time></trkpt><trkpt lat="37.64976224906723" lon="15.15785908685788"><ele>199.0</ele><time>2026-03-29T11:19:01Z</time></trkpt><trkpt lat="37.64987753343792" lon="15.15792829157164"><ele>199.0</ele><time>2026-03-29T11:19:02Z</time></trkpt><trkpt lat="37.649995270155266" lon="15.158000591500613"><ele>199.0</ele><time>2026-03-29T11:19:03Z</time></trkpt><trkpt lat="37.65012081710255" lon="15.158072052365586"><ele>199.0</ele><time>2026-03-29T11:19:04Z</time></trkpt><trkpt lat="37.65024652455919" lon="15.15814643750544"><ele>199.0</ele><time>2026-03-29T11:19:05Z</time></trkpt><trkpt lat="37.65037435114835" lon="15.158218582197332"><ele>199.0</ele><time>2026-03-29T11:19:06Z</time></trkpt><trkpt lat="37.65050245071885" lon="15.158291113192828"><ele>199.0</ele><time>2026-03-29T11:19:07Z</time></trkpt><trkpt lat="37.65063381205698" lon="15.158365070375503"><ele>199.0</ele><time>2026-03-29T11:19:08Z</time></trkpt><trkpt lat="37.65075951959555" lon="15.15843696276466"><ele>199.0</ele><time>2026-03-29T11:19:09Z</time></trkpt><trkpt lat="37.65088540287026" lon="15.158509009274118"><ele>199.0</ele><time>2026-03-29T11:19:10Z</time></trkpt><trkpt lat="37.6510105516823" lon="15.158582257556276"><ele>199.0</ele><time>2026-03-29T11:19:11Z</time></trkpt><trkpt lat="37.65113943390313" lon="15.15865627088724"><ele>199.0</ele><time>2026-03-29T11:19:12Z</time></trkpt><trkpt lat="37.65126572874911" lon="15.158730097248037"><ele>199.25</ele><time>2026-03-29T11:19:13.001Z</time></trkpt><trkpt lat="37.651389006293606" lon="15.158801573512086"><ele>199.5</ele><time>2026-03-29T11:19:14.001Z</time></trkpt><trkpt lat="37.65150969721031" lon="15.15886988318043"><ele>199.75</ele><time>2026-03-29T11:19:15.001Z</time></trkpt><trkpt lat="37.65162876797108" lon="15.15893718474121"><ele>200.0</ele><time>2026-03-29T11:19:16.001Z</time></trkpt><trkpt lat="37.65174904377934" lon="15.159004588029276"><ele>199.5</ele><time>2026-03-29T11:19:17.001Z</time></trkpt><trkpt lat="37.65186503221129" lon="15.159072112382868"><ele>199.0</ele><time>2026-03-29T11:19:18.001Z</time></trkpt><trkpt lat="37.65198497645694" lon="15.15914213683967"><ele>198.5</ele><time>2026-03-29T11:19:19.001Z</time></trkpt><trkpt lat="37.65211028943401" lon="15.15921466816182"><ele>198.0</ele><time>2026-03-29T11:19:20.001Z</time></trkpt><trkpt lat="37.652238351703666" lon="15.159286870768252"><ele>198.0</ele><time>2026-03-29T11:19:21.001Z</time></trkpt><trkpt lat="37.65236976274877" lon="15.159360472819907"><ele>198.0</ele><time>2026-03-29T11:19:22.001Z</time></trkpt><trkpt lat="37.65249690223613" lon="15.159432455579807"><ele>198.0</ele><time>2026-03-29T11:19:23.001Z</time></trkpt><trkpt lat="37.652622297034554" lon="15.159505958168548"><ele>198.0</ele><time>2026-03-29T11:19:24.001Z</time></trkpt><trkpt lat="37.65274782855092" lon="15.159578707737527"><ele>198.25</ele><time>2026-03-29T11:19:25.001Z</time></trkpt><trkpt lat="37.65287711087556" lon="15.159651669880182"><ele>198.5</ele><time>2026-03-29T11:19:26.001Z</time></trkpt><trkpt lat="37.65300713312895" lon="15.15972531847533"><ele>198.75</ele><time>2026-03-29T11:19:27.001Z</time></trkpt><trkpt lat="37.65313760197311" lon="15.159797357981688"><ele>199.0</ele><time>2026-03-29T11:19:28.001Z</time></trkpt><trkpt lat="37.653267384076656" lon="15.159868586782144"><ele>198.0</ele><time>2026-03-29T11:19:29.001Z</time></trkpt><trkpt lat="37.65339456767613" lon="15.159937322674178"><ele>197.0</ele><time>2026-03-29T11:19:30.001Z</time></trkpt><trkpt lat="37.65351998139698" lon="15.160004055269104"><ele>196.0</ele><time>2026-03-29T11:19:31.001Z</time></trkpt><trkpt lat="37.65364191613481" lon="15.160068604202735"><ele>195.0</ele><time>2026-03-29T11:19:32.001Z</time></trkpt><trkpt lat="37.65376235302416" lon="15.160133766945654"><ele>195.0</ele><time>2026-03-29T11:19:33.001Z</time></trkpt><trkpt lat="37.653876535897616" lon="15.16019606118247"><ele>195.0</ele><time>2026-03-29T11:19:34.001Z</time></trkpt><trkpt lat="37.65398634096165" lon="15.160257745503383"><ele>195.0</ele><time>2026-03-29T11:19:35.001Z</time></trkpt><trkpt lat="37.65408716358654" lon="15.16031777355277"><ele>195.0</ele><time>2026-03-29T11:19:36.001Z</time></trkpt><trkpt lat="37.65417976955598" lon="15.160371170022996"><ele>195.0</ele><time>2026-03-29T11:19:37.001Z</time></trkpt><trkpt lat="37.65426747669422" lon="15.1604202120069"><ele>195.0</ele><time>2026-03-29T11:19:38.001Z</time></trkpt><trkpt lat="37.65435639812376" lon="15.160464627825828"><ele>195.0</ele><time>2026-03-29T11:19:39.001Z</time></trkpt><trkpt lat="37.65445390753195" lon="15.16049239848517"><ele>195.0</ele><time>2026-03-29T11:19:40.001Z</time></trkpt><trkpt lat="37.65455172425949" lon="15.160513734742704"><ele>195.0</ele><time>2026-03-29T11:19:41.001Z</time></trkpt><trkpt lat="37.65465292316202" lon="15.160454041183725"><ele>195.2</ele><time>2026-03-29T11:19:42.001Z</time></trkpt><trkpt lat="37.65475305528572" lon="15.160413964749944"><ele>195.4</ele><time>2026-03-29T11:19:43.001Z</time></trkpt><trkpt lat="37.65485652196075" lon="15.160388506856107"><ele>195.60000000000002</ele><time>2026-03-29T11:19:44.001Z</time></trkpt><trkpt lat="37.654964270818375" lon="15.16039275893092"><ele>195.8</ele><time>2026-03-29T11:19:45.001Z</time></trkpt><trkpt lat="37.655071337699646" lon="15.160422285206712"><ele>196.0</ele><time>2026-03-29T11:19:46.001Z</time></trkpt><trkpt lat="37.65517744363654" lon="15.160474203397158"><ele>196.0</ele><time>2026-03-29T11:19:47.001Z</time></trkpt><trkpt lat="37.6552790047579" lon="15.160534256381725"><ele>196.0</ele><time>2026-03-29T11:19:48.001Z</time></trkpt><trkpt lat="37.655385829868735" lon="15.160579960648391"><ele>196.0</ele><time>2026-03-29T11:19:49.001Z</time></trkpt><trkpt lat="37.65550344044465" lon="15.160611252398127"><ele>196.0</ele><time>2026-03-29T11:19:50.001Z</time></trkpt><trkpt lat="37.65562093490797" lon="15.16062196918558"><ele>195.25</ele><time>2026-03-29T11:19:51.001Z</time></trkpt><trkpt lat="37.65574084406854" lon="15.160626814887404"><ele>194.5</ele><time>2026-03-29T11:19:52.001Z</time></trkpt><trkpt lat="37.65586324059606" lon="15.160634519665917"><ele>193.75</ele><time>2026-03-29T11:19:53.001Z</time></trkpt><trkpt lat="37.65598567365312" lon="15.160651511953496"><ele>193.0</ele><time>2026-03-29T11:19:54.001Z</time></trkpt><trkpt lat="37.65609966726225" lon="15.160677987259207"><ele>190.2</ele><time>2026-03-29T11:19:55.001Z</time></trkpt><trkpt lat="37.65621222468076" lon="15.160703957333316"><ele>187.4</ele><time>2026-03-29T11:19:56.001Z</time></trkpt><trkpt lat="37.656326754930845" lon="15.160730988443198"><ele>184.6</ele><time>2026-03-29T11:19:57.001Z</time></trkpt><trkpt lat="37.656430390915844" lon="15.160757631634485"><ele>181.79999999999998</ele><time>2026-03-29T11:19:58.001Z</time></trkpt><trkpt lat="37.656531726844406" lon="15.160788166547125"><ele>179.0</ele><time>2026-03-29T11:19:59.001Z</time></trkpt><trkpt lat="37.656629873634344" lon="15.160834696885273"><ele>179.0</ele><time>2026-03-29T11:20:00.001Z</time></trkpt><trkpt lat="37.656718792756855" lon="15.160904733363255"><ele>179.0</ele><time>2026-03-29T11:20:01.001Z</time></trkpt><trkpt lat="37.65680197195285" lon="15.160979519892646"><ele>179.0</ele><time>2026-03-29T11:20:02.001Z</time></trkpt><trkpt lat="37.65687548196732" lon="15.161053099539602"><ele>179.0</ele><time>2026-03-29T11:20:03.001Z</time></trkpt><trkpt lat="37.65694346883531" lon="15.161127826896399"><ele>179.0</ele><time>2026-03-29T11:20:04.001Z</time></trkpt><trkpt lat="37.657004765328345" lon="15.16120921502615"><ele>179.39999999999998</ele><time>2026-03-29T11:20:05.001Z</time></trkpt><trkpt lat="37.65705292936819" lon="15.161306832145824"><ele>179.8</ele><time>2026-03-29T11:20:06.001Z</time></trkpt><trkpt lat="37.65708599583957" lon="15.161414707600233"><ele>180.2</ele><time>2026-03-29T11:20:07.002Z</time></trkpt><trkpt lat="37.6571065041767" lon="15.16152982393422"><ele>180.60000000000002</ele><time>2026-03-29T11:20:08.002Z</time></trkpt><trkpt lat="37.65711644543038" lon="15.161651507708557"><ele>181.0</ele><time>2026-03-29T11:20:09.002Z</time></trkpt><trkpt lat="37.65712331157636" lon="15.161773058349535"><ele>180.20000000000002</ele><time>2026-03-29T11:20:10.002Z</time></trkpt><trkpt lat="37.65712977428288" lon="15.161894667044654"><ele>179.4</ele><time>2026-03-29T11:20:11.002Z</time></trkpt><trkpt lat="37.65712917144196" lon="15.162022638837435"><ele>178.6</ele><time>2026-03-29T11:20:12.002Z</time></trkpt><trkpt lat="37.65711987473336" lon="15.162150086170092"><ele>177.8</ele><time>2026-03-29T11:20:13.002Z</time></trkpt><trkpt lat="37.65710577558229" lon="15.162273980153026"><ele>177.0</ele><time>2026-03-29T11:20:14Z</time></trkpt><trkpt lat="37.657081914852235" lon="15.162402730158874"><ele>175.39999999999998</ele><time>2026-03-29T11:20:15Z</time></trkpt><trkpt lat="37.657061288055594" lon="15.162536693048937"><ele>173.79999999999998</ele><time>2026-03-29T11:20:16Z</time></trkpt><trkpt lat="37.65704263451724" lon="15.162669641246062"><ele>172.2</ele><time>2026-03-29T11:20:17Z</time></trkpt><trkpt lat="37.65702389099135" lon="15.162806382435015"><ele>170.6</ele><time>2026-03-29T11:20:18Z</time></trkpt><trkpt lat="37.6570071676556" lon="15.162932729747991"><ele>169.0</ele><time>2026-03-29T11:20:19Z</time></trkpt><trkpt lat="37.65700086417877" lon="15.163048000173244"><ele>169.0</ele><time>2026-03-29T11:20:20Z</time></trkpt><trkpt lat="37.657015784501894" lon="15.163161544586803"><ele>169.0</ele><time>2026-03-29T11:20:21Z</time></trkpt><trkpt lat="37.65704875910853" lon="15.163278792124958"><ele>169.0</ele><time>2026-03-29T11:20:22Z</time></trkpt><trkpt lat="37.65710762247117" lon="15.163376039817502"><ele>169.0</ele><time>2026-03-29T11:20:23Z</time></trkpt><trkpt lat="37.65718342770752" lon="15.163455820800053"><ele>169.0</ele><time>2026-03-29T11:20:24Z</time></trkpt><trkpt lat="37.657275881968125" lon="15.163511006407639"><ele>167.0</ele><time>2026-03-29T11:20:25Z</time></trkpt><trkpt lat="37.657380193341005" lon="15.163543144438457"><ele>165.0</ele><time>2026-03-29T11:20:26Z</time></trkpt><trkpt lat="37.65749418519139" lon="15.163557261164959"><ele>163.0</ele><time>2026-03-29T11:20:27Z</time></trkpt><trkpt lat="37.65760856359838" lon="15.163576125105322"><ele>161.0</ele><time>2026-03-29T11:20:28Z</time></trkpt><trkpt lat="37.657721182359055" lon="15.163611498597039"><ele>160.60000000000002</ele><time>2026-03-29T11:20:29Z</time></trkpt><trkpt lat="37.657828544785254" lon="15.163675036402728"><ele>160.20000000000002</ele><time>2026-03-29T11:20:30Z</time></trkpt><trkpt lat="37.657927520715525" lon="15.163759290622306"><ele>159.8</ele><time>2026-03-29T11:20:31Z</time></trkpt><trkpt lat="37.65801365003004" lon="15.16385344120826"><ele>159.4</ele><time>2026-03-29T11:20:32Z</time></trkpt><trkpt lat="37.658090949205274" lon="15.163927435170235"><ele>159.0</ele><time>2026-03-29T11:20:33Z</time></trkpt><trkpt lat="37.65818389617715" lon="15.163981189550537"><ele>159.0</ele><time>2026-03-29T11:20:34Z</time></trkpt><trkpt lat="37.658282874468846" lon="15.164005543705354"><ele>159.0</ele><time>2026-03-29T11:20:35Z</time></trkpt><trkpt lat="37.65838431026332" lon="15.164001283291071"><ele>159.0</ele><time>2026-03-29T11:20:36Z</time></trkpt><trkpt lat="37.65848115287976" lon="15.163977228119492"><ele>159.0</ele><time>2026-03-29T11:20:37Z</time></trkpt><trkpt lat="37.658571982094394" lon="15.163942091936555"><ele>159.0</ele><time>2026-03-29T11:20:38Z</time></trkpt><trkpt lat="37.65866206627804" lon="15.163905156722848"><ele>157.8</ele><time>2026-03-29T11:20:39Z</time></trkpt><trkpt lat="37.6587502595304" lon="15.163869033278909"><ele>156.60000000000002</ele><time>2026-03-29T11:20:40Z</time></trkpt><trkpt lat="37.658840991532806" lon="15.163834333366815"><ele>155.4</ele><time>2026-03-29T11:20:41Z</time></trkpt><trkpt lat="37.658932642942126" lon="15.163801091326377"><ele>154.20000000000002</ele><time>2026-03-29T11:20:42Z</time></trkpt><trkpt lat="37.65902646468586" lon="15.163766181053054"><ele>153.0</ele><time>2026-03-29T11:20:43Z</time></trkpt><trkpt lat="37.65912685781918" lon="15.163729798852671"><ele>153.0</ele><time>2026-03-29T11:20:44Z</time></trkpt><trkpt lat="37.659227264439686" lon="15.163692257912345"><ele>153.0</ele><time>2026-03-29T11:20:45Z</time></trkpt><trkpt lat="37.65932906898918" lon="15.163654430811892"><ele>153.0</ele><time>2026-03-29T11:20:46Z</time></trkpt><trkpt lat="37.659432846319305" lon="15.16362117388762"><ele>153.0</ele><time>2026-03-29T11:20:47Z</time></trkpt><trkpt lat="37.65953803703096" lon="15.163592918602804"><ele>153.0</ele><time>2026-03-29T11:20:48Z</time></trkpt><trkpt lat="37.65964191753476" lon="15.163570065144055"><ele>151.8</ele><time>2026-03-29T11:20:49Z</time></trkpt><trkpt lat="37.65974591333084" lon="15.163554956887852"><ele>150.60000000000002</ele><time>2026-03-29T11:20:50Z</time></trkpt><trkpt lat="37.65985255008023" lon="15.163557923281964"><ele>149.39999999999998</ele><time>2026-03-29T11:20:51Z</time></trkpt><trkpt lat="37.6599585344642" lon="15.163581732528623"><ele>148.2</ele><time>2026-03-29T11:20:52Z</time></trkpt><trkpt lat="37.66006234088822" lon="15.163627732643619"><ele>147.0</ele><time>2026-03-29T11:20:53Z</time></trkpt><trkpt lat="37.66016332991075" lon="15.163684963534374"><ele>147.0</ele><time>2026-03-29T11:20:54Z</time></trkpt><trkpt lat="37.66026706075164" lon="15.163746536665114"><ele>147.0</ele><time>2026-03-29T11:20:55Z</time></trkpt><trkpt lat="37.660377006177605" lon="15.163804627985257"><ele>147.0</ele><time>2026-03-29T11:20:56Z</time></trkpt><trkpt lat="37.66048627131176" lon="15.1638656465433"><ele>147.0</ele><time>2026-03-29T11:20:57Z</time></trkpt><trkpt lat="37.660595437554036" lon="15.163926420635567"><ele>146.25</ele><time>2026-03-29T11:20:58Z</time></trkpt><trkpt lat="37.66070730010901" lon="15.163985964487129"><ele>145.5</ele><time>2026-03-29T11:20:59Z</time></trkpt><trkpt lat="37.660819587647595" lon="15.164047230935122"><ele>144.75</ele><time>2026-03-29T11:21:00.001Z</time></trkpt><trkpt lat="37.66093286705514" lon="15.16411137369129"><ele>144.0</ele><time>2026-03-29T11:21:01.001Z</time></trkpt><trkpt lat="37.661037071234766" lon="15.16417227184811"><ele>145.0</ele><time>2026-03-29T11:21:02.001Z</time></trkpt><trkpt lat="37.66113832920665" lon="15.164228781210937"><ele>146.0</ele><time>2026-03-29T11:21:03.001Z</time></trkpt><trkpt lat="37.66123552898458" lon="15.164285108613628"><ele>147.0</ele><time>2026-03-29T11:21:04.001Z</time></trkpt><trkpt lat="37.66132559531341" lon="15.164334272619445"><ele>148.0</ele><time>2026-03-29T11:21:05.001Z</time></trkpt><trkpt lat="37.66141446837729" lon="15.164381363404814"><ele>149.0</ele><time>2026-03-29T11:21:06.001Z</time></trkpt><trkpt lat="37.661499546834385" lon="15.164427741363554"><ele>149.0</ele><time>2026-03-29T11:21:07.001Z</time></trkpt><trkpt lat="37.66158541206823" lon="15.164471787146248"><ele>149.0</ele><time>2026-03-29T11:21:08.001Z</time></trkpt><trkpt lat="37.66166778715297" lon="15.164513701940473"><ele>149.0</ele><time>2026-03-29T11:21:09.001Z</time></trkpt><trkpt lat="37.661747909218604" lon="15.16455561156465"><ele>149.0</ele><time>2026-03-29T11:21:10.001Z</time></trkpt><trkpt lat="37.661822586592784" lon="15.16459406347828"><ele>149.0</ele><time>2026-03-29T11:21:11.001Z</time></trkpt><trkpt lat="37.661897193504224" lon="15.164635793350074"><ele>149.0</ele><time>2026-03-29T11:21:12.001Z</time></trkpt><trkpt lat="37.661970656216994" lon="15.164678078925363"><ele>148.66666666666666</ele><time>2026-03-29T11:21:13.001Z</time></trkpt><trkpt lat="37.66204752789628" lon="15.164716833792067"><ele>148.33333333333331</ele><time>2026-03-29T11:21:14.001Z</time></trkpt><trkpt lat="37.662118389701135" lon="15.16475461394848"><ele>148.0</ele><time>2026-03-29T11:21:15.001Z</time></trkpt><trkpt lat="37.66219084907751" lon="15.164794466133499"><ele>147.66666666666666</ele><time>2026-03-29T11:21:16.001Z</time></trkpt><trkpt lat="37.66226671666489" lon="15.164833495254767"><ele>147.33333333333334</ele><time>2026-03-29T11:21:17.001Z</time></trkpt><trkpt lat="37.66233350359309" lon="15.164873396926767"><ele>147.0</ele><time>2026-03-29T11:21:18.001Z</time></trkpt><trkpt lat="37.66239849952675" lon="15.164911868207568"><ele>147.0</ele><time>2026-03-29T11:21:19.001Z</time></trkpt><trkpt lat="37.66246345568124" lon="15.164948098893866"><ele>147.0</ele><time>2026-03-29T11:21:20.001Z</time></trkpt><trkpt lat="37.66253155155933" lon="15.164985604607267"><ele>147.0</ele><time>2026-03-29T11:21:21.001Z</time></trkpt><trkpt lat="37.662598887515834" lon="15.165021999626644"><ele>147.0</ele><time>2026-03-29T11:21:22.001Z</time></trkpt><trkpt lat="37.6626665768091" lon="15.16506408874069"><ele>147.0</ele><time>2026-03-29T11:21:23.001Z</time></trkpt><trkpt lat="37.66273022789961" lon="15.165102509834046"><ele>147.0</ele><time>2026-03-29T11:21:24.001Z</time></trkpt><trkpt lat="37.66284517407765" lon="15.165153089225694"><ele>146.5</ele><time>2026-03-29T11:21:26.001Z</time></trkpt><trkpt lat="37.66293465998783" lon="15.165191523661143"><ele>146.0</ele><time>2026-03-29T11:21:28.001Z</time></trkpt><trkpt lat="37.662989702586216" lon="15.165230880350093"><ele>145.5</ele><time>2026-03-29T11:21:30.001Z</time></trkpt><trkpt lat="37.663054675811615" lon="15.16527216781059"><ele>145.0</ele><time>2026-03-29T11:21:33.001Z</time></trkpt><trkpt lat="37.66311686116776" lon="15.165309489297597"><ele>144.5</ele><time>2026-03-29T11:21:54.002Z</time></trkpt><trkpt lat="37.66318860040587" lon="15.165368214936555"><ele>144.0</ele><time>2026-03-29T11:22:21Z</time></trkpt><trkpt lat="37.66327277024938" lon="15.16540281804103"><ele>144.00000000000003</ele><time>2026-03-29T11:22:23Z</time></trkpt><trkpt lat="37.66336636500647" lon="15.165456324091052"><ele>144.0</ele><time>2026-03-29T11:22:25Z</time></trkpt><trkpt lat="37.663425335627196" lon="15.16549455210075"><ele>144.0</ele><time>2026-03-29T11:22:26Z</time></trkpt><trkpt lat="37.66348210639946" lon="15.165530558460603"><ele>144.0</ele><time>2026-03-29T11:22:27Z</time></trkpt><trkpt lat="37.663540180710385" lon="15.165571203513979"><ele>144.0</ele><time>2026-03-29T11:22:28Z</time></trkpt><trkpt lat="37.66359742773155" lon="15.165611304374119"><ele>144.00000000000003</ele><time>2026-03-29T11:22:29Z</time></trkpt><trkpt lat="37.66366002791077" lon="15.165644807498003"><ele>144.0</ele><time>2026-03-29T11:22:30Z</time></trkpt><trkpt lat="37.663726305833045" lon="15.165683424229366"><ele>143.0</ele><time>2026-03-29T11:22:31Z</time></trkpt><trkpt lat="37.663797215427905" lon="15.16571454682714"><ele>142.0</ele><time>2026-03-29T11:22:32Z</time></trkpt><trkpt lat="37.66392692963116" lon="15.165775518048273"><ele>141.0</ele><time>2026-03-29T11:22:34Z</time></trkpt><trkpt lat="37.6640024538629" lon="15.165811654112703"><ele>140.0</ele><time>2026-03-29T11:22:35Z</time></trkpt><trkpt lat="37.66406983806403" lon="15.165848390100912"><ele>139.0</ele><time>2026-03-29T11:22:36Z</time></trkpt><trkpt lat="37.66414300092612" lon="15.165887916288886"><ele>138.0</ele><time>2026-03-29T11:22:37Z</time></trkpt><trkpt lat="37.66421975911749" lon="15.165928089655555"><ele>138.0</ele><time>2026-03-29T11:22:38Z</time></trkpt><trkpt lat="37.66429536781405" lon="15.165968530985939"><ele>138.0</ele><time>2026-03-29T11:22:39Z</time></trkpt><trkpt lat="37.66437740647215" lon="15.16601468420725"><ele>138.0</ele><time>2026-03-29T11:22:40Z</time></trkpt><trkpt lat="37.66446095046551" lon="15.166063613257599"><ele>138.0</ele><time>2026-03-29T11:22:41Z</time></trkpt><trkpt lat="37.664552127480974" lon="15.166111238497466"><ele>138.0</ele><time>2026-03-29T11:22:42Z</time></trkpt><trkpt lat="37.664641784450595" lon="15.166155824183742"><ele>138.20000000000002</ele><time>2026-03-29T11:22:43Z</time></trkpt><trkpt lat="37.664737254036886" lon="15.166207047794751"><ele>138.4</ele><time>2026-03-29T11:22:44.001Z</time></trkpt><trkpt lat="37.66483421180038" lon="15.166260703893391"><ele>138.60000000000002</ele><time>2026-03-29T11:22:45.001Z</time></trkpt><trkpt lat="37.664925470359805" lon="15.166316139586986"><ele>138.8</ele><time>2026-03-29T11:22:46.001Z</time></trkpt><trkpt lat="37.665017770637014" lon="15.166368993149382"><ele>139.0</ele><time>2026-03-29T11:22:47.001Z</time></trkpt><trkpt lat="37.6651163745677" lon="15.166422275450516"><ele>139.0</ele><time>2026-03-29T11:22:48.001Z</time></trkpt><trkpt lat="37.66521799880158" lon="15.166474695178978"><ele>139.0</ele><time>2026-03-29T11:22:49.001Z</time></trkpt><trkpt lat="37.6653123896063" lon="15.166521637610833"><ele>139.0</ele><time>2026-03-29T11:22:50.001Z</time></trkpt><trkpt lat="37.66542172755117" lon="15.1665834862511"><ele>139.0</ele><time>2026-03-29T11:22:51.001Z</time></trkpt><trkpt lat="37.66552544949851" lon="15.166638867950939"><ele>139.0</ele><time>2026-03-29T11:22:52.001Z</time></trkpt><trkpt lat="37.665636868553214" lon="15.166700943603356"><ele>138.4</ele><time>2026-03-29T11:22:53.001Z</time></trkpt><trkpt lat="37.66573885270625" lon="15.166750287783676"><ele>137.8</ele><time>2026-03-29T11:22:54.001Z</time></trkpt><trkpt lat="37.66583207383331" lon="15.166795702731678"><ele>137.2</ele><time>2026-03-29T11:22:55.001Z</time></trkpt><trkpt lat="37.66593226160781" lon="15.166843634842822"><ele>136.6</ele><time>2026-03-29T11:22:56.001Z</time></trkpt><trkpt lat="37.66602068089821" lon="15.166892690224262"><ele>136.0</ele><time>2026-03-29T11:22:57.001Z</time></trkpt><trkpt lat="37.666120040195" lon="15.166944665453427"><ele>137.4</ele><time>2026-03-29T11:22:58.001Z</time></trkpt><trkpt lat="37.666218045398374" lon="15.166997282765687"><ele>138.8</ele><time>2026-03-29T11:22:59.001Z</time></trkpt><trkpt lat="37.66631670931932" lon="15.167046837624131"><ele>140.20000000000002</ele><time>2026-03-29T11:23:00.001Z</time></trkpt><trkpt lat="37.66640988246838" lon="15.167101759452047"><ele>141.6</ele><time>2026-03-29T11:23:01.001Z</time></trkpt><trkpt lat="37.66650828482861" lon="15.167156819777405"><ele>143.0</ele><time>2026-03-29T11:23:02.001Z</time></trkpt><trkpt lat="37.666594682159555" lon="15.16721157496674"><ele>143.0</ele><time>2026-03-29T11:23:03.001Z</time></trkpt><trkpt lat="37.66668157371861" lon="15.167262483682585"><ele>143.0</ele><time>2026-03-29T11:23:04.001Z</time></trkpt><trkpt lat="37.66677051457834" lon="15.167311383515695"><ele>143.0</ele><time>2026-03-29T11:23:05.001Z</time></trkpt><trkpt lat="37.66686443035523" lon="15.16736287418936"><ele>143.0</ele><time>2026-03-29T11:23:06.001Z</time></trkpt><trkpt lat="37.66694833034752" lon="15.167409882140792"><ele>143.0</ele><time>2026-03-29T11:23:07.001Z</time></trkpt><trkpt lat="37.667033540205274" lon="15.167455562988888"><ele>142.6</ele><time>2026-03-29T11:23:08.001Z</time></trkpt><trkpt lat="37.667117126031684" lon="15.167505266902708"><ele>142.20000000000002</ele><time>2026-03-29T11:23:09.001Z</time></trkpt><trkpt lat="37.667206898700044" lon="15.167549144097276"><ele>141.8</ele><time>2026-03-29T11:23:10.001Z</time></trkpt><trkpt lat="37.66730851021969" lon="15.167600908325797"><ele>141.4</ele><time>2026-03-29T11:23:11.001Z</time></trkpt><trkpt lat="37.66740034705655" lon="15.167652838548186"><ele>141.0</ele><time>2026-03-29T11:23:12.001Z</time></trkpt><trkpt lat="37.66749779726623" lon="15.167706798471956"><ele>141.0</ele><time>2026-03-29T11:23:13.001Z</time></trkpt><trkpt lat="37.667602156707574" lon="15.16776122380175"><ele>141.0</ele><time>2026-03-29T11:23:14.001Z</time></trkpt><trkpt lat="37.66771269497877" lon="15.167818955487082"><ele>141.0</ele><time>2026-03-29T11:23:15.001Z</time></trkpt><trkpt lat="37.667825849780975" lon="15.167879743851888"><ele>141.0</ele><time>2026-03-29T11:23:16.001Z</time></trkpt><trkpt lat="37.66794067013267" lon="15.167942863724933"><ele>140.75</ele><time>2026-03-29T11:23:17.001Z</time></trkpt><trkpt lat="37.66805941455175" lon="15.168007508984035"><ele>140.5</ele><time>2026-03-29T11:23:18.001Z</time></trkpt><trkpt lat="37.66817826180959" lon="15.168073778905583"><ele>140.25</ele><time>2026-03-29T11:23:19.001Z</time></trkpt><trkpt lat="37.66830545217543" lon="15.168133857562756"><ele>140.0</ele><time>2026-03-29T11:23:20.001Z</time></trkpt><trkpt lat="37.66842635476687" lon="15.168203675002735"><ele>139.0</ele><time>2026-03-29T11:23:21.001Z</time></trkpt><trkpt lat="37.66854578298456" lon="15.168271528443771"><ele>138.0</ele><time>2026-03-29T11:23:22.001Z</time></trkpt><trkpt lat="37.668670316140904" lon="15.168339717160277"><ele>137.0</ele><time>2026-03-29T11:23:23.001Z</time></trkpt><trkpt lat="37.6687939646485" lon="15.168409437939058"><ele>136.0</ele><time>2026-03-29T11:23:24.001Z</time></trkpt><trkpt lat="37.668919692447105" lon="15.168478292276408"><ele>136.0</ele><time>2026-03-29T11:23:25.001Z</time></trkpt><trkpt lat="37.669046981321685" lon="15.16854773745899"><ele>136.0</ele><time>2026-03-29T11:23:26.001Z</time></trkpt><trkpt lat="37.669175693277744" lon="15.168616957935892"><ele>136.0</ele><time>2026-03-29T11:23:27.001Z</time></trkpt><trkpt lat="37.6693073101442" lon="15.168684533875947"><ele>136.0</ele><time>2026-03-29T11:23:28.001Z</time></trkpt><trkpt lat="37.669442518327244" lon="15.168755646236567"><ele>136.0</ele><time>2026-03-29T11:23:29.001Z</time></trkpt><trkpt lat="37.66957984474451" lon="15.168830423568359"><ele>136.0</ele><time>2026-03-29T11:23:30.001Z</time></trkpt><trkpt lat="37.6697153442576" lon="15.168904125929332"><ele>136.0</ele><time>2026-03-29T11:23:31.001Z</time></trkpt><trkpt lat="37.66985203141443" lon="15.168976821959456"><ele>136.0</ele><time>2026-03-29T11:23:32.001Z</time></trkpt><trkpt lat="37.66998460397343" lon="15.169051209056077"><ele>136.0</ele><time>2026-03-29T11:23:33.001Z</time></trkpt><trkpt lat="37.67011543560599" lon="15.169124511754669"><ele>136.0</ele><time>2026-03-29T11:23:34.001Z</time></trkpt><trkpt lat="37.67025001346058" lon="15.169196135306365"><ele>136.0</ele><time>2026-03-29T11:23:35.001Z</time></trkpt><trkpt lat="37.67038321311518" lon="15.16926558176036"><ele>136.0</ele><time>2026-03-29T11:23:36.001Z</time></trkpt><trkpt lat="37.67051080331963" lon="15.169331984774887"><ele>136.25</ele><time>2026-03-29T11:23:37.001Z</time></trkpt><trkpt lat="37.67063782050436" lon="15.169397429584288"><ele>136.5</ele><time>2026-03-29T11:23:38.001Z</time></trkpt><trkpt lat="37.67076025620898" lon="15.169462377567433"><ele>136.75</ele><time>2026-03-29T11:23:39.001Z</time></trkpt><trkpt lat="37.67088149265388" lon="15.169527695402513"><ele>137.0</ele><time>2026-03-29T11:23:40.001Z</time></trkpt><trkpt lat="37.67100167280455" lon="15.169594279767836"><ele>138.0</ele><time>2026-03-29T11:23:41.001Z</time></trkpt><trkpt lat="37.67112462428424" lon="15.169659890933366"><ele>139.0</ele><time>2026-03-29T11:23:42.002Z</time></trkpt><trkpt lat="37.67123911714102" lon="15.169722726618138"><ele>140.0</ele><time>2026-03-29T11:23:43.002Z</time></trkpt><trkpt lat="37.67135355492682" lon="15.16978362343111"><ele>141.0</ele><time>2026-03-29T11:23:44.002Z</time></trkpt><trkpt lat="37.671469331268455" lon="15.169845093073604"><ele>142.5</ele><time>2026-03-29T11:23:45.002Z</time></trkpt><trkpt lat="37.67158635296511" lon="15.169907686733051"><ele>144.0</ele><time>2026-03-29T11:23:46.002Z</time></trkpt><trkpt lat="37.671708877676366" lon="15.169971991704664"><ele>145.5</ele><time>2026-03-29T11:23:47.002Z</time></trkpt><trkpt lat="37.67183570395959" lon="15.170033531361561"><ele>147.0</ele><time>2026-03-29T11:23:48.002Z</time></trkpt><trkpt lat="37.67196784672836" lon="15.170089983707044"><ele>149.0</ele><time>2026-03-29T11:23:49.002Z</time></trkpt><trkpt lat="37.672096362016454" lon="15.170143984400823"><ele>151.0</ele><time>2026-03-29T11:23:50.002Z</time></trkpt><trkpt lat="37.67221927066474" lon="15.170193985414278"><ele>153.0</ele><time>2026-03-29T11:23:51.002Z</time></trkpt><trkpt lat="37.67234712857403" lon="15.170241498181246"><ele>155.0</ele><time>2026-03-29T11:23:52.002Z</time></trkpt><trkpt lat="37.67247872706664" lon="15.170292991856892"><ele>155.0</ele><time>2026-03-29T11:23:53.002Z</time></trkpt><trkpt lat="37.67261520067476" lon="15.170347275248563"><ele>155.0</ele><time>2026-03-29T11:23:54.002Z</time></trkpt><trkpt lat="37.6727517222647" lon="15.170404982704566"><ele>155.0</ele><time>2026-03-29T11:23:55.002Z</time></trkpt><trkpt lat="37.67288951634197" lon="15.17046436681583"><ele>155.0</ele><time>2026-03-29T11:23:56.002Z</time></trkpt><trkpt lat="37.673023128160274" lon="15.17052484119735"><ele>155.25</ele><time>2026-03-29T11:23:57.002Z</time></trkpt><trkpt lat="37.67315894556684" lon="15.17058772991093"><ele>155.5</ele><time>2026-03-29T11:23:58.002Z</time></trkpt><trkpt lat="37.673290351825834" lon="15.170648317082476"><ele>155.75</ele><time>2026-03-29T11:23:59.002Z</time></trkpt><trkpt lat="37.67341940033458" lon="15.170706271228871"><ele>156.0</ele><time>2026-03-29T11:24:00.002Z</time></trkpt><trkpt lat="37.67354173101683" lon="15.170763466520093"><ele>156.5</ele><time>2026-03-29T11:24:01.002Z</time></trkpt><trkpt lat="37.67366439297573" lon="15.170823238242596"><ele>157.0</ele><time>2026-03-29T11:24:02.002Z</time></trkpt><trkpt lat="37.67378180370159" lon="15.17087607502352"><ele>157.5</ele><time>2026-03-29T11:24:03.002Z</time></trkpt><trkpt lat="37.673898764774876" lon="15.170924744831574"><ele>158.0</ele><time>2026-03-29T11:24:04.002Z</time></trkpt><trkpt lat="37.67401822093596" lon="15.170974320109833"><ele>158.0</ele><time>2026-03-29T11:24:05.002Z</time></trkpt><trkpt lat="37.674133376728705" lon="15.171028695291286"><ele>158.0</ele><time>2026-03-29T11:24:06.002Z</time></trkpt><trkpt lat="37.674245845255804" lon="15.17107389175691"><ele>158.0</ele><time>2026-03-29T11:24:07.002Z</time></trkpt><trkpt lat="37.67435097278755" lon="15.171121426298512"><ele>158.0</ele><time>2026-03-29T11:24:08.002Z</time></trkpt><trkpt lat="37.674456207802436" lon="15.171170730240425"><ele>157.8</ele><time>2026-03-29T11:24:09.002Z</time></trkpt><trkpt lat="37.67455630407871" lon="15.171218211016269"><ele>157.60000000000002</ele><time>2026-03-29T11:24:10.002Z</time></trkpt><trkpt lat="37.67465967001825" lon="15.171263921571098"><ele>157.39999999999998</ele><time>2026-03-29T11:24:11.002Z</time></trkpt><trkpt lat="37.674759993982775" lon="15.17130649692424"><ele>157.2</ele><time>2026-03-29T11:24:12.002Z</time></trkpt><trkpt lat="37.67485211264878" lon="15.17134739694347"><ele>157.0</ele><time>2026-03-29T11:24:13.002Z</time></trkpt><trkpt lat="37.6749279322602" lon="15.171389815165412"><ele>157.0</ele><time>2026-03-29T11:24:14.002Z</time></trkpt><trkpt lat="37.6749946190079" lon="15.171439135539526"><ele>157.0</ele><time>2026-03-29T11:24:15.002Z</time></trkpt><trkpt lat="37.675047859007606" lon="15.171498052931458"><ele>157.0</ele><time>2026-03-29T11:24:16.002Z</time></trkpt><trkpt lat="37.67508499011463" lon="15.171578331740594"><ele>157.0</ele><time>2026-03-29T11:24:17.002Z</time></trkpt><trkpt lat="37.6751010661507" lon="15.17168098023513"><ele>157.0</ele><time>2026-03-29T11:24:18.002Z</time></trkpt><trkpt lat="37.67508924266785" lon="15.171796047766321"><ele>157.0</ele><time>2026-03-29T11:24:19.002Z</time></trkpt><trkpt lat="37.67504918291674" lon="15.171918279350502"><ele>155.75</ele><time>2026-03-29T11:24:20.002Z</time></trkpt><trkpt lat="37.67498335412281" lon="15.172030011285493"><ele>154.5</ele><time>2026-03-29T11:24:21.002Z</time></trkpt><trkpt lat="37.67489507520773" lon="15.172130361531766"><ele>153.25</ele><time>2026-03-29T11:24:22.002Z</time></trkpt><trkpt lat="37.67479647804197" lon="15.172213353457979"><ele>152.0</ele><time>2026-03-29T11:24:23.002Z</time></trkpt><trkpt lat="37.674688915296294" lon="15.172301368746668"><ele>152.25</ele><time>2026-03-29T11:24:24.002Z</time></trkpt><trkpt lat="37.67457437887667" lon="15.172395173413095"><ele>152.5</ele><time>2026-03-29T11:24:25.002Z</time></trkpt><trkpt lat="37.67445959813453" lon="15.172489601407056"><ele>152.75</ele><time>2026-03-29T11:24:26.001Z</time></trkpt><trkpt lat="37.67433297134604" lon="15.17259047068581"><ele>153.0</ele><time>2026-03-29T11:24:27.001Z</time></trkpt><trkpt lat="37.674199930323944" lon="15.172697211862442"><ele>152.33333333333334</ele><time>2026-03-29T11:24:28.001Z</time></trkpt><trkpt lat="37.674063919674445" lon="15.172806580762757"><ele>151.66666666666669</ele><time>2026-03-29T11:24:29.001Z</time></trkpt><trkpt lat="37.6739276983379" lon="15.172909591260213"><ele>151.0</ele><time>2026-03-29T11:24:30.001Z</time></trkpt><trkpt lat="37.673795906098604" lon="15.173018635912683"><ele>151.0</ele><time>2026-03-29T11:24:31.001Z</time></trkpt><trkpt lat="37.673664372347744" lon="15.173128725332232"><ele>151.0</ele><time>2026-03-29T11:24:32Z</time></trkpt><trkpt lat="37.67353417608737" lon="15.173239165827578"><ele>151.0</ele><time>2026-03-29T11:24:33Z</time></trkpt><trkpt lat="37.67340533943057" lon="15.17334593010156"><ele>147.0</ele><time>2026-03-29T11:24:34Z</time></trkpt><trkpt lat="37.673271196716044" lon="15.17345120979839"><ele>143.0</ele><time>2026-03-29T11:24:35Z</time></trkpt><trkpt lat="37.673138202913115" lon="15.173553634384279"><ele>139.0</ele><time>2026-03-29T11:24:36Z</time></trkpt><trkpt lat="37.67300911113239" lon="15.173658114860595"><ele>139.0</ele><time>2026-03-29T11:24:37Z</time></trkpt><trkpt lat="37.672880098840096" lon="15.173761095866702"><ele>139.0</ele><time>2026-03-29T11:24:38Z</time></trkpt><trkpt lat="37.672750965560304" lon="15.173864817992008"><ele>139.0</ele><time>2026-03-29T11:24:39Z</time></trkpt><trkpt lat="37.672625082709175" lon="15.173964932575938"><ele>137.5</ele><time>2026-03-29T11:24:40Z</time></trkpt><trkpt lat="37.67250459906387" lon="15.174061783362347"><ele>136.0</ele><time>2026-03-29T11:24:41Z</time></trkpt><trkpt lat="37.67238475980998" lon="15.174159578567108"><ele>134.5</ele><time>2026-03-29T11:24:42Z</time></trkpt><trkpt lat="37.6722691507263" lon="15.174267254668626"><ele>133.0</ele><time>2026-03-29T11:24:43Z</time></trkpt><trkpt lat="37.67216048485238" lon="15.174385457937376"><ele>133.0</ele><time>2026-03-29T11:24:44Z</time></trkpt><trkpt lat="37.67205824039417" lon="15.174512518209319"><ele>133.0</ele><time>2026-03-29T11:24:45Z</time></trkpt><trkpt lat="37.67196301362178" lon="15.17464973826156"><ele>133.0</ele><time>2026-03-29T11:24:46Z</time></trkpt><trkpt lat="37.67187541403728" lon="15.174796806487155"><ele>133.0</ele><time>2026-03-29T11:24:47Z</time></trkpt><trkpt lat="37.67179480509842" lon="15.174949878261996"><ele>132.25</ele><time>2026-03-29T11:24:48Z</time></trkpt><trkpt lat="37.67172009075979" lon="15.175106058798184"><ele>131.5</ele><time>2026-03-29T11:24:49Z</time></trkpt><trkpt lat="37.671649376340405" lon="15.17525840597177"><ele>130.75</ele><time>2026-03-29T11:24:50Z</time></trkpt><trkpt lat="37.67157815015619" lon="15.175412775767615"><ele>130.0</ele><time>2026-03-29T11:24:51Z</time></trkpt><trkpt lat="37.67150421038333" lon="15.175566366595714"><ele>129.5</ele><time>2026-03-29T11:24:52Z</time></trkpt><trkpt lat="37.67143105670607" lon="15.175713764744007"><ele>129.0</ele><time>2026-03-29T11:24:53Z</time></trkpt><trkpt lat="37.67135697343169" lon="15.175855858109967"><ele>128.5</ele><time>2026-03-29T11:24:54Z</time></trkpt><trkpt lat="37.6712743947685" lon="15.175987269645912"><ele>128.0</ele><time>2026-03-29T11:24:55Z</time></trkpt><trkpt lat="37.67117907144456" lon="15.176094699882544"><ele>127.0</ele><time>2026-03-29T11:24:56Z</time></trkpt><trkpt lat="37.6710677308945" lon="15.176174004078899"><ele>126.0</ele><time>2026-03-29T11:24:57Z</time></trkpt><trkpt lat="37.670955177565" lon="15.176242163667608"><ele>125.0</ele><time>2026-03-29T11:24:58.001Z</time></trkpt><trkpt lat="37.67084450415933" lon="15.176309984011914"><ele>124.0</ele><time>2026-03-29T11:24:59.001Z</time></trkpt><trkpt lat="37.670748354324346" lon="15.176370073201177"><ele>124.00000000000001</ele><time>2026-03-29T11:25:00.001Z</time></trkpt><trkpt lat="37.6706608187362" lon="15.176422150251069"><ele>124.0</ele><time>2026-03-29T11:25:01.001Z</time></trkpt><trkpt lat="37.67058829500232" lon="15.17646967367866"><ele>124.0</ele><time>2026-03-29T11:25:02.001Z</time></trkpt><trkpt lat="37.67052431728921" lon="15.17651060210756"><ele>124.0</ele><time>2026-03-29T11:25:03.001Z</time></trkpt><trkpt lat="37.67044082452538" lon="15.17655938735001"><ele>124.00000000000001</ele><time>2026-03-29T11:25:05.001Z</time></trkpt><trkpt lat="37.67046407980443" lon="15.176673034540691"><ele>124.0</ele><time>2026-03-29T11:25:06.001Z</time></trkpt><trkpt lat="37.670518877227124" lon="15.17680635723115"><ele>124.16666666666667</ele><time>2026-03-29T11:25:08.001Z</time></trkpt><trkpt lat="37.67055990497422" lon="15.17687633786376"><ele>124.33333333333334</ele><time>2026-03-29T11:25:09.001Z</time></trkpt><trkpt lat="37.670607971028474" lon="15.176954279068589"><ele>124.5</ele><time>2026-03-29T11:25:10.001Z</time></trkpt><trkpt lat="37.670657037327246" lon="15.17702645517446"><ele>124.66666666666666</ele><time>2026-03-29T11:25:11.001Z</time></trkpt><trkpt lat="37.67070780560056" lon="15.17709392358117"><ele>124.83333333333333</ele><time>2026-03-29T11:25:12.001Z</time></trkpt><trkpt lat="37.67076730293332" lon="15.177164704491572"><ele>125.0</ele><time>2026-03-29T11:25:13.001Z</time></trkpt><trkpt lat="37.670830665078235" lon="15.177242130510422"><ele>125.0</ele><time>2026-03-29T11:25:14.001Z</time></trkpt><trkpt lat="37.67089770630578" lon="15.177338213891897"><ele>125.0</ele><time>2026-03-29T11:25:15.001Z</time></trkpt><trkpt lat="37.6709675684838" lon="15.177444118026827"><ele>125.0</ele><time>2026-03-29T11:25:16.001Z</time></trkpt><trkpt lat="37.67102565669894" lon="15.177566232735547"><ele>125.0</ele><time>2026-03-29T11:25:17.001Z</time></trkpt><trkpt lat="37.67108055703204" lon="15.177702830736811"><ele>125.0</ele><time>2026-03-29T11:25:18.001Z</time></trkpt><trkpt lat="37.67112990514226" lon="15.177840735420778"><ele>124.8</ele><time>2026-03-29T11:25:19.001Z</time></trkpt><trkpt lat="37.67117829944159" lon="15.177973146191846"><ele>124.6</ele><time>2026-03-29T11:25:20.001Z</time></trkpt><trkpt lat="37.671226881462644" lon="15.178102315653785"><ele>124.4</ele><time>2026-03-29T11:25:21.001Z</time></trkpt><trkpt lat="37.671276432998795" lon="15.178218372089319"><ele>124.2</ele><time>2026-03-29T11:25:22.001Z</time></trkpt><trkpt lat="37.67134183882517" lon="15.178325153852102"><ele>124.0</ele><time>2026-03-29T11:25:23.001Z</time></trkpt><trkpt lat="37.67142718788337" lon="15.178412689114756"><ele>124.0</ele><time>2026-03-29T11:25:24.001Z</time></trkpt><trkpt lat="37.671526147130464" lon="15.178493739886775"><ele>124.0</ele><time>2026-03-29T11:25:25.001Z</time></trkpt><trkpt lat="37.67163155748788" lon="15.178570461376628"><ele>124.0</ele><time>2026-03-29T11:25:26.001Z</time></trkpt><trkpt lat="37.67174489211304" lon="15.17864470883752"><ele>124.0</ele><time>2026-03-29T11:25:27.001Z</time></trkpt><trkpt lat="37.6718699093914" lon="15.178720327582989"><ele>124.25</ele><time>2026-03-29T11:25:28.001Z</time></trkpt><trkpt lat="37.671994650436595" lon="15.178798821204342"><ele>124.5</ele><time>2026-03-29T11:25:29.001Z</time></trkpt><trkpt lat="37.67211524351195" lon="15.178873664972079"><ele>124.75</ele><time>2026-03-29T11:25:30.001Z</time></trkpt><trkpt lat="37.67223695196469" lon="15.178950353380221"><ele>125.0</ele><time>2026-03-29T11:25:31.001Z</time></trkpt><trkpt lat="37.672356753896935" lon="15.17902388166491"><ele>123.6</ele><time>2026-03-29T11:25:32.001Z</time></trkpt><trkpt lat="37.672462748919344" lon="15.179090085924907"><ele>122.2</ele><time>2026-03-29T11:25:33.001Z</time></trkpt><trkpt lat="37.67255594687088" lon="15.17914448527327"><ele>120.80000000000001</ele><time>2026-03-29T11:25:34.001Z</time></trkpt><trkpt lat="37.67265850127057" lon="15.179186247653679"><ele>119.4</ele><time>2026-03-29T11:25:35.001Z</time></trkpt><trkpt lat="37.67276320365174" lon="15.179200422600566"><ele>118.0</ele><time>2026-03-29T11:25:36.001Z</time></trkpt><trkpt lat="37.67287430603045" lon="15.179209870651338"><ele>117.2</ele><time>2026-03-29T11:25:37.001Z</time></trkpt><trkpt lat="37.67298518688825" lon="15.179218738844682"><ele>116.4</ele><time>2026-03-29T11:25:38.001Z</time></trkpt><trkpt lat="37.673099567648414" lon="15.179222358126935"><ele>115.60000000000001</ele><time>2026-03-29T11:25:39.001Z</time></trkpt><trkpt lat="37.673210163131" lon="15.17922353168979"><ele>114.80000000000001</ele><time>2026-03-29T11:25:40.001Z</time></trkpt><trkpt lat="37.67331862901895" lon="15.179205528695881"><ele>114.0</ele><time>2026-03-29T11:25:41.001Z</time></trkpt><trkpt lat="37.67341959494783" lon="15.179155956424752"><ele>114.0</ele><time>2026-03-29T11:25:42.001Z</time></trkpt><trkpt lat="37.673525114978" lon="15.17910120966909"><ele>114.0</ele><time>2026-03-29T11:25:43.001Z</time></trkpt><trkpt lat="37.67362935520483" lon="15.179028521470189"><ele>114.0</ele><time>2026-03-29T11:25:44.001Z</time></trkpt><trkpt lat="37.67372295774686" lon="15.178952953672722"><ele>114.0</ele><time>2026-03-29T11:25:45.001Z</time></trkpt><trkpt lat="37.67381346022479" lon="15.17888355339014"><ele>116.2</ele><time>2026-03-29T11:25:46.001Z</time></trkpt><trkpt lat="37.673906321267715" lon="15.178822288642584"><ele>118.4</ele><time>2026-03-29T11:25:47.001Z</time></trkpt><trkpt lat="37.67400061199838" lon="15.178778135985553"><ele>120.6</ele><time>2026-03-29T11:25:48.001Z</time></trkpt><trkpt lat="37.674104026241565" lon="15.178761749871718"><ele>122.8</ele><time>2026-03-29T11:25:49.001Z</time></trkpt><trkpt lat="37.674204426691304" lon="15.178768199711731"><ele>125.0</ele><time>2026-03-29T11:25:50.001Z</time></trkpt><trkpt lat="37.67430068357054" lon="15.178777386686"><ele>125.0</ele><time>2026-03-29T11:25:51.001Z</time></trkpt><trkpt lat="37.674376874161005" lon="15.178786306048305"><ele>125.0</ele><time>2026-03-29T11:25:52.001Z</time></trkpt><trkpt lat="37.674443045718334" lon="15.178799976424388"><ele>125.0</ele><time>2026-03-29T11:25:53.001Z</time></trkpt><trkpt lat="37.674496197120966" lon="15.178844362739488"><ele>125.0</ele><time>2026-03-29T11:25:54.001Z</time></trkpt><trkpt lat="37.67453618268658" lon="15.178916809873314"><ele>125.0</ele><time>2026-03-29T11:25:55.001Z</time></trkpt><trkpt lat="37.67456080426926" lon="15.179004449154618"><ele>125.0</ele><time>2026-03-29T11:25:56.001Z</time></trkpt><trkpt lat="37.67458610643289" lon="15.1790910668531"><ele>125.0</ele><time>2026-03-29T11:25:57.001Z</time></trkpt><trkpt lat="37.67461882546995" lon="15.179176003039684"><ele>122.42857142857143</ele><time>2026-03-29T11:25:58.001Z</time></trkpt><trkpt lat="37.67465751226421" lon="15.179249485743568"><ele>119.85714285714286</ele><time>2026-03-29T11:25:59.002Z</time></trkpt><trkpt lat="37.67469716280942" lon="15.179318694929844"><ele>117.28571428571429</ele><time>2026-03-29T11:26:00.002Z</time></trkpt><trkpt lat="37.67473835701488" lon="15.179393126074014"><ele>114.71428571428572</ele><time>2026-03-29T11:26:01.002Z</time></trkpt><trkpt lat="37.67478155187854" lon="15.179458748748443"><ele>112.14285714285714</ele><time>2026-03-29T11:26:02.002Z</time></trkpt><trkpt lat="37.67483383825513" lon="15.179523269593151"><ele>109.57142857142858</ele><time>2026-03-29T11:26:03.002Z</time></trkpt><trkpt lat="37.674895777072244" lon="15.179576054889568"><ele>107.0</ele><time>2026-03-29T11:26:04.002Z</time></trkpt><trkpt lat="37.674953812538156" lon="15.179636184723858"><ele>107.0</ele><time>2026-03-29T11:26:05.002Z</time></trkpt><trkpt lat="37.67500649798797" lon="15.17968406635711"><ele>106.99999999999999</ele><time>2026-03-29T11:26:06.002Z</time></trkpt><trkpt lat="37.675139634148614" lon="15.17956454442489"><ele>106.99999999999999</ele><time>2026-03-29T11:26:07.002Z</time></trkpt><trkpt lat="37.67520391622062" lon="15.179495897366973"><ele>107.0</ele><time>2026-03-29T11:26:08.002Z</time></trkpt><trkpt lat="37.67528823144139" lon="15.179453093896905"><ele>107.0</ele><time>2026-03-29T11:26:09.002Z</time></trkpt><trkpt lat="37.67537974210238" lon="15.17939912166419"><ele>105.25</ele><time>2026-03-29T11:26:10.002Z</time></trkpt><trkpt lat="37.67548789657394" lon="15.179404915626158"><ele>103.5</ele><time>2026-03-29T11:26:11.002Z</time></trkpt><trkpt lat="37.67560528180767" lon="15.17936487807804"><ele>101.75</ele><time>2026-03-29T11:26:12.002Z</time></trkpt><trkpt lat="37.67573337711135" lon="15.17935052684507"><ele>100.0</ele><time>2026-03-29T11:26:13.002Z</time></trkpt><trkpt lat="37.67586873083448" lon="15.17933442328008"><ele>100.0</ele><time>2026-03-29T11:26:14.002Z</time></trkpt><trkpt lat="37.67600656993807" lon="15.179320135407815"><ele>100.0</ele><time>2026-03-29T11:26:15.002Z</time></trkpt><trkpt lat="37.676144385070806" lon="15.179306740557372"><ele>100.0</ele><time>2026-03-29T11:26:16.002Z</time></trkpt><trkpt lat="37.67628461816097" lon="15.179292121479108"><ele>100.0</ele><time>2026-03-29T11:26:17.002Z</time></trkpt><trkpt lat="37.67642803988029" lon="15.179281157834057"><ele>100.25</ele><time>2026-03-29T11:26:18.002Z</time></trkpt><trkpt lat="37.67656025289791" lon="15.179270526510464"><ele>100.5</ele><time>2026-03-29T11:26:19.002Z</time></trkpt><trkpt lat="37.67668619632468" lon="15.179260160137046"><ele>100.75</ele><time>2026-03-29T11:26:20.002Z</time></trkpt><trkpt lat="37.676808959019866" lon="15.179260359189227"><ele>101.0</ele><time>2026-03-29T11:26:21.002Z</time></trkpt><trkpt lat="37.67693135365392" lon="15.17927533360394"><ele>100.5</ele><time>2026-03-29T11:26:22.002Z</time></trkpt><trkpt lat="37.67705676013516" lon="15.179308111590059"><ele>100.0</ele><time>2026-03-29T11:26:23.002Z</time></trkpt><trkpt lat="37.677183086853105" lon="15.179353691465835"><ele>99.5</ele><time>2026-03-29T11:26:24.002Z</time></trkpt><trkpt lat="37.67731746526754" lon="15.179399040229033"><ele>99.0</ele><time>2026-03-29T11:26:25.002Z</time></trkpt><trkpt lat="37.67746272063274" lon="15.17944632570704"><ele>99.0</ele><time>2026-03-29T11:26:26.002Z</time></trkpt><trkpt lat="37.67761228099919" lon="15.179496726429926"><ele>99.0</ele><time>2026-03-29T11:26:27.002Z</time></trkpt><trkpt lat="37.67775661676854" lon="15.17954246237898"><ele>99.0</ele><time>2026-03-29T11:26:28.002Z</time></trkpt><trkpt lat="37.67789694755677" lon="15.179590031520107"><ele>99.0</ele><time>2026-03-29T11:26:29.002Z</time></trkpt><trkpt lat="37.67803206669395" lon="15.179640071562565"><ele>100.25</ele><time>2026-03-29T11:26:30.002Z</time></trkpt><trkpt lat="37.67816036529994" lon="15.179699906003007"><ele>101.5</ele><time>2026-03-29T11:26:31.002Z</time></trkpt><trkpt lat="37.678283770040174" lon="15.179774920193486"><ele>102.75</ele><time>2026-03-29T11:26:32Z</time></trkpt><trkpt lat="37.67840237855251" lon="15.179861714303566"><ele>104.0</ele><time>2026-03-29T11:26:33Z</time></trkpt><trkpt lat="37.67852112247811" lon="15.179953640459933"><ele>103.5</ele><time>2026-03-29T11:26:34Z</time></trkpt><trkpt lat="37.67863545073542" lon="15.180054583471968"><ele>103.0</ele><time>2026-03-29T11:26:35Z</time></trkpt><trkpt lat="37.678748087237416" lon="15.180160874930209"><ele>102.5</ele><time>2026-03-29T11:26:36Z</time></trkpt><trkpt lat="37.67884852500278" lon="15.180280282235353"><ele>102.0</ele><time>2026-03-29T11:26:37Z</time></trkpt><trkpt lat="37.678935609384965" lon="15.180412143195017"><ele>102.0</ele><time>2026-03-29T11:26:38Z</time></trkpt><trkpt lat="37.679014273884626" lon="15.180544484966987"><ele>102.0</ele><time>2026-03-29T11:26:39Z</time></trkpt><trkpt lat="37.6790861392515" lon="15.180666899532493"><ele>102.0</ele><time>2026-03-29T11:26:40Z</time></trkpt><trkpt lat="37.67917161878765" lon="15.180765044404371"><ele>102.0</ele><time>2026-03-29T11:26:41Z</time></trkpt><trkpt lat="37.679260553576626" lon="15.180846526530356"><ele>101.0</ele><time>2026-03-29T11:26:42Z</time></trkpt><trkpt lat="37.67936069909407" lon="15.180916153090887"><ele>100.0</ele><time>2026-03-29T11:26:43Z</time></trkpt><trkpt lat="37.67947206479309" lon="15.180970864630162"><ele>99.0</ele><time>2026-03-29T11:26:44Z</time></trkpt><trkpt lat="37.67958408429838" lon="15.181022285781507"><ele>98.0</ele><time>2026-03-29T11:26:45Z</time></trkpt><trkpt lat="37.67969705497446" lon="15.181077024172785"><ele>98.0</ele><time>2026-03-29T11:26:46Z</time></trkpt><trkpt lat="37.67980698934475" lon="15.181134967895433"><ele>98.0</ele><time>2026-03-29T11:26:47Z</time></trkpt><trkpt lat="37.67991401388517" lon="15.181195648505545"><ele>98.0</ele><time>2026-03-29T11:26:48Z</time></trkpt><trkpt lat="37.68001167223673" lon="15.181273933715886"><ele>98.0</ele><time>2026-03-29T11:26:49Z</time></trkpt><trkpt lat="37.680092088084" lon="15.181380307300225"><ele>98.0</ele><time>2026-03-29T11:26:50Z</time></trkpt><trkpt lat="37.68016677330911" lon="15.18150398387272"><ele>98.0</ele><time>2026-03-29T11:26:51Z</time></trkpt><trkpt lat="37.68023730763776" lon="15.181637295852157"><ele>98.0</ele><time>2026-03-29T11:26:52Z</time></trkpt><trkpt lat="37.68030241413114" lon="15.181771354061564"><ele>98.0</ele><time>2026-03-29T11:26:53Z</time></trkpt><trkpt lat="37.680369436345515" lon="15.181903712642956"><ele>97.0</ele><time>2026-03-29T11:26:54Z</time></trkpt><trkpt lat="37.68043549967362" lon="15.182026568661911"><ele>96.0</ele><time>2026-03-29T11:26:55Z</time></trkpt><trkpt lat="37.68049188100302" lon="15.18214252853357"><ele>95.0</ele><time>2026-03-29T11:26:56Z</time></trkpt><trkpt lat="37.68054517750474" lon="15.182239059999674"><ele>94.0</ele><time>2026-03-29T11:26:57Z</time></trkpt><trkpt lat="37.680597080010614" lon="15.18231707416389"><ele>93.0</ele><time>2026-03-29T11:26:58Z</time></trkpt><trkpt lat="37.68065945547925" lon="15.182372685278796"><ele>93.0</ele><time>2026-03-29T11:26:59Z</time></trkpt><trkpt lat="37.68073500718195" lon="15.182396079892365"><ele>93.0</ele><time>2026-03-29T11:27:00Z</time></trkpt><trkpt lat="37.680815751733164" lon="15.182387330746783"><ele>93.0</ele><time>2026-03-29T11:27:01Z</time></trkpt><trkpt lat="37.680893293975494" lon="15.182347226085168"><ele>93.0</ele><time>2026-03-29T11:27:02Z</time></trkpt><trkpt lat="37.6809622228095" lon="15.182295856829517"><ele>93.0</ele><time>2026-03-29T11:27:03Z</time></trkpt><trkpt lat="37.68101127943906" lon="15.182224358274087"><ele>93.0</ele><time>2026-03-29T11:27:04Z</time></trkpt><trkpt lat="37.68113597278147" lon="15.182255101501472"><ele>93.83333333333333</ele><time>2026-03-29T11:27:06Z</time></trkpt><trkpt lat="37.68118646390136" lon="15.182391983045953"><ele>94.66666666666666</ele><time>2026-03-29T11:27:08Z</time></trkpt><trkpt lat="37.681220781547765" lon="15.18247572327271"><ele>95.5</ele><time>2026-03-29T11:27:09Z</time></trkpt><trkpt lat="37.681271488996394" lon="15.182561613014219"><ele>96.33333333333333</ele><time>2026-03-29T11:27:10Z</time></trkpt><trkpt lat="37.68130525215233" lon="15.182648702796914"><ele>97.16666666666666</ele><time>2026-03-29T11:27:11Z</time></trkpt><trkpt lat="37.68134598938563" lon="15.18273489378039"><ele>98.0</ele><time>2026-03-29T11:27:12Z</time></trkpt><trkpt lat="37.68138960074768" lon="15.182821702013953"><ele>98.0</ele><time>2026-03-29T11:27:13.001Z</time></trkpt><trkpt lat="37.68144829717634" lon="15.18290934604328"><ele>98.0</ele><time>2026-03-29T11:27:14.001Z</time></trkpt><trkpt lat="37.681508932324704" lon="15.182993715611635"><ele>98.0</ele><time>2026-03-29T11:27:15.001Z</time></trkpt><trkpt lat="37.68158777046783" lon="15.183068629319921"><ele>98.0</ele><time>2026-03-29T11:27:16.001Z</time></trkpt><trkpt lat="37.68166749221682" lon="15.18313120719695"><ele>98.0</ele><time>2026-03-29T11:27:17.001Z</time></trkpt><trkpt lat="37.681760948154725" lon="15.183206458218844"><ele>98.25</ele><time>2026-03-29T11:27:18.001Z</time></trkpt><trkpt lat="37.68186564379141" lon="15.183282963478442"><ele>98.5</ele><time>2026-03-29T11:27:19.001Z</time></trkpt><trkpt lat="37.68196864808484" lon="15.183361138877418"><ele>98.75</ele><time>2026-03-29T11:27:20.001Z</time></trkpt><trkpt lat="37.682082169901314" lon="15.18344630059596"><ele>99.0</ele><time>2026-03-29T11:27:21.001Z</time></trkpt><trkpt lat="37.682200959251084" lon="15.183536424937392"><ele>99.25</ele><time>2026-03-29T11:27:22.001Z</time></trkpt><trkpt lat="37.682321325100496" lon="15.183626962175559"><ele>99.5</ele><time>2026-03-29T11:27:23.001Z</time></trkpt><trkpt lat="37.68244510900785" lon="15.183718614514747"><ele>99.75</ele><time>2026-03-29T11:27:24.001Z</time></trkpt><trkpt lat="37.68257210032186" lon="15.183804722137447"><ele>100.0</ele><time>2026-03-29T11:27:25.001Z</time></trkpt><trkpt lat="37.68269539874044" lon="15.18389497091689"><ele>100.25</ele><time>2026-03-29T11:27:26.001Z</time></trkpt><trkpt lat="37.68282753149386" lon="15.183968813132992"><ele>100.5</ele><time>2026-03-29T11:27:27.001Z</time></trkpt><trkpt lat="37.68295478916673" lon="15.184051719797012"><ele>100.75</ele><time>2026-03-29T11:27:28.001Z</time></trkpt><trkpt lat="37.68308101729467" lon="15.184140838583959"><ele>101.0</ele><time>2026-03-29T11:27:29.001Z</time></trkpt><trkpt lat="37.68320167237728" lon="15.184232473612"><ele>101.0</ele><time>2026-03-29T11:27:30.001Z</time></trkpt><trkpt lat="37.68331953971572" lon="15.184329760888376"><ele>101.0</ele><time>2026-03-29T11:27:31.001Z</time></trkpt><trkpt lat="37.68343613465851" lon="15.184417509781658"><ele>101.0</ele><time>2026-03-29T11:27:32.001Z</time></trkpt><trkpt lat="37.68355186398518" lon="15.184507263658741"><ele>101.0</ele><time>2026-03-29T11:27:33.001Z</time></trkpt><trkpt lat="37.68366749250109" lon="15.184592657957504"><ele>101.25</ele><time>2026-03-29T11:27:34.001Z</time></trkpt><trkpt lat="37.68377917974857" lon="15.184677792295002"><ele>101.5</ele><time>2026-03-29T11:27:35.001Z</time></trkpt><trkpt lat="37.683882747609594" lon="15.184761613358695"><ele>101.75</ele><time>2026-03-29T11:27:36.001Z</time></trkpt><trkpt lat="37.683975093988366" lon="15.184837778284574"><ele>102.0</ele><time>2026-03-29T11:27:37.001Z</time></trkpt><trkpt lat="37.68406324278457" lon="15.184934775424807"><ele>101.5</ele><time>2026-03-29T11:27:38.001Z</time></trkpt><trkpt lat="37.68414637142058" lon="15.185043391656796"><ele>101.0</ele><time>2026-03-29T11:27:39.001Z</time></trkpt><trkpt lat="37.68423913074048" lon="15.18514494015672"><ele>100.5</ele><time>2026-03-29T11:27:40.001Z</time></trkpt><trkpt lat="37.6843368650721" lon="15.185247853189983"><ele>100.0</ele><time>2026-03-29T11:27:41.001Z</time></trkpt><trkpt lat="37.68444584031671" lon="15.185337837021274"><ele>100.0</ele><time>2026-03-29T11:27:42.001Z</time></trkpt><trkpt lat="37.684557956971176" lon="15.185429678912616"><ele>100.0</ele><time>2026-03-29T11:27:43.001Z</time></trkpt><trkpt lat="37.684673597283606" lon="15.1855148220083"><ele>100.0</ele><time>2026-03-29T11:27:44.001Z</time></trkpt><trkpt lat="37.68478999486966" lon="15.185591423065015"><ele>100.0</ele><time>2026-03-29T11:27:45.001Z</time></trkpt><trkpt lat="37.684903369612655" lon="15.185680044077895"><ele>99.75</ele><time>2026-03-29T11:27:46.001Z</time></trkpt><trkpt lat="37.68503318115653" lon="15.185739287474494"><ele>99.5</ele><time>2026-03-29T11:27:47.001Z</time></trkpt><trkpt lat="37.685167917942344" lon="15.185792387167403"><ele>99.25</ele><time>2026-03-29T11:27:48.001Z</time></trkpt><trkpt lat="37.685309054909865" lon="15.185825006894637"><ele>99.0</ele><time>2026-03-29T11:27:49.001Z</time></trkpt><trkpt lat="37.685437015765075" lon="15.18590838900535"><ele>99.0</ele><time>2026-03-29T11:27:50.001Z</time></trkpt><trkpt lat="37.685565271977325" lon="15.185976538769111"><ele>99.0</ele><time>2026-03-29T11:27:51.001Z</time></trkpt><trkpt lat="37.68569104302766" lon="15.186043368047539"><ele>99.0</ele><time>2026-03-29T11:27:52.001Z</time></trkpt><trkpt lat="37.685809917613405" lon="15.186117406863259"><ele>99.0</ele><time>2026-03-29T11:27:53.001Z</time></trkpt><trkpt lat="37.685935929893475" lon="15.186198701659276"><ele>99.0</ele><time>2026-03-29T11:27:54.001Z</time></trkpt><trkpt lat="37.68604758009188" lon="15.186312454344383"><ele>99.0</ele><time>2026-03-29T11:27:55.001Z</time></trkpt><trkpt lat="37.68616132648061" lon="15.186430128576614"><ele>99.0</ele><time>2026-03-29T11:27:56.001Z</time></trkpt><trkpt lat="37.686279468179414" lon="15.18654242334718"><ele>99.0</ele><time>2026-03-29T11:27:57.001Z</time></trkpt><trkpt lat="37.68639588981614" lon="15.186649354842263"><ele>98.75</ele><time>2026-03-29T11:27:58.001Z</time></trkpt><trkpt lat="37.68651523472405" lon="15.186758899711204"><ele>98.5</ele><time>2026-03-29T11:27:59.001Z</time></trkpt><trkpt lat="37.686636940590695" lon="15.18686792721068"><ele>98.25</ele><time>2026-03-29T11:28:00.001Z</time></trkpt><trkpt lat="37.68675454861467" lon="15.186973204610094"><ele>98.0</ele><time>2026-03-29T11:28:01.001Z</time></trkpt><trkpt lat="37.686867173586634" lon="15.187094725470713"><ele>97.66666666666666</ele><time>2026-03-29T11:28:02.001Z</time></trkpt><trkpt lat="37.68697765823908" lon="15.18722683610072"><ele>97.33333333333334</ele><time>2026-03-29T11:28:03.001Z</time></trkpt><trkpt lat="37.68708888088351" lon="15.187365400243337"><ele>97.0</ele><time>2026-03-29T11:28:04.001Z</time></trkpt><trkpt lat="37.68720639061791" lon="15.187511834810701"><ele>96.0</ele><time>2026-03-29T11:28:05.001Z</time></trkpt><trkpt lat="37.687329787348716" lon="15.18765863966773"><ele>95.0</ele><time>2026-03-29T11:28:06.001Z</time></trkpt><trkpt lat="37.68744448557755" lon="15.18782025675705"><ele>94.0</ele><time>2026-03-29T11:28:07.001Z</time></trkpt><trkpt lat="37.68757464794558" lon="15.187968903473449"><ele>94.0</ele><time>2026-03-29T11:28:08.002Z</time></trkpt><trkpt lat="37.687703563972974" lon="15.188116126822612"><ele>94.0</ele><time>2026-03-29T11:28:09.002Z</time></trkpt><trkpt lat="37.68784139920637" lon="15.188243460424768"><ele>94.0</ele><time>2026-03-29T11:28:10.002Z</time></trkpt><trkpt lat="37.68796808948072" lon="15.188385289825517"><ele>94.0</ele><time>2026-03-29T11:28:11.002Z</time></trkpt><trkpt lat="37.68809023309025" lon="15.188523120053684"><ele>94.0</ele><time>2026-03-29T11:28:12.002Z</time></trkpt><trkpt lat="37.68820984055001" lon="15.188654164565149"><ele>94.0</ele><time>2026-03-29T11:28:13.002Z</time></trkpt><trkpt lat="37.688328995779464" lon="15.188785196943803"><ele>94.0</ele><time>2026-03-29T11:28:14.002Z</time></trkpt><trkpt lat="37.68844638591856" lon="15.188911893549673"><ele>94.0</ele><time>2026-03-29T11:28:15.002Z</time></trkpt><trkpt lat="37.688558119153996" lon="15.189035593619192"><ele>94.0</ele><time>2026-03-29T11:28:16.002Z</time></trkpt><trkpt lat="37.688669188602844" lon="15.189160733138575"><ele>94.25</ele><time>2026-03-29T11:28:17.002Z</time></trkpt><trkpt lat="37.68877574759383" lon="15.189282052208425"><ele>94.5</ele><time>2026-03-29T11:28:18.002Z</time></trkpt><trkpt lat="37.6888806093992" lon="15.189397150602417"><ele>94.75</ele><time>2026-03-29T11:28:19.002Z</time></trkpt><trkpt lat="37.688983980075356" lon="15.189506535224597"><ele>95.0</ele><time>2026-03-29T11:28:20.002Z</time></trkpt><trkpt lat="37.68908562568487" lon="15.189617110495917"><ele>95.0</ele><time>2026-03-29T11:28:21.002Z</time></trkpt><trkpt lat="37.68918243678419" lon="15.189725065925431"><ele>95.0</ele><time>2026-03-29T11:28:22.002Z</time></trkpt><trkpt lat="37.689274468024685" lon="15.18983043601504"><ele>95.0</ele><time>2026-03-29T11:28:23.002Z</time></trkpt><trkpt lat="37.6893623929264" lon="15.189931074836716"><ele>95.0</ele><time>2026-03-29T11:28:24.002Z</time></trkpt><trkpt lat="37.689444705213624" lon="15.1900230536717"><ele>95.0</ele><time>2026-03-29T11:28:25.002Z</time></trkpt><trkpt lat="37.68952055064984" lon="15.190105719944116"><ele>95.0</ele><time>2026-03-29T11:28:26.002Z</time></trkpt><trkpt lat="37.68958579060835" lon="15.19017937737089"><ele>95.0</ele><time>2026-03-29T11:28:27.002Z</time></trkpt><trkpt lat="37.68964686174982" lon="15.190246421362653"><ele>95.0</ele><time>2026-03-29T11:28:28.002Z</time></trkpt><trkpt lat="37.68970693426701" lon="15.190309230287598"><ele>95.0</ele><time>2026-03-29T11:28:29.002Z</time></trkpt><trkpt lat="37.689758892945626" lon="15.190361277273494"><ele>95.0</ele><time>2026-03-29T11:28:30.002Z</time></trkpt><trkpt lat="37.68982612777681" lon="15.190425294557448"><ele>95.0</ele><time>2026-03-29T11:28:32.002Z</time></trkpt><trkpt lat="37.68986886984466" lon="15.190491013861772"><ele>95.0</ele><time>2026-03-29T11:28:36.002Z</time></trkpt><trkpt lat="37.68982318665817" lon="15.190568178774262"><ele>95.0</ele><time>2026-03-29T11:28:38Z</time></trkpt><trkpt lat="37.689919086922416" lon="15.190728964954264"><ele>95.0</ele><time>2026-03-29T11:28:40Z</time></trkpt><trkpt lat="37.6899799677012" lon="15.190765831845262"><ele>95.0</ele><time>2026-03-29T11:28:41Z</time></trkpt><trkpt lat="37.69004110363455" lon="15.190824205197096"><ele>95.0</ele><time>2026-03-29T11:28:42Z</time></trkpt><trkpt lat="37.690107767528666" lon="15.190880719451227"><ele>93.8</ele><time>2026-03-29T11:28:43Z</time></trkpt><trkpt lat="37.6901706182275" lon="15.190972849579385"><ele>92.6</ele><time>2026-03-29T11:28:44Z</time></trkpt><trkpt lat="37.69026422777889" lon="15.191044039897125"><ele>91.4</ele><time>2026-03-29T11:28:45Z</time></trkpt><trkpt lat="37.69035116965054" lon="15.191144135569255"><ele>90.2</ele><time>2026-03-29T11:28:46Z</time></trkpt><trkpt lat="37.69044263524144" lon="15.191253708022128"><ele>89.0</ele><time>2026-03-29T11:28:47Z</time></trkpt><trkpt lat="37.690539978426145" lon="15.191376358956353"><ele>88.33333333333334</ele><time>2026-03-29T11:28:48Z</time></trkpt><trkpt lat="37.69064906575375" lon="15.191507305482839"><ele>87.66666666666667</ele><time>2026-03-29T11:28:49Z</time></trkpt><trkpt lat="37.69076062584573" lon="15.191641144171236"><ele>87.0</ele><time>2026-03-29T11:28:50Z</time></trkpt><trkpt lat="37.69087323957646" lon="15.191771724917311"><ele>87.0</ele><time>2026-03-29T11:28:51Z</time></trkpt><trkpt lat="37.69098943051772" lon="15.191902355300938"><ele>87.0</ele><time>2026-03-29T11:28:52Z</time></trkpt><trkpt lat="37.69111182844767" lon="15.19203771392079"><ele>87.0</ele><time>2026-03-29T11:28:53Z</time></trkpt><trkpt lat="37.69123930867031" lon="15.19217347076429"><ele>87.0</ele><time>2026-03-29T11:28:54Z</time></trkpt><trkpt lat="37.691375351201046" lon="15.192301721755562"><ele>87.0</ele><time>2026-03-29T11:28:55Z</time></trkpt><trkpt lat="37.69151910507309" lon="15.192420581720123"><ele>87.0</ele><time>2026-03-29T11:28:56Z</time></trkpt><trkpt lat="37.691670791805194" lon="15.192533219827757"><ele>87.0</ele><time>2026-03-29T11:28:57Z</time></trkpt><trkpt lat="37.691826643946634" lon="15.192642319697876"><ele>87.0</ele><time>2026-03-29T11:28:58Z</time></trkpt><trkpt lat="37.691986354024735" lon="15.192746185930293"><ele>87.0</ele><time>2026-03-29T11:28:59Z</time></trkpt><trkpt lat="37.69215214681333" lon="15.192843906650982"><ele>88.0</ele><time>2026-03-29T11:29:00Z</time></trkpt><trkpt lat="37.69232055819658" lon="15.192936159034648"><ele>89.0</ele><time>2026-03-29T11:29:01Z</time></trkpt><trkpt lat="37.69248258403603" lon="15.19301754873345"><ele>90.0</ele><time>2026-03-29T11:29:02Z</time></trkpt><trkpt lat="37.69263932931976" lon="15.193092315258395"><ele>90.0</ele><time>2026-03-29T11:29:03Z</time></trkpt><trkpt lat="37.69279756965745" lon="15.193163693574228"><ele>90.0</ele><time>2026-03-29T11:29:04Z</time></trkpt><trkpt lat="37.69295443978024" lon="15.193241446857304"><ele>90.0</ele><time>2026-03-29T11:29:05Z</time></trkpt><trkpt lat="37.693109066142" lon="15.193337477392655"><ele>89.0</ele><time>2026-03-29T11:29:06Z</time></trkpt><trkpt lat="37.69325952344" lon="15.193452012140119"><ele>88.0</ele><time>2026-03-29T11:29:07Z</time></trkpt><trkpt lat="37.69340909140945" lon="15.19357617786238"><ele>87.0</ele><time>2026-03-29T11:29:08Z</time></trkpt><trkpt lat="37.693557375152956" lon="15.193705294233572"><ele>86.66666666666667</ele><time>2026-03-29T11:29:09Z</time></trkpt><trkpt lat="37.69370790768935" lon="15.19383138358238"><ele>86.33333333333334</ele><time>2026-03-29T11:29:10Z</time></trkpt><trkpt lat="37.69385795173763" lon="15.193956093798855"><ele>86.0</ele><time>2026-03-29T11:29:11Z</time></trkpt><trkpt lat="37.69400313264202" lon="15.194075795591857"><ele>86.33333333333334</ele><time>2026-03-29T11:29:12Z</time></trkpt><trkpt lat="37.6941520466934" lon="15.194183939103473"><ele>86.66666666666667</ele><time>2026-03-29T11:29:13Z</time></trkpt><trkpt lat="37.69430200379195" lon="15.194270813076576"><ele>87.0</ele><time>2026-03-29T11:29:14.001Z</time></trkpt><trkpt lat="37.694462120463" lon="15.194339136937545"><ele>87.0</ele><time>2026-03-29T11:29:15.001Z</time></trkpt><trkpt lat="37.69462784741525" lon="15.194386171682133"><ele>87.0</ele><time>2026-03-29T11:29:16.001Z</time></trkpt><trkpt lat="37.69479689677857" lon="15.194422322520673"><ele>87.0</ele><time>2026-03-29T11:29:17.001Z</time></trkpt><trkpt lat="37.694972850736185" lon="15.194453423966765"><ele>87.0</ele><time>2026-03-29T11:29:18.001Z</time></trkpt><trkpt lat="37.695151041939084" lon="15.19448488227747"><ele>87.0</ele><time>2026-03-29T11:29:19.001Z</time></trkpt><trkpt lat="37.69533008429898" lon="15.194514722487154"><ele>87.0</ele><time>2026-03-29T11:29:20.001Z</time></trkpt><trkpt lat="37.695510182303444" lon="15.1945442587788"><ele>87.66666666666667</ele><time>2026-03-29T11:29:21.001Z</time></trkpt><trkpt lat="37.6956910784081" lon="15.194573778845939"><ele>88.33333333333334</ele><time>2026-03-29T11:29:22.001Z</time></trkpt><trkpt lat="37.69587063763904" lon="15.194602642539559"><ele>89.0</ele><time>2026-03-29T11:29:23.001Z</time></trkpt><trkpt lat="37.69605442723802" lon="15.194631654805436"><ele>90.0</ele><time>2026-03-29T11:29:24.001Z</time></trkpt><trkpt lat="37.69623935387567" lon="15.194662300041184"><ele>91.0</ele><time>2026-03-29T11:29:25.001Z</time></trkpt><trkpt lat="37.69641792396976" lon="15.194691823673516"><ele>92.0</ele><time>2026-03-29T11:29:26.001Z</time></trkpt><trkpt lat="37.696591911261564" lon="15.194722475642724"><ele>92.0</ele><time>2026-03-29T11:29:27.001Z</time></trkpt><trkpt lat="37.69676237366326" lon="15.194753423846707"><ele>92.0</ele><time>2026-03-29T11:29:28.001Z</time></trkpt><trkpt lat="37.696931236977605" lon="15.194784366535398"><ele>92.0</ele><time>2026-03-29T11:29:29.001Z</time></trkpt><trkpt lat="37.6970989020792" lon="15.194811607312454"><ele>91.33333333333334</ele><time>2026-03-29T11:29:30.001Z</time></trkpt><trkpt lat="37.6972650278279" lon="15.194836198738377"><ele>90.66666666666667</ele><time>2026-03-29T11:29:31.001Z</time></trkpt><trkpt lat="37.69742902717884" lon="15.194850863024278"><ele>90.0</ele><time>2026-03-29T11:29:32.001Z</time></trkpt><trkpt lat="37.69759241642028" lon="15.194852369791432"><ele>90.33333333333333</ele><time>2026-03-29T11:29:33.001Z</time></trkpt><trkpt lat="37.69775767814598" lon="15.194840961861807"><ele>90.66666666666666</ele><time>2026-03-29T11:29:34.001Z</time></trkpt><trkpt lat="37.69792181722571" lon="15.194812090327476"><ele>91.0</ele><time>2026-03-29T11:29:35.001Z</time></trkpt><trkpt lat="37.69808282735908" lon="15.194772616753685"><ele>91.0</ele><time>2026-03-29T11:29:36.001Z</time></trkpt><trkpt lat="37.6982398646412" lon="15.194719833990977"><ele>91.0</ele><time>2026-03-29T11:29:37.001Z</time></trkpt><trkpt lat="37.69839578075326" lon="15.194663746501673"><ele>91.0</ele><time>2026-03-29T11:29:38.001Z</time></trkpt><trkpt lat="37.698545857463536" lon="15.194611060502071"><ele>91.0</ele><time>2026-03-29T11:29:39.001Z</time></trkpt><trkpt lat="37.69869459142643" lon="15.194566299459385"><ele>91.0</ele><time>2026-03-29T11:29:40.001Z</time></trkpt><trkpt lat="37.6988358655415" lon="15.194527620928383"><ele>91.0</ele><time>2026-03-29T11:29:41.001Z</time></trkpt><trkpt lat="37.69896830755041" lon="15.194492605589835"><ele>91.0</ele><time>2026-03-29T11:29:42.001Z</time></trkpt><trkpt lat="37.69909119686004" lon="15.194463439046896"><ele>91.0</ele><time>2026-03-29T11:29:43.001Z</time></trkpt><trkpt lat="37.699203906788306" lon="15.194437736433915"><ele>91.0</ele><time>2026-03-29T11:29:44.001Z</time></trkpt><trkpt lat="37.69930737976888" lon="15.19441483305302"><ele>91.0</ele><time>2026-03-29T11:29:45.001Z</time></trkpt><trkpt lat="37.69940694387577" lon="15.194392466314369"><ele>91.0</ele><time>2026-03-29T11:29:46.001Z</time></trkpt><trkpt lat="37.69950985640778" lon="15.194370451467542"><ele>91.0</ele><time>2026-03-29T11:29:47.001Z</time></trkpt><trkpt lat="37.69960984305173" lon="15.194345938539971"><ele>90.19999999999999</ele><time>2026-03-29T11:29:48.001Z</time></trkpt><trkpt lat="37.69970197690185" lon="15.194325445746621"><ele>89.39999999999999</ele><time>2026-03-29T11:29:49.001Z</time></trkpt><trkpt lat="37.699788325435996" lon="15.194306736985284"><ele>88.6</ele><time>2026-03-29T11:29:50.001Z</time></trkpt><trkpt lat="37.69987758695116" lon="15.194286134680395"><ele>87.8</ele><time>2026-03-29T11:29:51.001Z</time></trkpt><trkpt lat="37.69996805150102" lon="15.194265005083713"><ele>87.0</ele><time>2026-03-29T11:29:52.001Z</time></trkpt><trkpt lat="37.700056736535295" lon="15.194244176539655"><ele>87.0</ele><time>2026-03-29T11:29:53.001Z</time></trkpt><trkpt lat="37.70014942063611" lon="15.194222413108484"><ele>87.0</ele><time>2026-03-29T11:29:54.001Z</time></trkpt><trkpt lat="37.700240171800395" lon="15.194198766291068"><ele>87.0</ele><time>2026-03-29T11:29:55.001Z</time></trkpt><trkpt lat="37.700329401711286" lon="15.194179175706779"><ele>87.0</ele><time>2026-03-29T11:29:56.001Z</time></trkpt><trkpt lat="37.70041911041686" lon="15.194159416843581"><ele>87.0</ele><time>2026-03-29T11:29:57.001Z</time></trkpt><trkpt lat="37.70050744846097" lon="15.194134918802998"><ele>87.28571428571428</ele><time>2026-03-29T11:29:58.001Z</time></trkpt><trkpt lat="37.70058638766223" lon="15.194118405060255"><ele>87.57142857142857</ele><time>2026-03-29T11:29:59.001Z</time></trkpt><trkpt lat="37.70066237102002" lon="15.194097669764231"><ele>87.85714285714286</ele><time>2026-03-29T11:30:00.001Z</time></trkpt><trkpt lat="37.700730703798484" lon="15.1940860044123"><ele>88.14285714285714</ele><time>2026-03-29T11:30:01.001Z</time></trkpt><trkpt lat="37.70080309015365" lon="15.194072253954356"><ele>88.42857142857143</ele><time>2026-03-29T11:30:02.001Z</time></trkpt><trkpt lat="37.70087860674736" lon="15.194065928734576"><ele>88.71428571428571</ele><time>2026-03-29T11:30:03.001Z</time></trkpt><trkpt lat="37.70095190674838" lon="15.194062367008714"><ele>89.0</ele><time>2026-03-29T11:30:04.001Z</time></trkpt><trkpt lat="37.70102702306465" lon="15.194058963392617"><ele>88.83333333333334</ele><time>2026-03-29T11:30:05.001Z</time></trkpt><trkpt lat="37.70110829334604" lon="15.194056722924667"><ele>88.66666666666667</ele><time>2026-03-29T11:30:06.001Z</time></trkpt><trkpt lat="37.70119286126472" lon="15.194058115647627"><ele>88.5</ele><time>2026-03-29T11:30:07.001Z</time></trkpt><trkpt lat="37.70127879459502" lon="15.194061549499224"><ele>88.33333333333333</ele><time>2026-03-29T11:30:08.001Z</time></trkpt><trkpt lat="37.701367875286266" lon="15.19406793763515"><ele>88.16666666666666</ele><time>2026-03-29T11:30:09.001Z</time></trkpt><trkpt lat="37.70145960059956" lon="15.194075756527356"><ele>88.0</ele><time>2026-03-29T11:30:10.001Z</time></trkpt><trkpt lat="37.701553816526584" lon="15.194082364967802"><ele>88.0</ele><time>2026-03-29T11:30:11.001Z</time></trkpt><trkpt lat="37.70164464039383" lon="15.1940895288926"><ele>88.0</ele><time>2026-03-29T11:30:12.002Z</time></trkpt><trkpt lat="37.701732967601274" lon="15.194095282013006"><ele>88.0</ele><time>2026-03-29T11:30:13.002Z</time></trkpt><trkpt lat="37.70181905694468" lon="15.194101629205985"><ele>88.0</ele><time>2026-03-29T11:30:14.002Z</time></trkpt><trkpt lat="37.70190524007831" lon="15.194109523068823"><ele>88.0</ele><time>2026-03-29T11:30:15.002Z</time></trkpt><trkpt lat="37.70199082523018" lon="15.194114994683801"><ele>88.0</ele><time>2026-03-29T11:30:16.002Z</time></trkpt><trkpt lat="37.70207909276748" lon="15.194121014185528"><ele>88.2</ele><time>2026-03-29T11:30:17.002Z</time></trkpt><trkpt lat="37.7021684074449" lon="15.1941268505586"><ele>88.4</ele><time>2026-03-29T11:30:18.002Z</time></trkpt><trkpt lat="37.702262363982676" lon="15.194130568841157"><ele>88.60000000000001</ele><time>2026-03-29T11:30:19.002Z</time></trkpt><trkpt lat="37.70235908329705" lon="15.194133109301305"><ele>88.80000000000001</ele><time>2026-03-29T11:30:20.002Z</time></trkpt><trkpt lat="37.702450218716585" lon="15.194133427309248"><ele>89.0</ele><time>2026-03-29T11:30:21.002Z</time></trkpt><trkpt lat="37.70253577550188" lon="15.194123507476998"><ele>89.0</ele><time>2026-03-29T11:30:22.002Z</time></trkpt><trkpt lat="37.70261969485532" lon="15.194102423328605"><ele>89.0</ele><time>2026-03-29T11:30:23.002Z</time></trkpt><trkpt lat="37.70270260029403" lon="15.194067706478634"><ele>89.0</ele><time>2026-03-29T11:30:24.002Z</time></trkpt><trkpt lat="37.702785789406654" lon="15.194023695365317"><ele>89.0</ele><time>2026-03-29T11:30:25.002Z</time></trkpt><trkpt lat="37.70286295130021" lon="15.19396885469899"><ele>89.0</ele><time>2026-03-29T11:30:26.002Z</time></trkpt><trkpt lat="37.702937498206" lon="15.193910262312889"><ele>89.0</ele><time>2026-03-29T11:30:27.002Z</time></trkpt><trkpt lat="37.70301400316981" lon="15.193848411719708"><ele>89.4</ele><time>2026-03-29T11:30:28.002Z</time></trkpt><trkpt lat="37.703092709401496" lon="15.193786166119542"><ele>89.80000000000001</ele><time>2026-03-29T11:30:29.002Z</time></trkpt><trkpt lat="37.70317487682153" lon="15.193723088354776"><ele>90.19999999999999</ele><time>2026-03-29T11:30:30.002Z</time></trkpt><trkpt lat="37.70325249382548" lon="15.193663207746646"><ele>90.6</ele><time>2026-03-29T11:30:31.002Z</time></trkpt><trkpt lat="37.703330138541745" lon="15.193604597532419"><ele>91.0</ele><time>2026-03-29T11:30:32.002Z</time></trkpt><trkpt lat="37.703404664305985" lon="15.19354710130074"><ele>91.0</ele><time>2026-03-29T11:30:33.002Z</time></trkpt><trkpt lat="37.70348036092182" lon="15.193488648066552"><ele>91.0</ele><time>2026-03-29T11:30:34.002Z</time></trkpt><trkpt lat="37.7035531903827" lon="15.193430188846426"><ele>91.0</ele><time>2026-03-29T11:30:35.002Z</time></trkpt><trkpt lat="37.7036258189972" lon="15.193375573048684"><ele>91.0</ele><time>2026-03-29T11:30:36.002Z</time></trkpt><trkpt lat="37.703698487052954" lon="15.193323419851243"><ele>91.0</ele><time>2026-03-29T11:30:37.002Z</time></trkpt><trkpt lat="37.70377431284585" lon="15.19327260832544"><ele>91.0</ele><time>2026-03-29T11:30:38.002Z</time></trkpt><trkpt lat="37.70385106202277" lon="15.193220350851188"><ele>92.0</ele><time>2026-03-29T11:30:39.002Z</time></trkpt><trkpt lat="37.703927113235444" lon="15.193168718262928"><ele>93.0</ele><time>2026-03-29T11:30:40.002Z</time></trkpt><trkpt lat="37.70400580228318" lon="15.193120885659297"><ele>94.0</ele><time>2026-03-29T11:30:41.002Z</time></trkpt><trkpt lat="37.704086136331625" lon="15.193067178372033"><ele>95.0</ele><time>2026-03-29T11:30:42.002Z</time></trkpt><trkpt lat="37.70416796811158" lon="15.193014068061268"><ele>96.00000000000001</ele><time>2026-03-29T11:30:43.002Z</time></trkpt><trkpt lat="37.70425001311264" lon="15.192959439599832"><ele>97.0</ele><time>2026-03-29T11:30:44Z</time></trkpt><trkpt lat="37.70433332138282" lon="15.192905899906547"><ele>96.50000000000001</ele><time>2026-03-29T11:30:45Z</time></trkpt><trkpt lat="37.70441507171397" lon="15.192851456981249"><ele>96.0</ele><time>2026-03-29T11:30:46Z</time></trkpt><trkpt lat="37.70449483362777" lon="15.192800485454374"><ele>95.5</ele><time>2026-03-29T11:30:47Z</time></trkpt><trkpt lat="37.704573957512906" lon="15.192746179335874"><ele>95.0</ele><time>2026-03-29T11:30:48Z</time></trkpt><trkpt lat="37.704652668825794" lon="15.19269417682885"><ele>94.5</ele><time>2026-03-29T11:30:49Z</time></trkpt><trkpt lat="37.7047307679293" lon="15.192642118334886"><ele>94.0</ele><time>2026-03-29T11:30:50Z</time></trkpt><trkpt lat="37.70481028292758" lon="15.192589187936676"><ele>94.0</ele><time>2026-03-29T11:30:51Z</time></trkpt><trkpt lat="37.70489116514394" lon="15.192534305493158"><ele>94.0</ele><time>2026-03-29T11:30:52Z</time></trkpt><trkpt lat="37.70497179809315" lon="15.19248484088956"><ele>94.0</ele><time>2026-03-29T11:30:53Z</time></trkpt><trkpt lat="37.705052136387984" lon="15.192435435900974"><ele>94.0</ele><time>2026-03-29T11:30:54Z</time></trkpt><trkpt lat="37.70512952348422" lon="15.192386110598516"><ele>94.0</ele><time>2026-03-29T11:30:55Z</time></trkpt><trkpt lat="37.705209761310286" lon="15.192332507694724"><ele>94.0</ele><time>2026-03-29T11:30:56Z</time></trkpt><trkpt lat="37.70528829698847" lon="15.192278842242809"><ele>94.6</ele><time>2026-03-29T11:30:57Z</time></trkpt><trkpt lat="37.70536839198548" lon="15.192225273633621"><ele>95.2</ele><time>2026-03-29T11:30:58Z</time></trkpt><trkpt lat="37.70545017093638" lon="15.192173617899508"><ele>95.8</ele><time>2026-03-29T11:30:59Z</time></trkpt><trkpt lat="37.70553290202936" lon="15.192120876120313"><ele>96.39999999999999</ele><time>2026-03-29T11:31:00Z</time></trkpt><trkpt lat="37.70561914368453" lon="15.192064699554198"><ele>97.0</ele><time>2026-03-29T11:31:01Z</time></trkpt><trkpt lat="37.70570271072384" lon="15.192011213559132"><ele>97.00000000000001</ele><time>2026-03-29T11:31:02Z</time></trkpt><trkpt lat="37.70578189931555" lon="15.19196145329458"><ele>97.0</ele><time>2026-03-29T11:31:03Z</time></trkpt><trkpt lat="37.705861284303595" lon="15.191911132830098"><ele>97.0</ele><time>2026-03-29T11:31:04Z</time></trkpt><trkpt lat="37.705940019003386" lon="15.191861052584297"><ele>97.0</ele><time>2026-03-29T11:31:05Z</time></trkpt><trkpt lat="37.70602209212947" lon="15.191815217946465"><ele>97.00000000000001</ele><time>2026-03-29T11:31:06Z</time></trkpt><trkpt lat="37.70610527705974" lon="15.191781338735987"><ele>97.0</ele><time>2026-03-29T11:31:07Z</time></trkpt><trkpt lat="37.706193896975314" lon="15.191764987014782"><ele>96.19999999999999</ele><time>2026-03-29T11:31:08Z</time></trkpt><trkpt lat="37.706283511932675" lon="15.1917628495966"><ele>95.4</ele><time>2026-03-29T11:31:09Z</time></trkpt><trkpt lat="37.706367105967765" lon="15.191770555917357"><ele>94.6</ele><time>2026-03-29T11:31:10Z</time></trkpt><trkpt lat="37.706454975021515" lon="15.191795340926094"><ele>93.80000000000001</ele><time>2026-03-29T11:31:11Z</time></trkpt><trkpt lat="37.70654166707071" lon="15.191828117324238"><ele>93.0</ele><time>2026-03-29T11:31:12Z</time></trkpt><trkpt lat="37.70662758507763" lon="15.19188267622256"><ele>93.0</ele><time>2026-03-29T11:31:13Z</time></trkpt><trkpt lat="37.70671142070181" lon="15.191942316694627"><ele>93.0</ele><time>2026-03-29T11:31:14Z</time></trkpt><trkpt lat="37.706800675615" lon="15.192001759861105"><ele>93.0</ele><time>2026-03-29T11:31:15Z</time></trkpt><trkpt lat="37.706884802918346" lon="15.192060054984141"><ele>93.0</ele><time>2026-03-29T11:31:16.001Z</time></trkpt><trkpt lat="37.70696489169392" lon="15.192117350900988"><ele>93.0</ele><time>2026-03-29T11:31:17.001Z</time></trkpt><trkpt lat="37.70704739766847" lon="15.192174464090622"><ele>92.80000000000001</ele><time>2026-03-29T11:31:18.001Z</time></trkpt><trkpt lat="37.70712627639885" lon="15.19223066532445"><ele>92.6</ele><time>2026-03-29T11:31:19.001Z</time></trkpt><trkpt lat="37.707207437171014" lon="15.19228506219475"><ele>92.4</ele><time>2026-03-29T11:31:20.001Z</time></trkpt><trkpt lat="37.707287206920434" lon="15.192338056076524"><ele>92.19999999999999</ele><time>2026-03-29T11:31:21.001Z</time></trkpt><trkpt lat="37.70736672545246" lon="15.19239217019923"><ele>92.0</ele><time>2026-03-29T11:31:22.001Z</time></trkpt><trkpt lat="37.707443924621074" lon="15.192443779564568"><ele>91.5</ele><time>2026-03-29T11:31:23.001Z</time></trkpt><trkpt lat="37.7075245679094" lon="15.192490789483381"><ele>91.0</ele><time>2026-03-29T11:31:24.001Z</time></trkpt><trkpt lat="37.70760965389558" lon="15.192522716863248"><ele>90.5</ele><time>2026-03-29T11:31:25.001Z</time></trkpt><trkpt lat="37.70769684516072" lon="15.1925386133182"><ele>90.0</ele><time>2026-03-29T11:31:26.001Z</time></trkpt><trkpt lat="37.707783994862304" lon="15.19254047623475"><ele>89.5</ele><time>2026-03-29T11:31:27.001Z</time></trkpt><trkpt lat="37.70787624015856" lon="15.19253614128533"><ele>89.0</ele><time>2026-03-29T11:31:28.001Z</time></trkpt><trkpt lat="37.707970832839386" lon="15.192531755897331"><ele>89.0</ele><time>2026-03-29T11:31:29.001Z</time></trkpt><trkpt lat="37.708069305049506" lon="15.19252631788973"><ele>89.0</ele><time>2026-03-29T11:31:30.001Z</time></trkpt><trkpt lat="37.70817236634186" lon="15.192521571583214"><ele>89.0</ele><time>2026-03-29T11:31:31.001Z</time></trkpt><trkpt lat="37.70828294150348" lon="15.192516336613448"><ele>89.0</ele><time>2026-03-29T11:31:32.001Z</time></trkpt><trkpt lat="37.70840123245714" lon="15.192511792733928"><ele>89.0</ele><time>2026-03-29T11:31:33.001Z</time></trkpt><trkpt lat="37.70851552563168" lon="15.192505662568234"><ele>88.6</ele><time>2026-03-29T11:31:34.001Z</time></trkpt><trkpt lat="37.708623228740905" lon="15.19250058747119"><ele>88.2</ele><time>2026-03-29T11:31:35.001Z</time></trkpt><trkpt lat="37.70872821014614" lon="15.192495077696956"><ele>87.8</ele><time>2026-03-29T11:31:36.001Z</time></trkpt><trkpt lat="37.708831789769306" lon="15.1924917864666"><ele>87.39999999999999</ele><time>2026-03-29T11:31:37.001Z</time></trkpt><trkpt lat="37.7089330266849" lon="15.192487512334317"><ele>87.0</ele><time>2026-03-29T11:31:38.001Z</time></trkpt><trkpt lat="37.709026450845855" lon="15.192477733829138"><ele>87.0</ele><time>2026-03-29T11:31:39.001Z</time></trkpt><trkpt lat="37.70911701514239" lon="15.192459559749905"><ele>87.0</ele><time>2026-03-29T11:31:40.001Z</time></trkpt><trkpt lat="37.7092040637262" lon="15.192429948008868"><ele>87.0</ele><time>2026-03-29T11:31:41.001Z</time></trkpt><trkpt lat="37.70928720694367" lon="15.192394897494466"><ele>87.0</ele><time>2026-03-29T11:31:42.001Z</time></trkpt><trkpt lat="37.70937145342234" lon="15.192346217686314"><ele>87.0</ele><time>2026-03-29T11:31:43.001Z</time></trkpt><trkpt lat="37.7094604746904" lon="15.192301398796952"><ele>87.8</ele><time>2026-03-29T11:31:44.001Z</time></trkpt><trkpt lat="37.70955095191823" lon="15.192261288255057"><ele>88.6</ele><time>2026-03-29T11:31:45.001Z</time></trkpt><trkpt lat="37.70964075800043" lon="15.192213592487631"><ele>89.39999999999999</ele><time>2026-03-29T11:31:46.001Z</time></trkpt><trkpt lat="37.70973518565647" lon="15.192174864755764"><ele>90.19999999999999</ele><time>2026-03-29T11:31:47.001Z</time></trkpt><trkpt lat="37.70983401994533" lon="15.192144199639321"><ele>91.0</ele><time>2026-03-29T11:31:48.001Z</time></trkpt><trkpt lat="37.70993536222397" lon="15.192126723042652"><ele>91.0</ele><time>2026-03-29T11:31:49.001Z</time></trkpt><trkpt lat="37.71004377031555" lon="15.192124586335185"><ele>91.0</ele><time>2026-03-29T11:31:50.001Z</time></trkpt><trkpt lat="37.71014922859887" lon="15.192126881040128"><ele>91.0</ele><time>2026-03-29T11:31:51.001Z</time></trkpt><trkpt lat="37.71024930286654" lon="15.192134052479883"><ele>91.0</ele><time>2026-03-29T11:31:52.001Z</time></trkpt><trkpt lat="37.71034296729538" lon="15.192140141785401"><ele>91.0</ele><time>2026-03-29T11:31:53.001Z</time></trkpt><trkpt lat="37.71043240256881" lon="15.192149651226975"><ele>90.83333333333333</ele><time>2026-03-29T11:31:54.001Z</time></trkpt><trkpt lat="37.71052279284453" lon="15.192163642897295"><ele>90.66666666666666</ele><time>2026-03-29T11:31:55.001Z</time></trkpt><trkpt lat="37.71061402190254" lon="15.192186174764498"><ele>90.5</ele><time>2026-03-29T11:31:56.001Z</time></trkpt><trkpt lat="37.7107019714674" lon="15.192215135680197"><ele>90.33333333333333</ele><time>2026-03-29T11:31:57.001Z</time></trkpt><trkpt lat="37.7107808252937" lon="15.192264085609315"><ele>90.16666666666667</ele><time>2026-03-29T11:31:58.001Z</time></trkpt><trkpt lat="37.71084927049924" lon="15.192315599131616"><ele>90.0</ele><time>2026-03-29T11:31:59.001Z</time></trkpt><trkpt lat="37.71091811199747" lon="15.192375872111151"><ele>89.66666666666667</ele><time>2026-03-29T11:32:00.001Z</time></trkpt><trkpt lat="37.71098574853879" lon="15.192431040452798"><ele>89.33333333333333</ele><time>2026-03-29T11:32:01.001Z</time></trkpt><trkpt lat="37.71105335941147" lon="15.192481083891714"><ele>89.0</ele><time>2026-03-29T11:32:02.001Z</time></trkpt><trkpt lat="37.711117771786334" lon="15.192524238801118"><ele>88.66666666666666</ele><time>2026-03-29T11:32:03.001Z</time></trkpt><trkpt lat="37.71121668070766" lon="15.192611543040636"><ele>88.33333333333333</ele><time>2026-03-29T11:32:05.001Z</time></trkpt><trkpt lat="37.711261055585844" lon="15.192671714301412"><ele>88.0</ele><time>2026-03-29T11:32:06.001Z</time></trkpt><trkpt lat="37.71130518299585" lon="15.192734700217837"><ele>88.0</ele><time>2026-03-29T11:32:07.001Z</time></trkpt><trkpt lat="37.711354251570114" lon="15.1927992288821"><ele>88.0</ele><time>2026-03-29T11:32:08.001Z</time></trkpt><trkpt lat="37.711412612680206" lon="15.192869945789308"><ele>88.0</ele><time>2026-03-29T11:32:09.001Z</time></trkpt><trkpt lat="37.71147511980489" lon="15.192941605234207"><ele>88.0</ele><time>2026-03-29T11:32:10.001Z</time></trkpt><trkpt lat="37.71155339735361" lon="15.19301677441439"><ele>88.0</ele><time>2026-03-29T11:32:11.001Z</time></trkpt><trkpt lat="37.71163497846867" lon="15.193096366891456"><ele>88.0</ele><time>2026-03-29T11:32:12.001Z</time></trkpt><trkpt lat="37.71171477610204" lon="15.193177008630768"><ele>87.25</ele><time>2026-03-29T11:32:13.001Z</time></trkpt><trkpt lat="37.71180363860371" lon="15.193260566747092"><ele>86.5</ele><time>2026-03-29T11:32:14.001Z</time></trkpt><trkpt lat="37.7118993115693" lon="15.19334032206302"><ele>85.75</ele><time>2026-03-29T11:32:15.001Z</time></trkpt><trkpt lat="37.71199755676194" lon="15.193417769084478"><ele>85.0</ele><time>2026-03-29T11:32:16.001Z</time></trkpt><trkpt lat="37.712092258106466" lon="15.193492276420653"><ele>85.0</ele><time>2026-03-29T11:32:17.001Z</time></trkpt><trkpt lat="37.71218687607454" lon="15.193567977975128"><ele>85.0</ele><time>2026-03-29T11:32:18.001Z</time></trkpt><trkpt lat="37.7122869438135" lon="15.193643289283031"><ele>85.0</ele><time>2026-03-29T11:32:19.001Z</time></trkpt><trkpt lat="37.712386106038494" lon="15.193718305732368"><ele>85.0</ele><time>2026-03-29T11:32:20.001Z</time></trkpt><trkpt lat="37.712485540206686" lon="15.19379334071243"><ele>85.0</ele><time>2026-03-29T11:32:21.002Z</time></trkpt><trkpt lat="37.71258717984315" lon="15.193858766059838"><ele>85.0</ele><time>2026-03-29T11:32:22.002Z</time></trkpt><trkpt lat="37.71269067683489" lon="15.193922473072604"><ele>85.0</ele><time>2026-03-29T11:32:23.002Z</time></trkpt><trkpt lat="37.71279353150725" lon="15.193981824806652"><ele>85.0</ele><time>2026-03-29T11:32:24.002Z</time></trkpt><trkpt lat="37.71290380621051" lon="15.194037223485795"><ele>83.75</ele><time>2026-03-29T11:32:25.002Z</time></trkpt><trkpt lat="37.713012696391296" lon="15.194090094309644"><ele>82.5</ele><time>2026-03-29T11:32:26.002Z</time></trkpt><trkpt lat="37.71312510377749" lon="15.194143478095924"><ele>81.25</ele><time>2026-03-29T11:32:27.002Z</time></trkpt><trkpt lat="37.71323723687655" lon="15.194201491603563"><ele>80.0</ele><time>2026-03-29T11:32:28.002Z</time></trkpt><trkpt lat="37.713344417845654" lon="15.194264970501584"><ele>80.0</ele><time>2026-03-29T11:32:29.002Z</time></trkpt><trkpt lat="37.713448861711505" lon="15.194329967030955"><ele>80.0</ele><time>2026-03-29T11:32:30.002Z</time></trkpt><trkpt lat="37.713555722773904" lon="15.194403613395385"><ele>80.0</ele><time>2026-03-29T11:32:31.002Z</time></trkpt><trkpt lat="37.71366179105643" lon="15.194474405204314"><ele>80.0</ele><time>2026-03-29T11:32:32.002Z</time></trkpt><trkpt lat="37.71376779478268" lon="15.194548842434608"><ele>80.0</ele><time>2026-03-29T11:32:33.002Z</time></trkpt><trkpt lat="37.71386876952302" lon="15.194616321333925"><ele>80.0</ele><time>2026-03-29T11:32:34.002Z</time></trkpt><trkpt lat="37.713965655651776" lon="15.194683864323908"><ele>80.0</ele><time>2026-03-29T11:32:35.002Z</time></trkpt><trkpt lat="37.71406703254802" lon="15.194750432541786"><ele>80.0</ele><time>2026-03-29T11:32:36.002Z</time></trkpt><trkpt lat="37.71417011651358" lon="15.194816993715467"><ele>79.0</ele><time>2026-03-29T11:32:37.002Z</time></trkpt><trkpt lat="37.714276324722036" lon="15.194890853595888"><ele>78.0</ele><time>2026-03-29T11:32:38.002Z</time></trkpt><trkpt lat="37.714380296568294" lon="15.194969756088307"><ele>77.0</ele><time>2026-03-29T11:32:39.002Z</time></trkpt><trkpt lat="37.714480800189186" lon="15.19506040611105"><ele>76.0</ele><time>2026-03-29T11:32:40.002Z</time></trkpt><trkpt lat="37.714574212518144" lon="15.195159398361922"><ele>75.75</ele><time>2026-03-29T11:32:41.002Z</time></trkpt><trkpt lat="37.71466231156825" lon="15.195262721222225"><ele>75.5</ele><time>2026-03-29T11:32:42.002Z</time></trkpt><trkpt lat="37.71474691108517" lon="15.195371526063525"><ele>75.25</ele><time>2026-03-29T11:32:43.002Z</time></trkpt><trkpt lat="37.71484044025449" lon="15.195472267593662"><ele>75.0</ele><time>2026-03-29T11:32:44.002Z</time></trkpt><trkpt lat="37.7149279537362" lon="15.195565007003578"><ele>75.0</ele><time>2026-03-29T11:32:45.002Z</time></trkpt><trkpt lat="37.71501130247769" lon="15.195651365221021"><ele>75.0</ele><time>2026-03-29T11:32:46.002Z</time></trkpt><trkpt lat="37.71509855548529" lon="15.195737479210258"><ele>75.0</ele><time>2026-03-29T11:32:47.002Z</time></trkpt><trkpt lat="37.71518698966128" lon="15.195823063486246"><ele>75.0</ele><time>2026-03-29T11:32:48.002Z</time></trkpt><trkpt lat="37.71527749619251" lon="15.195901519033383"><ele>75.0</ele><time>2026-03-29T11:32:49.002Z</time></trkpt><trkpt lat="37.71536943531189" lon="15.195979968789526"><ele>74.25</ele><time>2026-03-29T11:32:50Z</time></trkpt><trkpt lat="37.71546104322452" lon="15.196055344631116"><ele>73.5</ele><time>2026-03-29T11:32:51Z</time></trkpt><trkpt lat="37.715557760072" lon="15.196137125748736"><ele>72.75</ele><time>2026-03-29T11:32:52Z</time></trkpt><trkpt lat="37.715653401153155" lon="15.196222273253605"><ele>72.0</ele><time>2026-03-29T11:32:53Z</time></trkpt><trkpt lat="37.71574635870053" lon="15.19630010665062"><ele>72.0</ele><time>2026-03-29T11:32:54Z</time></trkpt><trkpt lat="37.715838069441766" lon="15.196379137383786"><ele>72.0</ele><time>2026-03-29T11:32:55Z</time></trkpt><trkpt lat="37.7159284712248" lon="15.196461448117516"><ele>72.0</ele><time>2026-03-29T11:32:56Z</time></trkpt><trkpt lat="37.71601766260527" lon="15.196540688721386"><ele>72.0</ele><time>2026-03-29T11:32:57Z</time></trkpt><trkpt lat="37.71610232153199" lon="15.19661633911662"><ele>72.0</ele><time>2026-03-29T11:32:58Z</time></trkpt><trkpt lat="37.71618720096728" lon="15.196689044336997"><ele>71.2</ele><time>2026-03-29T11:32:59Z</time></trkpt><trkpt lat="37.716269292382286" lon="15.196760756099813"><ele>70.4</ele><time>2026-03-29T11:33:00Z</time></trkpt><trkpt lat="37.71635109003024" lon="15.196840976596015"><ele>69.6</ele><time>2026-03-29T11:33:01Z</time></trkpt><trkpt lat="37.71643061743122" lon="15.196929592374515"><ele>68.8</ele><time>2026-03-29T11:33:02Z</time></trkpt><trkpt lat="37.716505108379934" lon="15.197024624378983"><ele>68.0</ele><time>2026-03-29T11:33:03Z</time></trkpt><trkpt lat="37.71659753677467" lon="15.197113805962905"><ele>68.0</ele><time>2026-03-29T11:33:04Z</time></trkpt><trkpt lat="37.716685342066555" lon="15.197211483558645"><ele>68.0</ele><time>2026-03-29T11:33:05Z</time></trkpt><trkpt lat="37.71677018281732" lon="15.197308523578306"><ele>68.0</ele><time>2026-03-29T11:33:06Z</time></trkpt><trkpt lat="37.71685071545193" lon="15.197392440789637"><ele>68.0</ele><time>2026-03-29T11:33:07Z</time></trkpt><trkpt lat="37.716932439588625" lon="15.197468679079439"><ele>68.0</ele><time>2026-03-29T11:33:08Z</time></trkpt><trkpt lat="37.71701668993302" lon="15.197523935475044"><ele>66.8</ele><time>2026-03-29T11:33:09Z</time></trkpt><trkpt lat="37.71711626744743" lon="15.19755372651795"><ele>65.6</ele><time>2026-03-29T11:33:10Z</time></trkpt><trkpt lat="37.71721829823449" lon="15.197568302192682"><ele>64.4</ele><time>2026-03-29T11:33:11Z</time></trkpt><trkpt lat="37.717316729528775" lon="15.19756556720988"><ele>63.2</ele><time>2026-03-29T11:33:12Z</time></trkpt><trkpt lat="37.71741666229899" lon="15.197580264236397"><ele>62.0</ele><time>2026-03-29T11:33:13Z</time></trkpt><trkpt lat="37.71750931928947" lon="15.197594573370774"><ele>62.0</ele><time>2026-03-29T11:33:14Z</time></trkpt><trkpt lat="37.71760761209356" lon="15.1975832328775"><ele>62.0</ele><time>2026-03-29T11:33:15Z</time></trkpt><trkpt lat="37.71769606750199" lon="15.197553133451697"><ele>62.0</ele><time>2026-03-29T11:33:16Z</time></trkpt><trkpt lat="37.71777776969897" lon="15.19750719162838"><ele>62.0</ele><time>2026-03-29T11:33:17Z</time></trkpt><trkpt lat="37.71785489265582" lon="15.197449989956294"><ele>62.0</ele><time>2026-03-29T11:33:18Z</time></trkpt><trkpt lat="37.717932872690646" lon="15.197393533231635"><ele>61.66666666666667</ele><time>2026-03-29T11:33:19Z</time></trkpt><trkpt lat="37.71801090264656" lon="15.197338677084971"><ele>61.333333333333336</ele><time>2026-03-29T11:33:20Z</time></trkpt><trkpt lat="37.718088507863115" lon="15.197283975066176"><ele>61.0</ele><time>2026-03-29T11:33:21Z</time></trkpt><trkpt lat="37.718165469449204" lon="15.19722865671952"><ele>60.66666666666667</ele><time>2026-03-29T11:33:22Z</time></trkpt><trkpt lat="37.71824131513043" lon="15.197175650722789"><ele>60.333333333333336</ele><time>2026-03-29T11:33:23Z</time></trkpt><trkpt lat="37.71831676181873" lon="15.19712148108675"><ele>60.0</ele><time>2026-03-29T11:33:24Z</time></trkpt><trkpt lat="37.71839459164593" lon="15.197069589249368"><ele>60.0</ele><time>2026-03-29T11:33:25Z</time></trkpt><trkpt lat="37.71847435280456" lon="15.197025545632814"><ele>60.0</ele><time>2026-03-29T11:33:26Z</time></trkpt><trkpt lat="37.718559215068936" lon="15.196989078706059"><ele>60.0</ele><time>2026-03-29T11:33:27Z</time></trkpt><trkpt lat="37.71864280527258" lon="15.196976120196918"><ele>60.0</ele><time>2026-03-29T11:33:28Z</time></trkpt><trkpt lat="37.71872212269923" lon="15.197001291262636"><ele>60.0</ele><time>2026-03-29T11:33:29Z</time></trkpt><trkpt lat="37.718794073948956" lon="15.19703843718352"><ele>60.0</ele><time>2026-03-29T11:33:30Z</time></trkpt><trkpt lat="37.71885677586141" lon="15.197106612639072"><ele>59.666666666666664</ele><time>2026-03-29T11:33:31Z</time></trkpt><trkpt lat="37.718907529277445" lon="15.19718632578646"><ele>59.33333333333333</ele><time>2026-03-29T11:33:32Z</time></trkpt><trkpt lat="37.718942852461915" lon="15.19727920911838"><ele>59.0</ele><time>2026-03-29T11:33:33Z</time></trkpt><trkpt lat="37.71897417996097" lon="15.197379934663747"><ele>58.666666666666664</ele><time>2026-03-29T11:33:34.001Z</time></trkpt><trkpt lat="37.71899902931704" lon="15.197484148075752"><ele>58.33333333333333</ele><time>2026-03-29T11:33:35.001Z</time></trkpt><trkpt lat="37.719013647376705" lon="15.19757932856803"><ele>58.0</ele><time>2026-03-29T11:33:36.001Z</time></trkpt><trkpt lat="37.71902508708173" lon="15.197669385434294"><ele>57.666666666666664</ele><time>2026-03-29T11:33:37.001Z</time></trkpt><trkpt lat="37.71903384618412" lon="15.197757275521797"><ele>57.33333333333333</ele><time>2026-03-29T11:33:38.001Z</time></trkpt><trkpt lat="37.71904355326898" lon="15.197906169064892"><ele>57.0</ele><time>2026-03-29T11:33:40.001Z</time></trkpt><trkpt lat="37.719033547284305" lon="15.197991472629653"><ele>56.66666666666667</ele><time>2026-03-29T11:33:41.001Z</time></trkpt><trkpt lat="37.71903639050121" lon="15.1980893895575"><ele>56.333333333333336</ele><time>2026-03-29T11:33:42.001Z</time></trkpt><trkpt lat="37.71903911276749" lon="15.19818995943268"><ele>56.0</ele><time>2026-03-29T11:33:43.001Z</time></trkpt><trkpt lat="37.719041902195876" lon="15.198309173185123"><ele>55.66666666666667</ele><time>2026-03-29T11:33:44.001Z</time></trkpt><trkpt lat="37.71904226437425" lon="15.198418677841953"><ele>55.333333333333336</ele><time>2026-03-29T11:33:45.001Z</time></trkpt><trkpt lat="37.71904222720485" lon="15.198522476023868"><ele>55.0</ele><time>2026-03-29T11:33:46.001Z</time></trkpt><trkpt lat="37.71904902847868" lon="15.198629699879211"><ele>54.66666666666667</ele><time>2026-03-29T11:33:47.001Z</time></trkpt><trkpt lat="37.71905248213023" lon="15.19872702663221"><ele>54.333333333333336</ele><time>2026-03-29T11:33:48.001Z</time></trkpt><trkpt lat="37.71907142655258" lon="15.198829934244907"><ele>54.0</ele><time>2026-03-29T11:33:49.001Z</time></trkpt><trkpt lat="37.71909494608132" lon="15.198928927047811"><ele>53.5</ele><time>2026-03-29T11:33:50.001Z</time></trkpt><trkpt lat="37.71912276593862" lon="15.1990249466696"><ele>53.0</ele><time>2026-03-29T11:33:51.001Z</time></trkpt><trkpt lat="37.71915300282308" lon="15.199119335308152"><ele>52.5</ele><time>2026-03-29T11:33:52.001Z</time></trkpt><trkpt lat="37.71918402381364" lon="15.199207145645003"><ele>52.0</ele><time>2026-03-29T11:33:53.001Z</time></trkpt><trkpt lat="37.719216670366535" lon="15.199297277039019"><ele>51.5</ele><time>2026-03-29T11:33:54.001Z</time></trkpt><trkpt lat="37.71924953979948" lon="15.199387840707503"><ele>51.0</ele><time>2026-03-29T11:33:55.001Z</time></trkpt><trkpt lat="37.71928491483585" lon="15.19947591180686"><ele>51.0</ele><time>2026-03-29T11:33:56.001Z</time></trkpt><trkpt lat="37.71932561869134" lon="15.199560549877669"><ele>51.0</ele><time>2026-03-29T11:33:57.001Z</time></trkpt><trkpt lat="37.71937179314831" lon="15.199643457345077"><ele>51.0</ele><time>2026-03-29T11:33:58.001Z</time></trkpt><trkpt lat="37.719423169615915" lon="15.199723386416714"><ele>51.0</ele><time>2026-03-29T11:33:59.001Z</time></trkpt><trkpt lat="37.71947711889273" lon="15.199800885708877"><ele>51.0</ele><time>2026-03-29T11:34:00.001Z</time></trkpt><trkpt lat="37.7195312466486" lon="15.199880552295298"><ele>51.0</ele><time>2026-03-29T11:34:01.001Z</time></trkpt><trkpt lat="37.71959096254409" lon="15.199962507377123"><ele>50.199999999999996</ele><time>2026-03-29T11:34:02.001Z</time></trkpt><trkpt lat="37.71965419145472" lon="15.200046214977473"><ele>49.4</ele><time>2026-03-29T11:34:03.001Z</time></trkpt><trkpt lat="37.719720448571124" lon="15.200125148224297"><ele>48.6</ele><time>2026-03-29T11:34:04.001Z</time></trkpt><trkpt lat="37.71978757193864" lon="15.200207791483137"><ele>47.8</ele><time>2026-03-29T11:34:05.001Z</time></trkpt><trkpt lat="37.719848179593846" lon="15.200300981762009"><ele>47.0</ele><time>2026-03-29T11:34:06.001Z</time></trkpt><trkpt lat="37.71990375691167" lon="15.200401126681818"><ele>47.0</ele><time>2026-03-29T11:34:07.001Z</time></trkpt><trkpt lat="37.7199505893862" lon="15.200510234281314"><ele>47.0</ele><time>2026-03-29T11:34:08.001Z</time></trkpt><trkpt lat="37.7199858797872" lon="15.200626693875842"><ele>47.0</ele><time>2026-03-29T11:34:09.001Z</time></trkpt><trkpt lat="37.72001258338859" lon="15.200747834390285"><ele>47.0</ele><time>2026-03-29T11:34:10.001Z</time></trkpt><trkpt lat="37.72003298739508" lon="15.200868997226333"><ele>47.0</ele><time>2026-03-29T11:34:11.001Z</time></trkpt><trkpt lat="37.720059930166755" lon="15.20099615466193"><ele>46.8</ele><time>2026-03-29T11:34:12.001Z</time></trkpt><trkpt lat="37.72008760580994" lon="15.201124616891569"><ele>46.6</ele><time>2026-03-29T11:34:13.001Z</time></trkpt><trkpt lat="37.720120528106634" lon="15.201254733359013"><ele>46.4</ele><time>2026-03-29T11:34:14.001Z</time></trkpt><trkpt lat="37.72014762359516" lon="15.2013919261544"><ele>46.199999999999996</ele><time>2026-03-29T11:34:15.001Z</time></trkpt><trkpt lat="37.72017872661199" lon="15.201519526993348"><ele>46.0</ele><time>2026-03-29T11:34:16.001Z</time></trkpt><trkpt lat="37.720213566042204" lon="15.201647456179565"><ele>45.199999999999996</ele><time>2026-03-29T11:34:17.001Z</time></trkpt><trkpt lat="37.720253564344624" lon="15.201771878836631"><ele>44.4</ele><time>2026-03-29T11:34:18.001Z</time></trkpt><trkpt lat="37.720302215643905" lon="15.201891562551928"><ele>43.6</ele><time>2026-03-29T11:34:19.001Z</time></trkpt><trkpt lat="37.72035759382216" lon="15.2020047982947"><ele>42.8</ele><time>2026-03-29T11:34:20.001Z</time></trkpt><trkpt lat="37.7204168844227" lon="15.202114887458112"><ele>42.0</ele><time>2026-03-29T11:34:21.001Z</time></trkpt><trkpt lat="37.720480502308035" lon="15.202218589440502"><ele>42.0</ele><time>2026-03-29T11:34:22.001Z</time></trkpt><trkpt lat="37.720544088104845" lon="15.202318740881472"><ele>42.0</ele><time>2026-03-29T11:34:23.001Z</time></trkpt><trkpt lat="37.7206023726691" lon="15.202424652420916"><ele>42.0</ele><time>2026-03-29T11:34:24.001Z</time></trkpt><trkpt lat="37.72066107597283" lon="15.202526834562208"><ele>42.0</ele><time>2026-03-29T11:34:25.001Z</time></trkpt><trkpt lat="37.72071585107933" lon="15.20263084660364"><ele>42.0</ele><time>2026-03-29T11:34:26.001Z</time></trkpt><trkpt lat="37.720763654214714" lon="15.202737427338047"><ele>41.4</ele><time>2026-03-29T11:34:27.001Z</time></trkpt><trkpt lat="37.720812254373726" lon="15.202846284976566"><ele>40.800000000000004</ele><time>2026-03-29T11:34:28.001Z</time></trkpt><trkpt lat="37.720862640503896" lon="15.202952965731727"><ele>40.2</ele><time>2026-03-29T11:34:29.001Z</time></trkpt><trkpt lat="37.720904937999045" lon="15.203059958255153"><ele>39.6</ele><time>2026-03-29T11:34:30.001Z</time></trkpt><trkpt lat="37.72095547607125" lon="15.203159267495131"><ele>39.0</ele><time>2026-03-29T11:34:31.001Z</time></trkpt><trkpt lat="37.72101749538459" lon="15.20324580683277"><ele>38.0</ele><time>2026-03-29T11:34:32.001Z</time></trkpt><trkpt lat="37.721090020250834" lon="15.203316382191478"><ele>37.0</ele><time>2026-03-29T11:34:33.001Z</time></trkpt><trkpt lat="37.72117119221287" lon="15.20337194612262"><ele>36.0</ele><time>2026-03-29T11:34:34.001Z</time></trkpt><trkpt lat="37.72125484155463" lon="15.20341743144545"><ele>35.0</ele><time>2026-03-29T11:34:35.002Z</time></trkpt><trkpt lat="37.721353296010705" lon="15.203450217770307"><ele>34.0</ele><time>2026-03-29T11:34:36.002Z</time></trkpt><trkpt lat="37.721447685527515" lon="15.20347833302142"><ele>34.0</ele><time>2026-03-29T11:34:37.002Z</time></trkpt><trkpt lat="37.72154371777563" lon="15.203498430642385"><ele>34.0</ele><time>2026-03-29T11:34:38.002Z</time></trkpt><trkpt lat="37.72164664884203" lon="15.203517350202807"><ele>34.0</ele><time>2026-03-29T11:34:39.002Z</time></trkpt><trkpt lat="37.72175020767987" lon="15.203532696923968"><ele>34.0</ele><time>2026-03-29T11:34:40.002Z</time></trkpt><trkpt lat="37.721854598183825" lon="15.203543056498976"><ele>34.0</ele><time>2026-03-29T11:34:41.002Z</time></trkpt><trkpt lat="37.72195629825118" lon="15.203572500487448"><ele>33.2</ele><time>2026-03-29T11:34:42.002Z</time></trkpt><trkpt lat="37.72206672938532" lon="15.203542030419255"><ele>32.4</ele><time>2026-03-29T11:34:43.002Z</time></trkpt><trkpt lat="37.72216954135631" lon="15.203533636315811"><ele>31.6</ele><time>2026-03-29T11:34:44.002Z</time></trkpt><trkpt lat="37.72226966558332" lon="15.203515444552393"><ele>30.8</ele><time>2026-03-29T11:34:45.002Z</time></trkpt><trkpt lat="37.7223717117323" lon="15.203499877208618"><ele>30.0</ele><time>2026-03-29T11:34:46.002Z</time></trkpt><trkpt lat="37.72246702094761" lon="15.203504652606002"><ele>30.0</ele><time>2026-03-29T11:34:47.002Z</time></trkpt><trkpt lat="37.72257170228968" lon="15.203523974654718"><ele>30.0</ele><time>2026-03-29T11:34:48.002Z</time></trkpt><trkpt lat="37.7226767062579" lon="15.20355164302426"><ele>30.0</ele><time>2026-03-29T11:34:49.002Z</time></trkpt><trkpt lat="37.722782021830604" lon="15.203570914418195"><ele>30.0</ele><time>2026-03-29T11:34:50.002Z</time></trkpt><trkpt lat="37.72289440030137" lon="15.203577022677932"><ele>30.0</ele><time>2026-03-29T11:34:51.002Z</time></trkpt><trkpt lat="37.723012785854316" lon="15.20357482139004"><ele>30.2</ele><time>2026-03-29T11:34:52.002Z</time></trkpt><trkpt lat="37.72313164964487" lon="15.203567781660766"><ele>30.4</ele><time>2026-03-29T11:34:53.002Z</time></trkpt><trkpt lat="37.723244741890596" lon="15.203556957231918"><ele>30.6</ele><time>2026-03-29T11:34:54.002Z</time></trkpt><trkpt lat="37.723351658937744" lon="15.203546952539192"><ele>30.8</ele><time>2026-03-29T11:34:55.002Z</time></trkpt><trkpt lat="37.72345441409428" lon="15.203538680475823"><ele>31.0</ele><time>2026-03-29T11:34:55.999Z</time></trkpt><trkpt lat="37.72355247824826" lon="15.203534344836394"><ele>30.8</ele><time>2026-03-29T11:34:56.999Z</time></trkpt><trkpt lat="37.7236531086641" lon="15.20353608511278"><ele>30.6</ele><time>2026-03-29T11:34:57.999Z</time></trkpt><trkpt lat="37.723747033545415" lon="15.20354557578423"><ele>30.4</ele><time>2026-03-29T11:34:58.999Z</time></trkpt><trkpt lat="37.72384154615322" lon="15.203563686565733"><ele>30.2</ele><time>2026-03-29T11:34:59.999Z</time></trkpt><trkpt lat="37.723931069385195" lon="15.203589735324213"><ele>30.0</ele><time>2026-03-29T11:35:00.999Z</time></trkpt><trkpt lat="37.72402148065792" lon="15.203619212940596"><ele>30.0</ele><time>2026-03-29T11:35:01.999Z</time></trkpt><trkpt lat="37.72411072424948" lon="15.203647721754447"><ele>30.0</ele><time>2026-03-29T11:35:02.999Z</time></trkpt><trkpt lat="37.72419535820655" lon="15.203682653636301"><ele>30.0</ele><time>2026-03-29T11:35:03.999Z</time></trkpt><trkpt lat="37.72427801365978" lon="15.203725484236571"><ele>30.0</ele><time>2026-03-29T11:35:04.999Z</time></trkpt><trkpt lat="37.72435709458086" lon="15.203772636917833"><ele>30.0</ele><time>2026-03-29T11:35:05.999Z</time></trkpt><trkpt lat="37.724434506899705" lon="15.203823911398976"><ele>30.0</ele><time>2026-03-29T11:35:06.999Z</time></trkpt><trkpt lat="37.72451042799915" lon="15.20387698056118"><ele>29.833333333333332</ele><time>2026-03-29T11:35:07.999Z</time></trkpt><trkpt lat="37.72458370339041" lon="15.203932015298827"><ele>29.666666666666664</ele><time>2026-03-29T11:35:08.999Z</time></trkpt><trkpt lat="37.72465638742195" lon="15.203988360418121"><ele>29.5</ele><time>2026-03-29T11:35:09.999Z</time></trkpt><trkpt lat="37.724732690523304" lon="15.204047145894695"><ele>29.333333333333332</ele><time>2026-03-29T11:35:10.999Z</time></trkpt><trkpt lat="37.7248095409013" lon="15.204111096588594"><ele>29.166666666666664</ele><time>2026-03-29T11:35:11.999Z</time></trkpt><trkpt lat="37.72488549513575" lon="15.204185143955364"><ele>29.0</ele><time>2026-03-29T11:35:12.999Z</time></trkpt><trkpt lat="37.72495752302377" lon="15.20426499517396"><ele>28.799999999999997</ele><time>2026-03-29T11:35:13.999Z</time></trkpt><trkpt lat="37.725026877896" lon="15.20434922719657"><ele>28.599999999999998</ele><time>2026-03-29T11:35:14.999Z</time></trkpt><trkpt lat="37.72509376738988" lon="15.204441411004147"><ele>28.4</ele><time>2026-03-29T11:35:15.999Z</time></trkpt><trkpt lat="37.7251630214411" lon="15.20453302137072"><ele>28.2</ele><time>2026-03-29T11:35:16.999Z</time></trkpt><trkpt lat="37.72522572024221" lon="15.204633944418145"><ele>28.0</ele><time>2026-03-29T11:35:17.999Z</time></trkpt><trkpt lat="37.725278324308064" lon="15.20474166599474"><ele>27.0</ele><time>2026-03-29T11:35:18.999Z</time></trkpt><trkpt lat="37.72533397110976" lon="15.204852228214714"><ele>25.999999999999996</ele><time>2026-03-29T11:35:19.999Z</time></trkpt><trkpt lat="37.7253878386545" lon="15.204960969235264"><ele>25.0</ele><time>2026-03-29T11:35:21Z</time></trkpt><trkpt lat="37.72543838939721" lon="15.20506986021568"><ele>24.0</ele><time>2026-03-29T11:35:22Z</time></trkpt><trkpt lat="37.72549316833446" lon="15.205175356737616"><ele>23.0</ele><time>2026-03-29T11:35:23Z</time></trkpt><trkpt lat="37.72554039661612" lon="15.205283358296898"><ele>23.0</ele><time>2026-03-29T11:35:24Z</time></trkpt><trkpt lat="37.72558354246709" lon="15.20537786575626"><ele>23.0</ele><time>2026-03-29T11:35:25Z</time></trkpt><trkpt lat="37.72562376104443" lon="15.205464174501856"><ele>23.0</ele><time>2026-03-29T11:35:26Z</time></trkpt><trkpt lat="37.72565635199137" lon="15.205535574304337"><ele>23.0</ele><time>2026-03-29T11:35:27Z</time></trkpt><trkpt lat="37.72569371583858" lon="15.205621054258518"><ele>23.0</ele><time>2026-03-29T11:35:29Z</time></trkpt><trkpt lat="37.72575596776663" lon="15.205687114672198"><ele>23.0</ele><time>2026-03-29T11:35:31Z</time></trkpt><trkpt lat="37.725866531240875" lon="15.205766407630708"><ele>22.5</ele><time>2026-03-29T11:35:33Z</time></trkpt><trkpt lat="37.725923229503174" lon="15.205814865500505"><ele>22.0</ele><time>2026-03-29T11:35:34Z</time></trkpt><trkpt lat="37.72597920467658" lon="15.205870801887805"><ele>21.5</ele><time>2026-03-29T11:35:35Z</time></trkpt><trkpt lat="37.72603324448875" lon="15.205930566448659"><ele>21.0</ele><time>2026-03-29T11:35:36Z</time></trkpt><trkpt lat="37.72608526459681" lon="15.20598798877524"><ele>20.5</ele><time>2026-03-29T11:35:37Z</time></trkpt><trkpt lat="37.72613663333753" lon="15.206045265449854"><ele>20.0</ele><time>2026-03-29T11:35:38Z</time></trkpt><trkpt lat="37.7261927026364" lon="15.206186220795553"><ele>20.0</ele><time>2026-03-29T11:35:40Z</time></trkpt><trkpt lat="37.726180969224" lon="15.20626943970674"><ele>20.0</ele><time>2026-03-29T11:35:41Z</time></trkpt><trkpt lat="37.726165278024325" lon="15.206411630199462"><ele>20.0</ele><time>2026-03-29T11:35:43Z</time></trkpt><trkpt lat="37.72616802077172" lon="15.206491374175481"><ele>20.0</ele><time>2026-03-29T11:35:44Z</time></trkpt><trkpt lat="37.726191742206545" lon="15.206568283260324"><ele>20.0</ele><time>2026-03-29T11:35:45Z</time></trkpt><trkpt lat="37.72623274330391" lon="15.206638123114256"><ele>20.0</ele><time>2026-03-29T11:35:46Z</time></trkpt><trkpt lat="37.726283689630634" lon="15.206695119938411"><ele>20.0</ele><time>2026-03-29T11:35:47Z</time></trkpt><trkpt lat="37.7263417302589" lon="15.206751679391449"><ele>19.8</ele><time>2026-03-29T11:35:48Z</time></trkpt><trkpt lat="37.72640666617072" lon="15.206767654276485"><ele>19.6</ele><time>2026-03-29T11:35:49Z</time></trkpt><trkpt lat="37.72648114823692" lon="15.206880596488785"><ele>19.4</ele><time>2026-03-29T11:35:51Z</time></trkpt><trkpt lat="37.72650652100585" lon="15.20702150036257"><ele>19.2</ele><time>2026-03-29T11:35:53Z</time></trkpt><trkpt lat="37.72652822296888" lon="15.207155988042746"><ele>19.0</ele><time>2026-03-29T11:35:55Z</time></trkpt><trkpt lat="37.726546446698634" lon="15.207249168853394"><ele>18.71428571428571</ele><time>2026-03-29T11:35:57Z</time></trkpt><trkpt lat="37.726562176556946" lon="15.20732778025133"><ele>18.42857142857143</ele><time>2026-03-29T11:35:59Z</time></trkpt><trkpt lat="37.726585720852384" lon="15.20743617311395"><ele>18.142857142857142</ele><time>2026-03-29T11:36:01Z</time></trkpt><trkpt lat="37.72659933094263" lon="15.207514253294617"><ele>17.857142857142854</ele><time>2026-03-29T11:36:02.001Z</time></trkpt><trkpt lat="37.72661269931831" lon="15.20759278796122"><ele>17.57142857142857</ele><time>2026-03-29T11:36:03.001Z</time></trkpt><trkpt lat="37.726627925858764" lon="15.2076727707207"><ele>17.285714285714285</ele><time>2026-03-29T11:36:04.001Z</time></trkpt><trkpt lat="37.72664265037994" lon="15.207755829254982"><ele>17.0</ele><time>2026-03-29T11:36:05.001Z</time></trkpt><trkpt lat="37.72665704803636" lon="15.207840061384992"><ele>17.0</ele><time>2026-03-29T11:36:06.001Z</time></trkpt><trkpt lat="37.726672365357764" lon="15.207928352772967"><ele>17.0</ele><time>2026-03-29T11:36:07.001Z</time></trkpt><trkpt lat="37.726689985112216" lon="15.208015914906124"><ele>17.0</ele><time>2026-03-29T11:36:08.001Z</time></trkpt><trkpt lat="37.7267059035026" lon="15.208107645816476"><ele>17.0</ele><time>2026-03-29T11:36:09.001Z</time></trkpt><trkpt lat="37.72671904019864" lon="15.20820161659721"><ele>17.0</ele><time>2026-03-29T11:36:10.001Z</time></trkpt><trkpt lat="37.726737497370124" lon="15.208298603940284"><ele>17.0</ele><time>2026-03-29T11:36:11.001Z</time></trkpt><trkpt lat="37.726754543201224" lon="15.208396419531665"><ele>16.333333333333336</ele><time>2026-03-29T11:36:12.001Z</time></trkpt><trkpt lat="37.72677237979569" lon="15.208497722303367"><ele>15.666666666666668</ele><time>2026-03-29T11:36:13.001Z</time></trkpt><trkpt lat="37.72679190948167" lon="15.208598846390824"><ele>15.0</ele><time>2026-03-29T11:36:14.001Z</time></trkpt><trkpt lat="37.726807816434146" lon="15.208704927895901"><ele>14.333333333333332</ele><time>2026-03-29T11:36:15.001Z</time></trkpt><trkpt lat="37.726823139176176" lon="15.208809875838757"><ele>13.666666666666666</ele><time>2026-03-29T11:36:16.001Z</time></trkpt><trkpt lat="37.726840782082164" lon="15.208911010910695"><ele>13.0</ele><time>2026-03-29T11:36:17.001Z</time></trkpt><trkpt lat="37.72685687260242" lon="15.209011881515933"><ele>12.571428571428571</ele><time>2026-03-29T11:36:18.001Z</time></trkpt><trkpt lat="37.72687337397213" lon="15.209108911850711"><ele>12.142857142857144</ele><time>2026-03-29T11:36:19.001Z</time></trkpt><trkpt lat="37.72689018536132" lon="15.209203972209176"><ele>11.714285714285715</ele><time>2026-03-29T11:36:20.001Z</time></trkpt><trkpt lat="37.726904830804" lon="15.209297964986268"><ele>11.285714285714285</ele><time>2026-03-29T11:36:21.001Z</time></trkpt><trkpt lat="37.726917806232954" lon="15.209388105393263"><ele>10.857142857142858</ele><time>2026-03-29T11:36:22.001Z</time></trkpt><trkpt lat="37.726930164337965" lon="15.209466849495554"><ele>10.428571428571429</ele><time>2026-03-29T11:36:23.001Z</time></trkpt><trkpt lat="37.726946529813624" lon="15.209553886014827"><ele>10.0</ele><time>2026-03-29T11:36:25.001Z</time></trkpt><trkpt lat="37.727021207719595" lon="15.209602468368624"><ele>9.333333333333334</ele><time>2026-03-29T11:36:30.001Z</time></trkpt><trkpt lat="37.727114063818746" lon="15.20956228109277"><ele>8.666666666666668</ele><time>2026-03-29T11:36:32.001Z</time></trkpt><trkpt lat="37.7271750492548" lon="15.209522651779851"><ele>8.0</ele><time>2026-03-29T11:36:33.001Z</time></trkpt><trkpt lat="37.72723698637162" lon="15.209484159708198"><ele>7.333333333333334</ele><time>2026-03-29T11:36:34.001Z</time></trkpt><trkpt lat="37.727306892646176" lon="15.209442572697323"><ele>6.666666666666667</ele><time>2026-03-29T11:36:35.001Z</time></trkpt><trkpt lat="37.72738193095475" lon="15.209399032658716"><ele>6.0</ele><time>2026-03-29T11:36:36.001Z</time></trkpt><trkpt lat="37.727457061085204" lon="15.20935425000994"><ele>6.0</ele><time>2026-03-29T11:36:37.001Z</time></trkpt><trkpt lat="37.72753142075848" lon="15.209311626784787"><ele>6.0</ele><time>2026-03-29T11:36:38.001Z</time></trkpt><trkpt lat="37.727601145690464" lon="15.209268264152024"><ele>6.0</ele><time>2026-03-29T11:36:39.001Z</time></trkpt><trkpt lat="37.727667816799645" lon="15.209221818026473"><ele>6.0</ele><time>2026-03-29T11:36:40.001Z</time></trkpt><trkpt lat="37.72772722719963" lon="15.209174366969071"><ele>6.0</ele><time>2026-03-29T11:36:41.001Z</time></trkpt><trkpt lat="37.72778900863738" lon="15.209121891646966"><ele>6.0</ele><time>2026-03-29T11:36:42.001Z</time></trkpt><trkpt lat="37.72785916069472" lon="15.209062900371064"><ele>5.833333333333333</ele><time>2026-03-29T11:36:43.001Z</time></trkpt><trkpt lat="37.727923624661344" lon="15.20900401756734"><ele>5.666666666666667</ele><time>2026-03-29T11:36:44.001Z</time></trkpt><trkpt lat="37.727994346645275" lon="15.20893848134411"><ele>5.5</ele><time>2026-03-29T11:36:45.001Z</time></trkpt><trkpt lat="37.72806960175859" lon="15.20887144287365"><ele>5.333333333333334</ele><time>2026-03-29T11:36:46.001Z</time></trkpt><trkpt lat="37.72814642733781" lon="15.20880401200567"><ele>5.166666666666667</ele><time>2026-03-29T11:36:47.001Z</time></trkpt><trkpt lat="37.728220990153005" lon="15.20873622208463"><ele>5.0</ele><time>2026-03-29T11:36:48.001Z</time></trkpt><trkpt lat="37.72829841629074" lon="15.208665852596354"><ele>4.8</ele><time>2026-03-29T11:36:49.001Z</time></trkpt><trkpt lat="37.728373714013735" lon="15.208596820783518"><ele>4.6</ele><time>2026-03-29T11:36:50.001Z</time></trkpt><trkpt lat="37.72844783404614" lon="15.208530474244816"><ele>4.4</ele><time>2026-03-29T11:36:51.001Z</time></trkpt><trkpt lat="37.728520438481624" lon="15.208464450564959"><ele>4.2</ele><time>2026-03-29T11:36:52.001Z</time></trkpt><trkpt lat="37.728589015137764" lon="15.208394316291697"><ele>4.0</ele><time>2026-03-29T11:36:53.002Z</time></trkpt><trkpt lat="37.72865953488724" lon="15.208326502627106"><ele>3.9999999999999996</ele><time>2026-03-29T11:36:54.002Z</time></trkpt><trkpt lat="37.72872399411383" lon="15.208260956400867"><ele>4.0</ele><time>2026-03-29T11:36:55.002Z</time></trkpt><trkpt lat="37.72879976560411" lon="15.208179897831439"><ele>4.0</ele><time>2026-03-29T11:36:57.002Z</time></trkpt><trkpt lat="37.72888249150041" lon="15.20809565597333"><ele>4.0</ele><time>2026-03-29T11:36:59.002Z</time></trkpt><trkpt lat="37.728931091246345" lon="15.208044732351556"><ele>3.9999999999999996</ele><time>2026-03-29T11:37:00.002Z</time></trkpt><trkpt lat="37.72898271713341" lon="15.207988859760272"><ele>4.0</ele><time>2026-03-29T11:37:01.002Z</time></trkpt><trkpt lat="37.72904288077172" lon="15.20792520200975"><ele>3.9999999999999996</ele><time>2026-03-29T11:37:01.999Z</time></trkpt><trkpt lat="37.729109278648416" lon="15.207860454588717"><ele>4.0</ele><time>2026-03-29T11:37:02.999Z</time></trkpt><trkpt lat="37.729179101057746" lon="15.20779460978692"><ele>4.0</ele><time>2026-03-29T11:37:03.999Z</time></trkpt><trkpt lat="37.72925365430314" lon="15.207725921465084"><ele>4.0</ele><time>2026-03-29T11:37:04.999Z</time></trkpt><trkpt lat="37.72932582215477" lon="15.207653166891337"><ele>3.9999999999999996</ele><time>2026-03-29T11:37:05.999Z</time></trkpt><trkpt lat="37.72939902444529" lon="15.207578757168564"><ele>4.0</ele><time>2026-03-29T11:37:06.999Z</time></trkpt><trkpt lat="37.72947098515516" lon="15.207506138029874"><ele>4.0</ele><time>2026-03-29T11:37:07.999Z</time></trkpt><trkpt lat="37.72955421109607" lon="15.207438991818632"><ele>4.0</ele><time>2026-03-29T11:37:08.999Z</time></trkpt><trkpt lat="37.729634175295644" lon="15.207358085544689"><ele>4.0</ele><time>2026-03-29T11:37:09.999Z</time></trkpt><trkpt lat="37.72971607058803" lon="15.207276669362113"><ele>4.0</ele><time>2026-03-29T11:37:10.999Z</time></trkpt><trkpt lat="37.72979941763118" lon="15.207194140663562"><ele>4.0</ele><time>2026-03-29T11:37:11.999Z</time></trkpt><trkpt lat="37.72988348896396" lon="15.207111829490783"><ele>3.8000000000000003</ele><time>2026-03-29T11:37:12.999Z</time></trkpt><trkpt lat="37.72996907368172" lon="15.207027486895141"><ele>3.6000000000000005</ele><time>2026-03-29T11:37:13.999Z</time></trkpt><trkpt lat="37.73005461567674" lon="15.20694363720701"><ele>3.4</ele><time>2026-03-29T11:37:14.999Z</time></trkpt><trkpt lat="37.730142600723696" lon="15.206854740466868"><ele>3.2</ele><time>2026-03-29T11:37:15.999Z</time></trkpt><trkpt lat="37.73023131513546" lon="15.206765785580487"><ele>3.0</ele><time>2026-03-29T11:37:16.999Z</time></trkpt><trkpt lat="37.73032216993691" lon="15.206675625505198"><ele>3.0</ele><time>2026-03-29T11:37:17.999Z</time></trkpt><trkpt lat="37.73041390028903" lon="15.206589503522345"><ele>3.0</ele><time>2026-03-29T11:37:18.999Z</time></trkpt><trkpt lat="37.73050785802661" lon="15.206500774462423"><ele>3.0</ele><time>2026-03-29T11:37:19.999Z</time></trkpt><trkpt lat="37.73060223593127" lon="15.206415245892002"><ele>3.0</ele><time>2026-03-29T11:37:21Z</time></trkpt><trkpt lat="37.7306998774729" lon="15.206331895864064"><ele>3.25</ele><time>2026-03-29T11:37:22Z</time></trkpt><trkpt lat="37.73079642286896" lon="15.206251628281622"><ele>3.5</ele><time>2026-03-29T11:37:23Z</time></trkpt><trkpt lat="37.73089259179237" lon="15.206172950893361"><ele>3.75</ele><time>2026-03-29T11:37:24Z</time></trkpt><trkpt lat="37.73098918612712" lon="15.206094654021443"><ele>4.0</ele><time>2026-03-29T11:37:25Z</time></trkpt><trkpt lat="37.731074822165446" lon="15.206016234732214"><ele>4.0</ele><time>2026-03-29T11:37:26Z</time></trkpt><trkpt lat="37.73117025684223" lon="15.205945131263165"><ele>4.0</ele><time>2026-03-29T11:37:27Z</time></trkpt><trkpt lat="37.73126660849519" lon="15.205879530405868"><ele>4.0</ele><time>2026-03-29T11:37:28Z</time></trkpt><trkpt lat="37.73136406443274" lon="15.205822775283599"><ele>4.0</ele><time>2026-03-29T11:37:29Z</time></trkpt><trkpt lat="37.731459322560944" lon="15.205776127405459"><ele>4.0</ele><time>2026-03-29T11:37:30Z</time></trkpt><trkpt lat="37.731563299230224" lon="15.205735078926287"><ele>4.0</ele><time>2026-03-29T11:37:31Z</time></trkpt><trkpt lat="37.73167119276208" lon="15.205694675051216"><ele>4.0</ele><time>2026-03-29T11:37:32Z</time></trkpt><trkpt lat="37.73178293874497" lon="15.205653517581595"><ele>4.0</ele><time>2026-03-29T11:37:33Z</time></trkpt><trkpt lat="37.731899365285045" lon="15.205611237291883"><ele>4.0</ele><time>2026-03-29T11:37:34Z</time></trkpt><trkpt lat="37.7320121093645" lon="15.205567393455741"><ele>4.800000000000001</ele><time>2026-03-29T11:37:35Z</time></trkpt><trkpt lat="37.732116846725816" lon="15.20552932102826"><ele>5.6000000000000005</ele><time>2026-03-29T11:37:36Z</time></trkpt><trkpt lat="37.732217080479" lon="15.205489384832344"><ele>6.4</ele><time>2026-03-29T11:37:37Z</time></trkpt><trkpt lat="37.732313764340674" lon="15.205448757467076"><ele>7.2</ele><time>2026-03-29T11:37:38Z</time></trkpt><trkpt lat="37.732405650470476" lon="15.205412265184837"><ele>8.0</ele><time>2026-03-29T11:37:39Z</time></trkpt><trkpt lat="37.73249783806108" lon="15.205376385908632"><ele>7.999999999999999</ele><time>2026-03-29T11:37:40Z</time></trkpt><trkpt lat="37.732585752319565" lon="15.205345008876396"><ele>8.0</ele><time>2026-03-29T11:37:41Z</time></trkpt><trkpt lat="37.73267353689767" lon="15.205311307659654"><ele>8.0</ele><time>2026-03-29T11:37:42Z</time></trkpt><trkpt lat="37.73276135486209" lon="15.205278155794856"><ele>8.0</ele><time>2026-03-29T11:37:43Z</time></trkpt><trkpt lat="37.732844097606694" lon="15.205246461442485"><ele>7.999999999999999</ele><time>2026-03-29T11:37:44Z</time></trkpt><trkpt lat="37.73292648549807" lon="15.205214460059365"><ele>8.0</ele><time>2026-03-29T11:37:45Z</time></trkpt><trkpt lat="37.73300634142818" lon="15.205185060588494"><ele>7.999999999999999</ele><time>2026-03-29T11:37:46Z</time></trkpt><trkpt lat="37.733083984300784" lon="15.205161732610891"><ele>8.0</ele><time>2026-03-29T11:37:47Z</time></trkpt><trkpt lat="37.733159012347905" lon="15.205143394966775"><ele>8.0</ele><time>2026-03-29T11:37:48Z</time></trkpt><trkpt lat="37.73323843074687" lon="15.205120096145524"><ele>8.0</ele><time>2026-03-29T11:37:49Z</time></trkpt><trkpt lat="37.73331485748673" lon="15.205090317548722"><ele>7.999999999999999</ele><time>2026-03-29T11:37:50Z</time></trkpt><trkpt lat="37.733396410830046" lon="15.205058661566298"><ele>8.0</ele><time>2026-03-29T11:37:51Z</time></trkpt><trkpt lat="37.733473074244365" lon="15.205029887104953"><ele>7.833333333333333</ele><time>2026-03-29T11:37:52Z</time></trkpt><trkpt lat="37.7335556167468" lon="15.204999154478482"><ele>7.666666666666666</ele><time>2026-03-29T11:37:53Z</time></trkpt><trkpt lat="37.733634191394266" lon="15.204966048023861"><ele>7.5</ele><time>2026-03-29T11:37:54Z</time></trkpt><trkpt lat="37.73371501045695" lon="15.204931589070485"><ele>7.333333333333334</ele><time>2026-03-29T11:37:55Z</time></trkpt><trkpt lat="37.73379616478186" lon="15.204894693256003"><ele>7.166666666666667</ele><time>2026-03-29T11:37:56Z</time></trkpt><trkpt lat="37.7338745097629" lon="15.204860997303063"><ele>7.0</ele><time>2026-03-29T11:37:57.001Z</time></trkpt><trkpt lat="37.733949659869715" lon="15.204834799015691"><ele>7.333333333333334</ele><time>2026-03-29T11:37:58.001Z</time></trkpt><trkpt lat="37.73401676433199" lon="15.204810059644464"><ele>7.666666666666667</ele><time>2026-03-29T11:37:59.001Z</time></trkpt><trkpt lat="37.73409565817924" lon="15.204768209115956"><ele>8.0</ele><time>2026-03-29T11:38:01.001Z</time></trkpt><trkpt lat="37.73412893712019" lon="15.204678940875334"><ele>8.333333333333334</ele><time>2026-03-29T11:38:03.001Z</time></trkpt><trkpt lat="37.73409824201177" lon="15.204546340120007"><ele>8.666666666666666</ele><time>2026-03-29T11:38:05.001Z</time></trkpt><trkpt lat="37.73407510996443" lon="15.204466511362256"><ele>9.0</ele><time>2026-03-29T11:38:06.001Z</time></trkpt><trkpt lat="37.73402512299997" lon="15.204305488930439"><ele>9.0</ele><time>2026-03-29T11:38:08.001Z</time></trkpt><trkpt lat="37.734003840370306" lon="15.204203045407146"><ele>9.0</ele><time>2026-03-29T11:38:09.001Z</time></trkpt><trkpt lat="37.7339906513259" lon="15.204124593480206"><ele>9.0</ele><time>2026-03-29T11:38:10.001Z</time></trkpt><trkpt lat="37.73398004667546" lon="15.204045058669932"><ele>9.0</ele><time>2026-03-29T11:38:11.001Z</time></trkpt><trkpt lat="37.73395730810605" lon="15.20390253982924"><ele>9.0</ele><time>2026-03-29T11:38:13.001Z</time></trkpt><trkpt lat="37.73395652899623" lon="15.203810084360505"><ele>9.0</ele><time>2026-03-29T11:38:15.001Z</time></trkpt><trkpt lat="37.73392846405255" lon="15.20373423144511"><ele>9.2</ele><time>2026-03-29T11:38:18.001Z</time></trkpt><trkpt lat="37.733905159858935" lon="15.2036488257765"><ele>9.4</ele><time>2026-03-29T11:38:20.001Z</time></trkpt><trkpt lat="37.73387148551785" lon="15.203505907753932"><ele>9.6</ele><time>2026-03-29T11:38:22.001Z</time></trkpt><trkpt lat="37.73382456446581" lon="15.20335090225499"><ele>9.8</ele><time>2026-03-29T11:38:24.001Z</time></trkpt><trkpt lat="37.733805864177874" lon="15.203251535472408"><ele>10.0</ele><time>2026-03-29T11:38:25.001Z</time></trkpt><trkpt lat="37.733785490173894" lon="15.203149576209938"><ele>10.0</ele><time>2026-03-29T11:38:26.001Z</time></trkpt><trkpt lat="37.73376543146551" lon="15.20306018529617"><ele>10.0</ele><time>2026-03-29T11:38:27.001Z</time></trkpt></trkseg></trk></gpx>